Provisional Data: Mill Creek near Lancaster, PA


Please select a monitoring station.
Please select start date.
Please select start date.

Toggle Unit: C/F Toggle Unit: C/F
Sample Time Temperature (C) Temperature (F) Specific Conductivity (mS/cm) pH   Turbidity (NTU+) DO (mg/L)
12/11/2021 12:00:00 AM 6.67 44.006 0.919 7.04 543.8 12.32
12/11/2021 12:15:00 AM 6.68 44.024 0.919 7.03 546.9 12.25
12/11/2021 12:30:00 AM 6.68 44.024 0.92 7.02 545.2 12.13
12/11/2021 12:45:00 AM 6.68 44.024 0.921 6.99 514.3 12.08
12/11/2021 1:00:00 AM 6.69 44.042 0.921 6.98 516.8 12.01
12/11/2021 1:15:00 AM 6.69 44.042 0.922 6.98 502.1 11.93
12/11/2021 1:30:00 AM 6.69 44.042 0.922 6.97 516.7 11.9
12/11/2021 1:45:00 AM 6.69 44.042 0.923 6.96 540.8 11.86
12/11/2021 2:00:00 AM 6.68 44.024 0.923 6.95 539.5 11.81
12/11/2021 2:15:00 AM 6.68 44.024 0.924 6.95 536.5 11.75
12/11/2021 2:30:00 AM 6.68 44.024 0.924 6.93 567.9 11.68
12/11/2021 2:45:00 AM 6.69 44.042 0.924 6.92 553.9 11.66
12/11/2021 3:00:00 AM 6.68 44.024 0.925 6.88 516.8 11.65
12/11/2021 3:15:00 AM 6.68 44.024 0.925 6.88 545.4 11.62
12/11/2021 3:30:00 AM 6.68 44.024 0.925 6.88 543.7 11.58
12/11/2021 3:45:00 AM 6.68 44.024 0.925 6.87 547.9 11.57
12/11/2021 4:00:00 AM 6.68 44.024 0.926 6.87 619.8 11.57
12/11/2021 4:15:00 AM 6.69 44.042 0.925 6.86 756.1 11.52
12/11/2021 4:30:00 AM 6.68 44.024 0.926 6.86 515.8 11.48
12/11/2021 4:45:00 AM 6.69 44.042 0.926 6.82 757.1 11.46
12/11/2021 5:00:00 AM 6.69 44.042 0.926 6.82 771.6 11.47
12/11/2021 5:15:00 AM 6.69 44.042 0.926 6.72 1684 11.43
12/11/2021 5:30:00 AM 6.7 44.06 0.926 6.65 728.8 11.44
12/11/2021 5:45:00 AM 6.7 44.06 0.925 6.56 766.5 11.42
12/11/2021 6:00:00 AM 6.7 44.06 0.925 6.29 997.9 11.43
12/11/2021 6:15:00 AM 6.71 44.078 0.925 5.92 2228 11.41
12/11/2021 6:30:00 AM 6.72 44.096 0.919 5.7 2114 11.38
12/11/2021 6:45:00 AM 6.73 44.114 0.925 5.53 246.1 11.39
12/11/2021 7:00:00 AM 6.73 44.114 0.925 5.5 154.4 11.42
12/11/2021 7:15:00 AM 6.74 44.132 0.925 5.56 140.1 11.34
12/11/2021 7:30:00 AM 6.75 44.15 0.925 5.6 622.5 11.36
12/11/2021 7:45:00 AM 6.77 44.186 0.924 5.58 131.8 11.35
12/11/2021 8:00:00 AM 6.78 44.204 0.918 5.48 119.4 11.33
12/11/2021 8:15:00 AM 6.81 44.258 0.916 4.88 101.6 11.36
12/11/2021 8:30:00 AM 6.85 44.33 0.914 4.73 117.3 11.44
12/11/2021 8:45:00 AM 6.88 44.384 0.913 5.04 127.4 11.4
12/11/2021 9:00:00 AM 6.91 44.438 0.913 5.12 127.3 11.47
12/11/2021 9:15:00 AM 6.94 44.492 0.914 5.43 127.3 11.51
12/11/2021 9:30:00 AM 6.98 44.564 0.912 5.63 113.6 11.62
12/11/2021 9:45:00 AM 7.03 44.654 0.91 5.48 127 11.66
12/11/2021 10:00:00 AM 7.07 44.726 0.911 5.41 217 11.76
12/11/2021 10:15:00 AM 7.13 44.834 0.908 5.51 103.8 11.82
12/11/2021 10:30:00 AM 7.2 44.96 0.91 5.6 123.2 11.97
12/11/2021 10:45:00 AM 7.23 45.014 0.911 5.66 119.5 12.08
12/11/2021 11:00:00 AM 7.29 45.122 0.912 5.55 128.4 12.19
12/11/2021 11:15:00 AM 7.36 45.248 0.91 5.57 126.7 12.31
12/11/2021 11:30:00 AM 7.44 45.392 0.91 5.69 130.5 12.42
12/11/2021 11:45:00 AM 7.48 45.464 0.908 5.67 112 12.61
12/11/2021 12:00:00 PM 7.56 45.608 0.908 5.61 135.7 12.76
12/11/2021 12:15:00 PM 7.61 45.698 0.908 5.25 118 12.98
12/11/2021 12:30:00 PM 7.73 45.914 0.905 5.52 427.5 13.25
12/11/2021 12:45:00 PM 7.78 46.004 0.916 5.7 132.8 13.47
12/11/2021 1:00:00 PM 7.86 46.148 0.915 5.89 116.9 13.68
12/11/2021 1:15:00 PM 7.93 46.274 0.915 6.01 115.5 13.86
12/11/2021 1:30:00 PM 8 46.4 0.914 6.08 108.5 13.98
12/11/2021 1:45:00 PM 8.09 46.562 0.914 6.13 109.1 14.15
12/11/2021 2:00:00 PM 8.19 46.742 0.913 6.26 118.7 14.29
12/11/2021 2:15:00 PM 8.27 46.886 0.913 6.36 104.8 14.32
12/11/2021 2:30:00 PM 8.33 46.994 0.913 6.44 105.4 14.34
12/11/2021 2:45:00 PM 8.41 47.138 0.912 6.49 112.7 14.27
12/11/2021 3:00:00 PM 8.44 47.192 0.913 6.51 114.3 14.2
12/11/2021 3:15:00 PM 8.51 47.318 0.913 6.51 118 14.12
12/11/2021 3:30:00 PM 8.6 47.48 0.912 6.18 122.9 14.08
12/11/2021 3:45:00 PM 8.67 47.606 0.912 6.33 125.8 14.07
12/11/2021 4:00:00 PM 8.73 47.714 0.913 6.42 107.7 14.02
12/11/2021 4:15:00 PM 8.81 47.858 0.912 6.45 87.11 13.89
12/11/2021 4:30:00 PM 8.87 47.966 0.912 6.48 147.5 13.72
12/11/2021 4:45:00 PM 8.91 48.038 0.913 6.47 117 13.55
12/11/2021 5:00:00 PM 8.97 48.146 0.913 6.46 569.2 13.34
12/11/2021 5:15:00 PM 9.06 48.308 0.913 6.45 112.5 13.17
12/11/2021 5:30:00 PM 9.11 48.398 0.914 6.46 122.7 12.99
12/11/2021 5:45:00 PM 9.19 48.542 0.913 6.5 131.1 12.82
12/11/2021 6:00:00 PM 9.24 48.632 0.914 6.51 120.1 12.65
12/11/2021 6:15:00 PM 9.31 48.758 0.914 6.45 106.8 12.47
12/11/2021 6:30:00 PM 9.36 48.848 0.915 6.33 118.4 12.34
12/11/2021 6:45:00 PM 9.4 48.92 0.916 6.22 487 12.17
12/11/2021 7:00:00 PM 9.41 48.938 0.916 6.28 585.3 12.05
12/11/2021 7:15:00 PM 9.43 48.974 0.917 6.14 145.1 11.9
12/11/2021 7:30:00 PM 9.46 49.028 0.917 6.18 133 11.75
12/11/2021 7:45:00 PM 9.48 49.064 0.918 6.25 118.9 11.61
12/11/2021 8:00:00 PM 9.53 49.154 0.917 6.31 129.9 11.48
12/11/2021 8:15:00 PM 9.55 49.19 0.918 6.36 1304 11.38
12/11/2021 8:30:00 PM 9.6 49.28 0.915 6.37 140.3 11.27
12/11/2021 8:45:00 PM 9.66 49.388 0.915 6.38 153.4 11.19
12/11/2021 9:00:00 PM 9.67 49.406 0.913 6.38 154.4 11.07
12/11/2021 9:15:00 PM 9.68 49.424 0.916 6.18 142.7 11.01
12/11/2021 9:30:00 PM 9.68 49.424 0.916 6.2 144.2 10.97
12/11/2021 9:45:00 PM 9.67 49.406 0.917 6.18 153.4 10.87
12/11/2021 10:00:00 PM 9.65 49.37 0.917 5.67 106.5 10.75
12/11/2021 10:15:00 PM 9.65 49.37 0.917 5.48 130.2 10.7
12/11/2021 10:30:00 PM 9.63 49.334 0.917 5.61 127.3 10.62
12/11/2021 10:45:00 PM 9.6 49.28 0.917 5.62 136.5 10.65
12/11/2021 11:00:00 PM 9.56 49.208 0.917 5.56 132.8 10.53
12/11/2021 11:15:00 PM 9.51 49.118 0.917 5.76 129.8 10.54
12/11/2021 11:30:00 PM 9.47 49.046 0.916 5.87 124.1 10.49
12/11/2021 11:45:00 PM 9.42 48.956 0.88 6.08 426.4 10.42
12/12/2021 12:00:00 AM 9.36 48.848 0.893 6.12 428.4 10.41
12/12/2021 12:15:00 AM 9.31 48.758 0.881 6.19 643.2 10.36
12/12/2021 12:30:00 AM 9.24 48.632 0.893 6.25 150.7 10.37
12/12/2021 12:45:00 AM 9.19 48.542 0.892 6.27 134.8 10.34
12/12/2021 1:00:00 AM 9.14 48.452 0.893 6.35 178.3 10.33
12/12/2021 1:15:00 AM 9.07 48.326 0.893 6.17 144.3 10.37
12/12/2021 1:30:00 AM 9.01 48.218 0.892 6.25 149.3 10.34
12/12/2021 1:45:00 AM 8.94 48.092 0.892 6.39 130.8 10.35
12/12/2021 2:00:00 AM 8.9 48.02 0.892 6.39 148 10.29
12/12/2021 2:15:00 AM 8.83 47.894 0.892 6.48 440.8 10.3
12/12/2021 2:30:00 AM 8.78 47.804 0.892 6.51 143.2 10.28
12/12/2021 2:45:00 AM 8.72 47.696 0.893 6.52 184.9 10.28
12/12/2021 3:00:00 AM 8.67 47.606 0.892 6.53 135.5 10.27
12/12/2021 3:15:00 AM 8.58 47.444 0.891 6.57 139.9 10.34
12/12/2021 3:30:00 AM 8.51 47.318 0.892 6.62 130.5 10.3
12/12/2021 3:45:00 AM 8.45 47.21 0.892 6.57 134.4 10.33
12/12/2021 4:00:00 AM 8.41 47.138 0.891 6.52 562.2 10.34
12/12/2021 4:15:00 AM 8.32 46.976 0.89 6.56 1026 10.38
12/12/2021 4:30:00 AM 8.27 46.886 0.89 6.55 1164 10.4
12/12/2021 4:45:00 AM 8.23 46.814 0.89 6.61 1069 10.41
12/12/2021 5:00:00 AM 8.15 46.67 0.89 6.59 1000 10.43
12/12/2021 5:15:00 AM 8.08 46.544 0.89 6.62 1186 10.46
12/12/2021 5:30:00 AM 8.02 46.436 0.89 6.71 1144 10.48
12/12/2021 5:45:00 AM 7.93 46.274 0.891 6.61 1164 10.54
12/12/2021 6:00:00 AM 7.89 46.202 0.89 6.67 1110 10.57
12/12/2021 6:15:00 AM 7.83 46.094 0.89 6.61 890.1 10.58
12/12/2021 6:30:00 AM 7.78 46.004 0.891 6.71 1050 10.61
12/12/2021 6:45:00 AM 7.73 45.914 0.891 6.68 1183 10.65
12/12/2021 7:00:00 AM 7.64 45.752 0.891 6.75 1116 10.73
12/12/2021 7:15:00 AM 7.56 45.608 0.892 6.79 1162 10.77
12/12/2021 7:30:00 AM 7.52 45.536 0.891 6.79 1159 10.79
12/12/2021 7:45:00 AM 7.45 45.41 0.891 6.77 1152 10.86
12/12/2021 8:00:00 AM 7.37 45.266 0.892 6.82 1103 10.96
12/12/2021 8:15:00 AM 7.31 45.158 0.892 6.84 1179 11.06
12/12/2021 8:30:00 AM 7.26 45.068 0.892 6.77 1208 11.22
12/12/2021 8:45:00 AM 7.25 45.05 0.892 6.82 1209 11.31
12/12/2021 9:00:00 AM 7.19 44.942 0.892 6.86 1165 11.38
12/12/2021 9:15:00 AM 7.15 44.87 0.892 6.88 1255 11.52
12/12/2021 9:30:00 AM 7.11 44.798 0.892 6.87 1247 11.66
12/12/2021 9:45:00 AM 7.09 44.762 0.892 6.9 1179 11.88
12/12/2021 10:00:00 AM 7.11 44.798 0.891 6.9 1278 12.23
12/12/2021 10:15:00 AM 7.19 44.942 0.89 6.82 1212 12.56
12/12/2021 10:30:00 AM 7.27 45.086 0.89 6.78 1260 12.87
12/12/2021 10:45:00 AM 7.33 45.194 0.889 6.69 942.6 13.25
12/12/2021 11:00:00 AM 7.45 45.41 0.889 6.67 971.7 13.7
12/12/2021 11:15:00 AM 7.52 45.536 0.889 6.62 1113 14
12/12/2021 11:30:00 AM 7.55 45.59 0.889 6.68 1204 14.31
12/12/2021 11:45:00 AM 7.55 45.59 0.89 6.71 1244 14.58
12/12/2021 12:00:00 PM 7.59 45.662 0.89 6.73 1038 14.55
12/12/2021 12:15:00 PM 7.61 45.698 0.889 6.74 1115 14.89
12/12/2021 12:30:00 PM 7.65 45.77 0.889 6.67 994.6 15.12
12/12/2021 12:45:00 PM 7.67 45.806 0.889 6.72 1462 15.09
12/12/2021 1:00:00 PM 7.7 45.86 0.889 6.77 1244 15.22
12/12/2021 1:15:00 PM 7.71 45.878 0.888 6.76 1073 15.4
12/12/2021 1:30:00 PM 7.71 45.878 0.888 6.76 1145 15.57
12/12/2021 1:45:00 PM 7.71 45.878 0.888 6.82 1274 15.74
12/12/2021 2:00:00 PM 7.72 45.896 0.888 6.83 1177 15.82
12/12/2021 2:15:00 PM 7.72 45.896 0.887 6.83 1263 15.91
12/12/2021 2:30:00 PM 7.73 45.914 0.886 6.89 1212 16.01
12/12/2021 2:45:00 PM 7.71 45.878 0.886 6.84 1241 16.04
12/12/2021 3:00:00 PM 7.71 45.878 0.886 6.83 1228 15.98
12/12/2021 3:15:00 PM 7.7 45.86 0.887 6.9 1147 15.9
12/12/2021 3:30:00 PM 7.71 45.878 0.886 6.89 1178 15.81
12/12/2021 3:45:00 PM 7.71 45.878 0.886 6.94 1220 15.74
12/12/2021 4:00:00 PM 7.72 45.896 0.887 6.96 1136 15.67
12/12/2021 4:15:00 PM 7.73 45.914 0.887 6.9 1218 15.58
12/12/2021 4:30:00 PM 7.73 45.914 0.887 7.03 1264 15.49
12/12/2021 4:45:00 PM 7.74 45.932 0.887 7.19 1100 15.35
12/12/2021 5:00:00 PM 7.72 45.896 0.887 7.31 1195 15.21
12/12/2021 5:15:00 PM 7.71 45.878 0.886 7.4 1208 15.07
12/12/2021 5:30:00 PM 7.69 45.842 0.886 7.41 1198 14.89
12/12/2021 5:45:00 PM 7.67 45.806 0.886 7.46 1221 14.78
12/12/2021 6:00:00 PM 7.64 45.752 0.887 7.48 1249 14.63
12/12/2021 6:15:00 PM 7.59 45.662 0.89 7.45 1215 14.47
12/12/2021 6:30:00 PM 7.54 45.572 0.898 7.48 1268 14.29
12/12/2021 6:45:00 PM 7.52 45.536 0.905 7.52 1047 14.11
12/12/2021 7:00:00 PM 7.48 45.464 0.905 7.42 1215 13.92
12/12/2021 7:15:00 PM 7.41 45.338 0.906 7.46 1193 13.75
12/12/2021 7:30:00 PM 7.38 45.284 0.907 7.48 1292 13.58
12/12/2021 7:45:00 PM 7.34 45.212 0.907 7.46 1227 13.4
12/12/2021 8:00:00 PM 7.27 45.086 0.908 7.39 1249 13.27
12/12/2021 8:15:00 PM 7.2 44.96 0.909 7.41 1145 13.13
12/12/2021 8:30:00 PM 7.2 44.96 0.909 7.34 1289 12.97
12/12/2021 8:45:00 PM 7.15 44.87 0.91 7.39 1252 12.85
12/12/2021 9:00:00 PM 7.07 44.726 0.911 7.41 1164 12.72
12/12/2021 9:15:00 PM 7.04 44.672 0.91 7.39 1242 12.64
12/12/2021 9:30:00 PM 6.99 44.582 0.912 7.44 1167 12.55
12/12/2021 9:45:00 PM 6.96 44.528 0.912 7.45 1193 12.42
12/12/2021 10:00:00 PM 6.9 44.42 0.914 7.46 1174 12.34
12/12/2021 10:15:00 PM 6.86 44.348 0.914 7.44 1182 12.28
12/12/2021 10:30:00 PM 6.83 44.294 0.914 7.46 1220 12.21
12/12/2021 10:45:00 PM 6.81 44.258 0.914 7.45 1251 12.15
12/12/2021 11:00:00 PM 6.73 44.114 0.916 7.48 1209 12.06
12/12/2021 11:15:00 PM 6.66 43.988 0.916 7.48 1300 12.06
12/12/2021 11:30:00 PM 6.61 43.898 0.916 7.46 1236 11.99
12/12/2021 11:45:00 PM 6.6 43.88 0.916 7.47 1393 11.94
12/13/2021 12:00:00 AM 6.52 43.736 0.917 7.43 1455 11.89
12/13/2021 12:15:00 AM 6.48 43.664 0.917 7.43 1287 11.84
12/13/2021 12:30:00 AM 6.43 43.574 0.917 7.46 1294 11.79
12/13/2021 12:45:00 AM 6.38 43.484 0.918 7.46 1320 11.77
12/13/2021 1:00:00 AM 6.35 43.43 0.917 7.45 1213 11.76
12/13/2021 1:15:00 AM 6.3 43.34 0.918 7.47 1207 11.75
12/13/2021 1:30:00 AM 6.22 43.196 0.918 7.47 1257 11.71
12/13/2021 1:45:00 AM 6.13 43.034 0.917 7.45 1192 11.73
12/13/2021 2:00:00 AM 6.09 42.962 0.918 7.43 1234 11.7
12/13/2021 2:15:00 AM 6.06 42.908 0.918 7.34 1331 11.67
12/13/2021 2:30:00 AM 6.05 42.89 0.916 7.36 1209 11.64
12/13/2021 2:45:00 AM 5.93 42.674 0.916 7.41 1290 11.66
12/13/2021 3:00:00 AM 5.9 42.62 0.912 7.43 1234 11.7
12/13/2021 3:15:00 AM 5.87 42.566 0.916 7.45 1219 11.66
12/13/2021 3:30:00 AM 5.81 42.458 0.917 7.45 1297 11.67
12/13/2021 3:45:00 AM 5.77 42.386 0.915 7.45 1203 11.67
12/13/2021 4:00:00 AM 5.7 42.26 0.916 7.44 1242 11.66
12/13/2021 4:15:00 AM 5.72 42.296 0.914 7.44 1197 11.65
12/13/2021 4:30:00 AM 5.62 42.116 0.915 7.43 1242 11.67
12/13/2021 4:45:00 AM 5.56 42.008 0.914 7.42 1285 11.7
12/13/2021 5:00:00 AM 5.54 41.972 0.913 7.4 1259 11.71
12/13/2021 5:15:00 AM 5.53 41.954 0.912 7.43 1189 11.69
12/13/2021 5:30:00 AM 5.53 41.954 0.912 7.45 1249 11.68
12/13/2021 5:45:00 AM 5.43 41.774 0.912 7.46 1102 11.74
12/13/2021 6:00:00 AM 5.4 41.72 0.911 7.46 465.6 11.78
12/13/2021 6:15:00 AM 5.36 41.648 0.911 7.47 1117 11.75
12/13/2021 6:30:00 AM 5.3 41.54 0.912 7.47 1163 11.77
12/13/2021 6:45:00 AM 5.28 41.504 0.912 7.47 1089 11.77
12/13/2021 7:00:00 AM 5.23 41.414 0.911 7.47 1232 11.82
12/13/2021 7:15:00 AM 5.19 41.342 0.911 7.48 1203 11.83
12/13/2021 7:30:00 AM 5.12 41.216 0.912 7.48 1130 11.87
12/13/2021 7:45:00 AM 5.07 41.126 0.912 7.48 1231 11.92
12/13/2021 8:00:00 AM 5.06 41.108 0.912 7.48 1177 11.97
12/13/2021 8:15:00 AM 4.98 40.964 0.912 7.48 1244 12.05
12/13/2021 8:30:00 AM 4.99 40.982 0.911 7.48 1227 12.17
12/13/2021 8:45:00 AM 4.94 40.892 0.912 7.48 1197 12.31
12/13/2021 9:00:00 AM 4.92 40.856 0.912 7.48 1184 12.41
12/13/2021 9:15:00 AM 4.91 40.838 0.912 7.49 1203 12.55
12/13/2021 9:30:00 AM 4.91 40.838 0.911 7.5 1197 12.69
12/13/2021 9:45:00 AM 4.92 40.856 0.911 7.51 1288 12.93
12/13/2021 10:00:00 AM 4.96 40.928 0.91 7.52 1132 13.12
12/13/2021 10:15:00 AM 5.04 41.072 0.91 7.51 1200 13.53
12/13/2021 10:30:00 AM 5.19 41.342 0.909 7.48 1323 13.77
12/13/2021 10:45:00 AM 5.26 41.468 0.91 7.46 1036 14.02
12/13/2021 11:00:00 AM 5.41 41.738 0.909 7.41 1182 14.33
12/13/2021 11:15:00 AM 5.53 41.954 0.909 7.29 1266 14.56
12/13/2021 11:30:00 AM 5.63 42.134 0.908 7.23 1225 14.76
12/13/2021 11:45:00 AM 5.71 42.278 0.908 7.25 1251 15.02
12/13/2021 12:00:00 PM 5.76 42.368 0.908 7.2 1220 15.25
12/13/2021 12:15:00 PM 5.84 42.512 0.907 7.22 1210 15.4
12/13/2021 12:30:00 PM 5.91 42.638 0.907 7.21 1259 15.63
12/13/2021 12:45:00 PM 5.97 42.746 0.907 7.22 1286 15.85
12/13/2021 1:00:00 PM 6.04 42.872 0.907 7.22 1117 15.96
12/13/2021 1:15:00 PM 6.07 42.926 0.907 7.21 1199 16.12
12/13/2021 1:30:00 PM 6.11 42.998 0.907 7.2 1223 16.21
12/13/2021 1:45:00 PM 6.16 43.088 0.906 7.2 1192 16.27
12/13/2021 2:00:00 PM 6.21 43.178 0.907 7.19 1148 16.36
12/13/2021 2:15:00 PM 6.24 43.232 0.907 7.18 1197 16.41
12/13/2021 2:30:00 PM 6.28 43.304 0.907 7.18 1251 16.48
12/13/2021 2:45:00 PM 6.29 43.322 0.907 7.17 1306 16.48
12/13/2021 3:00:00 PM 6.31 43.358 0.907 7.18 1245 16.42
12/13/2021 3:15:00 PM 6.33 43.394 0.907 7.15 1254 16.39
12/13/2021 3:30:00 PM 6.35 43.43 0.907 7.16 1084 16.34
12/13/2021 3:45:00 PM 6.38 43.484 0.907 7.15 1282 16.25
12/13/2021 4:00:00 PM 6.41 43.538 0.907 7.15 1213 16.18
12/13/2021 4:15:00 PM 6.43 43.574 0.907 7.17 1265 16.13
12/13/2021 4:30:00 PM 6.45 43.61 0.908 7.16 1199 16.01
12/13/2021 4:45:00 PM 6.47 43.646 0.908 7.24 1240 15.89
12/13/2021 5:00:00 PM 6.48 43.664 0.908 7.36 1259 15.74
12/13/2021 5:15:00 PM 6.49 43.682 0.908 7.49 1279 15.61
12/13/2021 5:30:00 PM 6.48 43.664 0.911 7.62 1173 15.46
12/13/2021 5:45:00 PM 6.48 43.664 0.912 7.76 1213 15.33
12/13/2021 6:00:00 PM 6.48 43.664 0.912 7.8 1141 15.2
12/13/2021 6:15:00 PM 6.46 43.628 0.912 7.83 1121 15.04
12/13/2021 6:30:00 PM 6.45 43.61 0.913 7.84 1282 14.86
12/13/2021 6:45:00 PM 6.41 43.538 0.914 7.86 1244 14.69
12/13/2021 7:00:00 PM 6.4 43.52 0.915 7.86 1359 14.53
12/13/2021 7:15:00 PM 6.37 43.466 0.915 7.86 1232 14.37
12/13/2021 7:30:00 PM 6.34 43.412 0.903 7.87 1324 14.18
12/13/2021 7:45:00 PM 6.32 43.376 0.917 7.87 1255 14.03
12/13/2021 8:00:00 PM 6.3 43.34 0.917 7.87 1237 13.86
12/13/2021 8:15:00 PM 6.26 43.268 0.918 7.87 1280 13.68
12/13/2021 8:30:00 PM 6.23 43.214 0.919 7.88 1160 13.56
12/13/2021 8:45:00 PM 6.18 43.124 0.92 7.87 1296 13.43
12/13/2021 9:00:00 PM 6.15 43.07 0.921 7.87 1172 13.32
12/13/2021 9:15:00 PM 6.13 43.034 0.921 7.87 1222 13.2
12/13/2021 9:30:00 PM 6.12 43.016 0.921 7.86 1056 13.1
12/13/2021 9:45:00 PM 6.06 42.908 0.922 7.87 1241 13
12/13/2021 10:00:00 PM 6.04 42.872 0.922 7.87 1269 12.92
12/13/2021 10:15:00 PM 6.02 42.836 0.923 7.87 1203 12.84
12/13/2021 10:30:00 PM 5.97 42.746 0.924 7.87 1179 12.75
12/13/2021 10:45:00 PM 5.95 42.71 0.924 7.87 1072 12.7
12/13/2021 11:00:00 PM 5.91 42.638 0.924 7.86 1177 12.62
12/13/2021 11:15:00 PM 5.87 42.566 0.925 7.85 1230 12.56
12/13/2021 11:30:00 PM 5.88 42.584 0.925 7.85 1134 12.51
12/13/2021 11:45:00 PM 5.84 42.512 0.925 7.84 1245 12.45
12/14/2021 12:00:00 AM 5.8 42.44 0.926 7.84 1319 12.4
12/14/2021 12:15:00 AM 5.74 42.332 0.927 7.84 1133 12.35
12/14/2021 12:30:00 AM 5.69 42.242 0.928 7.83 1251 12.33
12/14/2021 12:45:00 AM 5.65 42.17 0.928 7.82 1359 12.31
12/14/2021 1:00:00 AM 5.61 42.098 0.928 7.81 1295 12.26
12/14/2021 1:15:00 AM 5.55 41.99 0.929 7.79 1279 12.24
12/14/2021 1:30:00 AM 5.55 41.99 0.929 7.8 1265 12.22
12/14/2021 1:45:00 AM 5.5 41.9 0.929 7.79 1305 12.18
12/14/2021 2:00:00 AM 5.44 41.792 0.929 7.77 1232 12.17
12/14/2021 2:15:00 AM 5.4 41.72 0.93 7.76 1213 12.16
12/14/2021 2:30:00 AM 5.34 41.612 0.93 7.74 1162 12.19
12/14/2021 2:45:00 AM 5.29 41.522 0.931 7.73 1220 12.16
12/14/2021 3:00:00 AM 5.26 41.468 0.931 7.72 1274 12.17
12/14/2021 3:15:00 AM 5.21 41.378 0.932 7.7 1285 12.14
12/14/2021 3:30:00 AM 5.16 41.288 0.932 7.69 1201 12.16
12/14/2021 3:45:00 AM 5.11 41.198 0.932 7.69 1281 12.17
12/14/2021 4:00:00 AM 5.06 41.108 0.933 7.69 1325 12.16
12/14/2021 4:15:00 AM 5.01 41.018 0.933 7.68 1282 12.19
12/14/2021 4:30:00 AM 4.98 40.964 0.933 7.67 1346 12.17
12/14/2021 4:45:00 AM 4.93 40.874 0.933 7.67 1340 12.19
12/14/2021 5:00:00 AM 4.88 40.784 0.933 7.66 1328 12.22
12/14/2021 5:15:00 AM 4.84 40.712 0.933 7.65 1343 12.21
12/14/2021 5:30:00 AM 4.79 40.622 0.933 7.65 1314 12.25
12/14/2021 5:45:00 AM 4.72 40.496 0.932 7.65 1336 12.26
12/14/2021 6:00:00 AM 4.7 40.46 0.931 7.65 1329 12.29
12/14/2021 6:15:00 AM 4.64 40.352 0.933 7.65 1216 12.31
12/14/2021 6:30:00 AM 4.54 40.172 0.933 7.65 1367 12.37
12/14/2021 6:45:00 AM 4.55 40.19 0.932 7.65 1347 12.37
12/14/2021 7:00:00 AM 4.53 40.154 0.931 7.66 1414 12.39
12/14/2021 7:15:00 AM 4.47 40.046 0.932 7.67 1259 12.39
12/14/2021 7:30:00 AM 4.39 39.902 0.934 7.67 1300 12.43
12/14/2021 7:45:00 AM 4.37 39.866 0.933 7.67 1060 12.49
12/14/2021 8:00:00 AM 4.31 39.758 0.934 7.67 1380 12.55
12/14/2021 8:15:00 AM 4.32 39.776 0.933 7.66 1379 12.64
12/14/2021 8:30:00 AM 4.28 39.704 0.933 7.66 1258 12.76
12/14/2021 8:45:00 AM 4.29 39.722 0.933 7.66 1365 12.87
12/14/2021 9:00:00 AM 4.25 39.65 0.934 7.66 1416 12.95
12/14/2021 9:15:00 AM 4.23 39.614 0.934 7.66 1223 13.1
12/14/2021 9:30:00 AM 4.25 39.65 0.933 7.66 1394 13.21
12/14/2021 9:45:00 AM 4.28 39.704 0.932 7.67 1235 13.42
12/14/2021 10:00:00 AM 4.32 39.776 0.933 7.67 1340 13.64
12/14/2021 10:15:00 AM 4.43 39.974 0.932 7.65 1339 13.98
12/14/2021 10:30:00 AM 4.56 40.208 0.933 7.58 1271 14.2
12/14/2021 10:45:00 AM 4.67 40.406 0.931 7.51 1315 14.51
12/14/2021 11:00:00 AM 4.82 40.676 0.929 7.41 1103 14.72
12/14/2021 11:15:00 AM 4.95 40.91 0.927 7.35 733.2 15.06
12/14/2021 11:30:00 AM 5.04 41.072 0.927 7.33 760.9 15.18
12/14/2021 11:45:00 AM 5.14 41.252 0.925 7.34 1274 15.36
12/14/2021 12:00:00 PM 5.21 41.378 0.924 7.34 1370 15.6
12/14/2021 12:15:00 PM 5.26 41.468 0.924 7.31 1290 15.85
12/14/2021 12:30:00 PM 5.37 41.666 0.922 7.3 1291 15.99
12/14/2021 12:45:00 PM 5.42 41.756 0.921 7.27 1379 16.12
12/14/2021 1:00:00 PM 5.51 41.918 0.92 7.33 1367 16.28
12/14/2021 1:15:00 PM 5.58 42.044 0.919 7.32 1286 16.37
12/14/2021 1:30:00 PM 5.62 42.116 0.918 7.33 1347 16.53
12/14/2021 1:45:00 PM 5.68 42.224 0.917 7.36 1300 16.62
12/14/2021 2:00:00 PM 5.71 42.278 0.917 7.4 1163 16.74
12/14/2021 2:15:00 PM 5.76 42.368 0.915 7.41 1292 16.79
12/14/2021 2:30:00 PM 5.81 42.458 0.914 7.41 1330 16.81
12/14/2021 2:45:00 PM 5.83 42.494 0.914 7.37 1281 16.85
12/14/2021 3:00:00 PM 5.86 42.548 0.913 7.33 1228 16.8
12/14/2021 3:15:00 PM 5.89 42.602 0.913 7.32 1166 16.78
12/14/2021 3:30:00 PM 5.91 42.638 0.912 7.31 1284 16.71
12/14/2021 3:45:00 PM 5.95 42.71 0.912 7.3 1247 16.66
12/14/2021 4:00:00 PM 5.98 42.764 0.911 7.29 1247 16.58
12/14/2021 4:15:00 PM 6.01 42.818 0.911 7.3 1266 16.5
12/14/2021 4:30:00 PM 6.03 42.854 0.91 7.35 1184 16.43
12/14/2021 4:45:00 PM 6.06 42.908 0.91 7.41 1259 16.27
12/14/2021 5:00:00 PM 6.07 42.926 0.91 7.51 1281 16.16
12/14/2021 5:15:00 PM 6.08 42.944 0.91 7.6 1216 16.02
12/14/2021 5:30:00 PM 6.09 42.962 0.91 7.71 1331 15.89
12/14/2021 5:45:00 PM 6.08 42.944 0.91 7.77 1101 15.74
12/14/2021 6:00:00 PM 6.08 42.944 0.91 7.88 1296 15.6
12/14/2021 6:15:00 PM 6.08 42.944 0.91 7.92 1215 15.45
12/14/2021 6:30:00 PM 6.07 42.926 0.91 7.95 1276 15.28
12/14/2021 6:45:00 PM 6.04 42.872 0.911 7.98 1232 15.11
12/14/2021 7:00:00 PM 6.04 42.872 0.911 7.99 1273 14.95
12/14/2021 7:15:00 PM 5.99 42.782 0.912 8.01 1348 14.76
12/14/2021 7:30:00 PM 5.97 42.746 0.912 8.03 1295 14.59
12/14/2021 7:45:00 PM 5.93 42.674 0.913 8.03 1331 14.41
12/14/2021 8:00:00 PM 5.92 42.656 0.913 8.01 1270 14.27
12/14/2021 8:15:00 PM 5.89 42.602 0.914 8 1134 14.11
12/14/2021 8:30:00 PM 5.86 42.548 0.915 8 1236 13.95
12/14/2021 8:45:00 PM 5.84 42.512 0.915 7.99 1307 13.83
12/14/2021 9:00:00 PM 5.8 42.44 0.916 7.99 1238 13.7
12/14/2021 9:15:00 PM 5.78 42.404 0.917 7.98 1121 13.56
12/14/2021 9:30:00 PM 5.74 42.332 0.917 7.97 482.2 13.48
12/14/2021 9:45:00 PM 5.7 42.26 0.918 7.96 412 13.4
12/14/2021 10:00:00 PM 5.67 42.206 0.919 7.95 374.9 13.29
12/14/2021 10:15:00 PM 5.65 42.17 0.919 7.95 350.8 13.22
12/14/2021 10:30:00 PM 5.63 42.134 0.92 7.94 338.2 13.16
12/14/2021 10:45:00 PM 5.6 42.08 0.921 7.94 329.1 13.04
12/14/2021 11:00:00 PM 5.55 41.99 0.922 7.93 353.9 13.01
12/14/2021 11:15:00 PM 5.52 41.936 0.922 7.93 377.4 12.91
12/14/2021 11:30:00 PM 5.45 41.81 0.924 7.94 345.8 12.9
12/14/2021 11:45:00 PM 5.43 41.774 0.925 7.93 370.9 12.85
12/15/2021 12:00:00 AM 5.4 41.72 0.925 7.91 377 12.79
12/15/2021 12:15:00 AM 5.36 41.648 0.926 7.91 422.9 12.74
12/15/2021 12:30:00 AM 5.29 41.522 0.928 7.9 407.6 12.72
12/15/2021 12:45:00 AM 5.26 41.468 0.928 7.88 377.7 12.68
12/15/2021 1:00:00 AM 5.22 41.396 0.928 7.88 291.4 12.63
12/15/2021 1:15:00 AM 5.14 41.252 0.93 7.86 375.7 12.63
12/15/2021 1:30:00 AM 5.08 41.144 0.931 7.86 385.4 12.59
12/15/2021 1:45:00 AM 5.08 41.144 0.93 7.85 397.3 12.53
12/15/2021 2:00:00 AM 5.03 41.054 0.931 7.84 383.3 12.54
12/15/2021 2:15:00 AM 4.92 40.856 0.932 7.83 335.3 12.55
12/15/2021 2:30:00 AM 4.86 40.748 0.933 7.82 317.5 12.54
12/15/2021 2:45:00 AM 4.83 40.694 0.933 7.82 318.9 12.52
12/15/2021 3:00:00 AM 4.79 40.622 0.932 7.81 317.5 12.53
12/15/2021 3:15:00 AM 4.7 40.46 0.933 7.8 324.6 12.55
12/15/2021 3:30:00 AM 4.66 40.388 0.933 7.8 319.7 12.55
12/15/2021 3:45:00 AM 4.58 40.244 0.934 7.79 327.7 12.6
12/15/2021 4:00:00 AM 4.58 40.244 0.933 7.8 313.6 12.54
12/15/2021 4:15:00 AM 4.49 40.082 0.933 7.8 297.1 12.6
12/15/2021 4:30:00 AM 4.51 40.118 0.932 7.79 311.2 12.55
12/15/2021 4:45:00 AM 4.42 39.956 0.933 7.8 321.7 12.57
12/15/2021 5:00:00 AM 4.38 39.884 0.931 7.81 305.7 12.62
12/15/2021 5:15:00 AM 4.34 39.812 0.931 7.79 314.5 12.63
12/15/2021 5:30:00 AM 4.26 39.668 0.931 7.79 338.4 12.64
12/15/2021 5:45:00 AM 4.21 39.578 0.931 7.79 332 12.68
12/15/2021 6:00:00 AM 4.17 39.506 0.931 7.78 359.7 12.67
12/15/2021 6:15:00 AM 4.14 39.452 0.93 7.77 344.2 12.7
12/15/2021 6:30:00 AM 4.12 39.416 0.928 7.76 343.6 12.74
12/15/2021 6:45:00 AM 4.12 39.416 0.927 7.76 371.8 12.74
12/15/2021 7:00:00 AM 4.08 39.344 0.927 7.75 361 12.77
12/15/2021 7:15:00 AM 4.06 39.308 0.927 7.75 352.3 12.77
12/15/2021 7:30:00 AM 4.02 39.236 0.925 7.75 317.9 12.79
12/15/2021 7:45:00 AM 4.01 39.218 0.925 7.74 320.9 12.83
12/15/2021 8:00:00 AM 3.98 39.164 0.924 7.73 331.2 12.95
12/15/2021 8:15:00 AM 4 39.2 0.923 7.73 309.9 13.02
12/15/2021 8:30:00 AM 4 39.2 0.922 7.72 309.2 13.17
12/15/2021 8:45:00 AM 4.03 39.254 0.92 7.69 286.9 13.32
12/15/2021 9:00:00 AM 4.04 39.272 0.919 7.7 326.6 13.56
12/15/2021 9:15:00 AM 4.06 39.308 0.918 7.71 362.9 13.73
12/15/2021 9:30:00 AM 4.08 39.344 0.917 7.71 352.4 13.89
12/15/2021 9:45:00 AM 4.1 39.38 0.916 7.71 343.9 14
12/15/2021 10:00:00 AM 4.16 39.488 0.914 7.69 344.8 14.19
12/15/2021 10:15:00 AM 4.25 39.65 0.914 7.63 363.2 14.44
12/15/2021 10:30:00 AM 4.39 39.902 0.912 7.48 357.8 14.73
12/15/2021 10:45:00 AM 4.48 40.064 0.91 7.37 378.4 15.02
12/15/2021 11:00:00 AM 4.57 40.226 0.908 7.32 366.3 15.33
12/15/2021 11:15:00 AM 4.66 40.388 0.908 7.29 359.9 15.52
12/15/2021 11:30:00 AM 4.83 40.694 0.905 7.32 342.4 15.66
12/15/2021 11:45:00 AM 4.95 40.91 0.904 7.35 370 16.03
12/15/2021 12:00:00 PM 5.03 41.054 0.903 7.38 385.1 16.22
12/15/2021 12:15:00 PM 5.12 41.216 0.902 7.39 370.5 16.39
12/15/2021 12:30:00 PM 5.2 41.36 0.9 7.41 349.2 16.57
12/15/2021 12:45:00 PM 5.27 41.486 0.9 7.41 373.2 16.78
12/15/2021 1:00:00 PM 5.38 41.684 0.898 7.42 376.4 16.92
12/15/2021 1:15:00 PM 5.49 41.882 0.896 7.44 362.9 17.01
12/15/2021 1:30:00 PM 5.58 42.044 0.895 7.44 700.7 17.15
12/15/2021 1:45:00 PM 5.63 42.134 0.894 7.45 1082 17.3
12/15/2021 2:00:00 PM 5.71 42.278 0.893 7.46 1179 17.33
12/15/2021 2:15:00 PM 5.78 42.404 0.892 7.47 1188 17.46
12/15/2021 2:30:00 PM 5.84 42.512 0.891 7.48 1184 17.57
12/15/2021 2:45:00 PM 5.92 42.656 0.89 7.49 1185 17.68
12/15/2021 3:00:00 PM 6 42.8 0.888 7.49 1701 17.73
12/15/2021 3:15:00 PM 6.09 42.962 0.887 7.49 1804 17.75
12/15/2021 3:30:00 PM 6.14 43.052 0.886 7.5 1775 17.75
12/15/2021 3:45:00 PM 6.21 43.178 0.885 7.5 1638 17.68
12/15/2021 4:00:00 PM 6.29 43.322 0.883 7.49 1527 17.56
12/15/2021 4:15:00 PM 6.34 43.412 0.883 7.49 1591 17.37
12/15/2021 4:30:00 PM 6.4 43.52 0.882 7.49 1537 17.2
12/15/2021 4:45:00 PM 6.46 43.628 0.881 7.5 945.9 17.06
12/15/2021 5:00:00 PM 6.5 43.7 0.881 7.49 276.4 16.87
12/15/2021 5:15:00 PM 6.56 43.808 0.88 7.48 285.7 16.72
12/15/2021 5:30:00 PM 6.59 43.862 0.88 7.44 321.9 16.54
12/15/2021 5:45:00 PM 6.65 43.97 0.879 7.42 290.6 16.34
12/15/2021 6:00:00 PM 6.68 44.024 0.879 7.4 231.8 16.12
12/15/2021 6:15:00 PM 6.72 44.096 0.879 7.38 225 15.9
12/15/2021 6:30:00 PM 6.76 44.168 0.878 7.36 187.7 15.68
12/15/2021 6:45:00 PM 6.78 44.204 0.878 7.36 193.9 15.46
12/15/2021 7:00:00 PM 6.81 44.258 0.879 7.35 161.9 15.21
12/15/2021 7:15:00 PM 6.84 44.312 0.879 7.36 4017 14.97
12/15/2021 7:30:00 PM 6.87 44.366 0.879 7.34 147.2 14.75
12/15/2021 7:45:00 PM 6.9 44.42 0.879 7.32 165.9 14.52
12/15/2021 8:00:00 PM 6.92 44.456 0.88 7.39 488.7 14.34
12/15/2021 8:15:00 PM 6.95 44.51 0.88 7.35 151.2 14.12
12/15/2021 8:30:00 PM 6.98 44.564 0.881 7.32 191.6 13.95
12/15/2021 8:45:00 PM 7.01 44.618 0.881 7.32 173.9 13.79
12/15/2021 9:00:00 PM 7.04 44.672 0.882 7.28 226.1 13.6
12/15/2021 9:15:00 PM 7.06 44.708 0.883 7.26 196.3 13.45
12/15/2021 9:30:00 PM 7.09 44.762 0.883 7.21 181.3 13.27
12/15/2021 9:45:00 PM 7.12 44.816 0.884 7.19 207.4 13.12
12/15/2021 10:00:00 PM 7.15 44.87 0.885 7.14 190.2 13
12/15/2021 10:15:00 PM 7.17 44.906 0.885 7.13 208.3 12.87
12/15/2021 10:30:00 PM 7.19 44.942 0.886 7.02 166.9 12.74
12/15/2021 10:45:00 PM 7.22 44.996 0.887 6.71 204.3 12.62
12/15/2021 11:00:00 PM 7.24 45.032 0.888 6.69 162.2 12.49
12/15/2021 11:15:00 PM 7.26 45.068 0.889 6.67 857.1 12.38
12/15/2021 11:30:00 PM 7.28 45.104 0.89 6.66 494 12.3
12/15/2021 11:45:00 PM 7.28 45.104 0.891 6.68 499.4 12.21
12/16/2021 12:00:00 AM 7.29 45.122 0.891 6.68 141.1 12.12
12/16/2021 12:15:00 AM 7.3 45.14 0.892 6.68 138.8 12.02
12/16/2021 12:30:00 AM 7.31 45.158 0.893 6.68 157.5 11.95
12/16/2021 12:45:00 AM 7.32 45.176 0.893 6.68 480.8 11.86
12/16/2021 1:00:00 AM 7.34 45.212 0.894 6.66 121.8 11.79
12/16/2021 1:15:00 AM 7.34 45.212 0.895 6.65 130.4 11.72
12/16/2021 1:30:00 AM 7.34 45.212 0.895 6.61 136.1 11.65
12/16/2021 1:45:00 AM 7.34 45.212 0.896 6.6 120.6 11.61
12/16/2021 2:00:00 AM 7.33 45.194 0.896 6.6 120.3 11.57
12/16/2021 2:15:00 AM 7.33 45.194 0.896 6.58 109 11.49
12/16/2021 2:30:00 AM 7.33 45.194 0.897 6.58 136.2 11.45
12/16/2021 2:45:00 AM 7.32 45.176 0.896 6.58 102.1 11.41
12/16/2021 3:00:00 AM 7.3 45.14 0.897 6.56 121.5 11.38
12/16/2021 3:15:00 AM 7.28 45.104 0.896 6.63 141.7 11.35
12/16/2021 3:30:00 AM 7.27 45.086 0.896 6.57 132.6 11.32
12/16/2021 3:45:00 AM 7.25 45.05 0.896 6.61 139 11.3
12/16/2021 4:00:00 AM 7.22 44.996 0.896 6.64 134.5 11.28
12/16/2021 4:15:00 AM 7.2 44.96 0.895 6.66 145.7 11.25
12/16/2021 4:30:00 AM 7.18 44.924 0.895 6.66 146.2 11.24
12/16/2021 4:45:00 AM 7.16 44.888 0.895 6.65 647.1 11.23
12/16/2021 5:00:00 AM 7.13 44.834 0.894 6.66 132.5 11.21
12/16/2021 5:15:00 AM 7.11 44.798 0.893 6.7 176.5 11.21
12/16/2021 5:30:00 AM 7.08 44.744 0.892 6.72 116.1 11.22
12/16/2021 5:45:00 AM 7.04 44.672 0.892 6.8 642.4 11.23
12/16/2021 6:00:00 AM 7.01 44.618 0.891 6.95 742.7 11.22
12/16/2021 6:15:00 AM 6.97 44.546 0.89 7.05 146.6 11.21
12/16/2021 6:30:00 AM 6.93 44.474 0.889 7.11 133.1 11.21
12/16/2021 6:45:00 AM 6.88 44.384 0.889 7.17 138.6 11.24
12/16/2021 7:00:00 AM 6.86 44.348 0.888 7.19 134.2 11.23
12/16/2021 7:15:00 AM 6.82 44.276 0.887 7.22 834.4 11.25
12/16/2021 7:30:00 AM 6.78 44.204 0.885 7.21 133.1 11.26
12/16/2021 7:45:00 AM 6.75 44.15 0.885 7.18 153.4 11.3
12/16/2021 8:00:00 AM 6.73 44.114 0.884 7.16 1014 11.37
12/16/2021 8:15:00 AM 6.71 44.078 0.883 7.16 159.9 11.48
12/16/2021 8:30:00 AM 6.71 44.078 0.882 7.15 158.5 11.65
12/16/2021 8:45:00 AM 6.73 44.114 0.882 7.06 143.7 11.85
12/16/2021 9:00:00 AM 6.74 44.132 0.881 7 134.4 11.97
12/16/2021 9:15:00 AM 6.76 44.168 0.88 6.94 132.5 12.09
12/16/2021 9:30:00 AM 6.78 44.204 0.879 6.89 204.2 12.37
12/16/2021 9:45:00 AM 6.81 44.258 0.879 6.82 127.5 12.61
12/16/2021 10:00:00 AM 6.85 44.33 0.879 6.81 479.8 12.87
12/16/2021 10:15:00 AM 6.92 44.456 0.878 6.79 148.4 13.16
12/16/2021 10:30:00 AM 6.99 44.582 0.878 6.69 128.1 13.51
12/16/2021 10:45:00 AM 7.06 44.708 0.877 6.71 134.9 13.74
12/16/2021 11:00:00 AM 7.19 44.942 0.877 6.74 129.6 14.03
12/16/2021 11:15:00 AM 7.27 45.086 0.876 6.77 155.8 14.36
12/16/2021 11:30:00 AM 7.38 45.284 0.876 6.83 122.5 14.64
12/16/2021 11:45:00 AM 7.44 45.392 0.876 6.87 111 14.87
12/16/2021 12:00:00 PM 7.5 45.5 0.877 6.92 124.6 15.13
12/16/2021 12:15:00 PM 7.59 45.662 0.877 6.94 124.8 15.37
12/16/2021 12:30:00 PM 7.65 45.77 0.878 6.94 123.7 15.55
12/16/2021 12:45:00 PM 7.7 45.86 0.878 6.96 132.3 15.72
12/16/2021 1:00:00 PM 7.77 45.986 0.879 6.96 115 15.95
12/16/2021 1:15:00 PM 7.82 46.076 0.88 6.98 120.4 16.05
12/16/2021 1:30:00 PM 7.89 46.202 0.88 7.02 128 16.2
12/16/2021 1:45:00 PM 7.95 46.31 0.881 7.03 124.6 16.28
12/16/2021 2:00:00 PM 7.99 46.382 0.881 7.04 140.1 16.38
12/16/2021 2:15:00 PM 8.03 46.454 0.883 7.04 117.5 16.37
12/16/2021 2:30:00 PM 8.06 46.508 0.884 7.06 169.6 16.45
12/16/2021 2:45:00 PM 8.07 46.526 0.885 7.05 151.8 16.44
12/16/2021 3:00:00 PM 8.11 46.598 0.886 7.05 159.6 16.39
12/16/2021 3:15:00 PM 8.14 46.652 0.887 7.03 138 16.38
12/16/2021 3:30:00 PM 8.15 46.67 0.888 7.01 124.4 16.31
12/16/2021 3:45:00 PM 8.18 46.724 0.889 7.01 151.5 16.25
12/16/2021 4:00:00 PM 8.22 46.796 0.89 7.01 154.1 16.18
12/16/2021 4:15:00 PM 8.24 46.832 0.891 7 156.1 16.1
12/16/2021 4:30:00 PM 8.26 46.868 0.893 6.97 171 15.98
12/16/2021 4:45:00 PM 8.28 46.904 0.894 6.85 168.4 15.82
12/16/2021 5:00:00 PM 8.3 46.94 0.895 6.89 182.3 15.63
12/16/2021 5:15:00 PM 8.31 46.958 0.896 6.9 196.5 15.47
12/16/2021 5:30:00 PM 8.32 46.976 0.897 6.91 192.1 15.3
12/16/2021 5:45:00 PM 8.33 46.994 0.899 6.86 167.6 15.13
12/16/2021 6:00:00 PM 8.33 46.994 0.9 6.89 124.8 14.94
12/16/2021 6:15:00 PM 8.34 47.012 0.901 6.89 174.2 14.77
12/16/2021 6:30:00 PM 8.34 47.012 0.903 6.93 152.5 14.55
12/16/2021 6:45:00 PM 8.35 47.03 0.904 6.93 167.3 14.36
12/16/2021 7:00:00 PM 8.35 47.03 0.906 6.93 157.4 14.14
12/16/2021 7:15:00 PM 8.35 47.03 0.908 6.94 164.8 13.92
12/16/2021 7:30:00 PM 8.34 47.012 0.909 6.96 155.1 13.7
12/16/2021 7:45:00 PM 8.34 47.012 0.911 6.96 173.4 13.49
12/16/2021 8:00:00 PM 8.34 47.012 0.913 6.96 180.2 13.29
12/16/2021 8:15:00 PM 8.33 46.994 0.914 6.95 164.9 13.09
12/16/2021 8:30:00 PM 8.33 46.994 0.916 6.93 148 12.93
12/16/2021 8:45:00 PM 8.34 47.012 0.918 6.92 174.8 12.76
12/16/2021 9:00:00 PM 8.34 47.012 0.919 6.92 139 12.53
12/16/2021 9:15:00 PM 8.34 47.012 0.92 6.91 164.6 12.41
12/16/2021 9:30:00 PM 8.35 47.03 0.922 6.88 134.7 12.27
12/16/2021 9:45:00 PM 8.36 47.048 0.923 6.83 152.4 12.13
12/16/2021 10:00:00 PM 8.37 47.066 0.924 6.81 139.5 12.01
12/16/2021 10:15:00 PM 8.39 47.102 0.926 6.78 162.1 11.89
12/16/2021 10:30:00 PM 8.4 47.12 0.928 6.69 170.2 11.79
12/16/2021 10:45:00 PM 8.43 47.174 0.929 6.65 180.6 11.65
12/16/2021 11:00:00 PM 8.45 47.21 0.931 6.61 184.8 11.58
12/16/2021 11:15:00 PM 8.47 47.246 0.932 6.6 164.5 11.47
12/16/2021 11:30:00 PM 8.48 47.264 0.934 6.58 169.6 11.39
12/16/2021 11:45:00 PM 8.49 47.282 0.935 6.58 136.7 11.31
12/17/2021 12:00:00 AM 8.49 47.282 0.937 6.57 172.8 11.2
12/17/2021 12:15:00 AM 8.5 47.3 0.938 6.56 187.9 11.16
12/17/2021 12:30:00 AM 8.5 47.3 0.939 6.55 368 11.06
12/17/2021 12:45:00 AM 8.51 47.318 0.941 6.55 187.6 10.99
12/17/2021 1:00:00 AM 8.51 47.318 0.942 6.54 180.7 10.92
12/17/2021 1:15:00 AM 8.52 47.336 0.944 6.53 170.1 10.86
12/17/2021 1:30:00 AM 8.52 47.336 0.945 6.52 169.3 10.81
12/17/2021 1:45:00 AM 8.52 47.336 0.946 6.51 341.4 10.77
12/17/2021 2:00:00 AM 8.52 47.336 0.947 6.5 149.5 10.67
12/17/2021 2:15:00 AM 8.51 47.318 0.948 6.48 145.5 10.66
12/17/2021 2:30:00 AM 8.5 47.3 0.95 6.53 183.3 10.63
12/17/2021 2:45:00 AM 8.49 47.282 0.951 6.56 163.3 10.58
12/17/2021 3:00:00 AM 8.47 47.246 0.952 6.58 158.5 10.58
12/17/2021 3:15:00 AM 8.46 47.228 0.953 6.63 184.9 10.56
12/17/2021 3:30:00 AM 8.45 47.21 0.953 6.67 160.1 10.53
12/17/2021 3:45:00 AM 8.44 47.192 0.954 6.76 155.3 10.49
12/17/2021 4:00:00 AM 8.41 47.138 0.955 6.83 159.1 10.49
12/17/2021 4:15:00 AM 8.39 47.102 0.956 6.88 180.7 10.47
12/17/2021 4:30:00 AM 8.37 47.066 0.956 6.93 179.6 10.43
12/17/2021 4:45:00 AM 8.34 47.012 0.957 7.02 226.8 10.44
12/17/2021 5:00:00 AM 8.31 46.958 0.957 7.07 193.3 10.39
12/17/2021 5:15:00 AM 8.28 46.904 0.958 7.11 174.4 10.43
12/17/2021 5:30:00 AM 8.26 46.868 0.959 7.12 187.7 10.43
12/17/2021 5:45:00 AM 8.23 46.814 0.959 7.08 178.4 10.44
12/17/2021 6:00:00 AM 8.22 46.796 0.959 6.97 172.1 10.44
12/17/2021 6:15:00 AM 8.2 46.76 0.96 6.73 180.6 10.44
12/17/2021 6:30:00 AM 8.17 46.706 0.96 6.8 397.1 10.46
12/17/2021 6:45:00 AM 8.16 46.688 0.961 6.81 966.4 10.41
12/17/2021 7:00:00 AM 8.14 46.652 0.961 6.81 194.1 10.44
12/17/2021 7:15:00 AM 8.11 46.598 0.961 6.81 176.8 10.45
12/17/2021 7:30:00 AM 8.07 46.526 0.962 6.81 170.1 10.49
12/17/2021 7:45:00 AM 8.04 46.472 0.962 6.81 177.8 10.53
12/17/2021 8:00:00 AM 8.04 46.472 0.962 6.81 179.5 10.56
12/17/2021 8:15:00 AM 8.03 46.454 0.962 6.76 190.4 10.66
12/17/2021 8:30:00 AM 8.03 46.454 0.962 6.76 173.8 10.78
12/17/2021 8:45:00 AM 8.04 46.472 0.962 6.71 207.6 10.97
12/17/2021 9:00:00 AM 8.06 46.508 0.962 6.66 181.2 11.2
12/17/2021 9:15:00 AM 8.08 46.544 0.962 6.64 210.2 11.39
12/17/2021 9:30:00 AM 8.12 46.616 0.962 6.61 188.5 11.65
12/17/2021 9:45:00 AM 8.16 46.688 0.961 6.63 189 11.89
12/17/2021 10:00:00 AM 8.21 46.778 0.961 6.61 163.7 12.17
12/17/2021 10:15:00 AM 8.28 46.904 0.96 6.63 194.9 12.48
12/17/2021 10:30:00 AM 8.33 46.994 0.96 6.61 196.4 12.81
12/17/2021 10:45:00 AM 8.4 47.12 0.959 6.64 213.6 13.17
12/17/2021 11:00:00 AM 8.44 47.192 0.959 6.66 194.5 13.45
12/17/2021 11:15:00 AM 8.49 47.282 0.959 6.67 184.6 13.73
12/17/2021 11:30:00 AM 8.55 47.39 0.958 6.71 197.1 14.03
12/17/2021 11:45:00 AM 8.63 47.534 0.957 6.73 185.6 14.35
12/17/2021 12:00:00 PM 8.69 47.642 0.956 6.76 208.2 14.61
12/17/2021 12:15:00 PM 8.74 47.732 0.955 6.77 190.2 14.9
12/17/2021 12:30:00 PM 8.78 47.804 0.954 6.8 190.5 15.17
12/17/2021 12:45:00 PM 8.87 47.966 0.953 6.81 183.4 15.46
12/17/2021 1:00:00 PM 8.93 48.074 0.953 6.82 196.1 15.75
12/17/2021 1:15:00 PM 8.98 48.164 0.952 6.6 197.5 16
12/17/2021 1:30:00 PM 8.99 48.182 0.952 6.43 187.1 16.16
12/17/2021 1:45:00 PM 9.03 48.254 0.95 6.55 194.2 16.31
12/17/2021 2:00:00 PM 9.05 48.29 0.949 6.61 200.2 16.54
12/17/2021 2:15:00 PM 9.05 48.29 0.948 6.69 200.8 16.6
12/17/2021 2:30:00 PM 9.07 48.326 0.947 6.74 191.6 16.57
12/17/2021 2:45:00 PM 9.09 48.362 0.946 6.76 195 16.7
12/17/2021 3:00:00 PM 9.1 48.38 0.945 6.81 178.1 16.72
12/17/2021 3:15:00 PM 9.09 48.362 0.944 6.81 717 16.7
12/17/2021 3:30:00 PM 9.1 48.38 0.943 6.8 194.5 16.61
12/17/2021 3:45:00 PM 9.11 48.398 0.942 6.77 211.3 16.57
12/17/2021 4:00:00 PM 9.12 48.416 0.941 6.8 168.4 16.47
12/17/2021 4:15:00 PM 9.13 48.434 0.94 6.84 191.1 16.35
12/17/2021 4:30:00 PM 9.13 48.434 0.94 6.78 179.8 16.18
12/17/2021 4:45:00 PM 9.12 48.416 0.939 6.78 197.9 15.98
12/17/2021 5:00:00 PM 9.1 48.38 0.939 6.43 203.4 15.76
12/17/2021 5:15:00 PM 9.1 48.38 0.938 6.74 195.5 15.52
12/17/2021 5:30:00 PM 9.08 48.344 0.938 6.89 191.5 15.34
12/17/2021 5:45:00 PM 9.06 48.308 0.938 7.03 186.7 15.14
12/17/2021 6:00:00 PM 9.04 48.272 0.938 7.14 2192 14.91
12/17/2021 6:15:00 PM 9.03 48.254 0.937 7.21 213 14.71
12/17/2021 6:30:00 PM 9.02 48.236 0.937 7.22 198.6 14.52
12/17/2021 6:45:00 PM 9 48.2 0.937 7.24 199.3 14.28
12/17/2021 7:00:00 PM 8.98 48.164 0.922 7.32 190.5 14.05
12/17/2021 7:15:00 PM 8.96 48.128 0.924 7.36 197.1 13.83
12/17/2021 7:30:00 PM 8.94 48.092 0.925 7.39 243.9 13.59
12/17/2021 7:45:00 PM 8.92 48.056 0.925 7.41 216.1 13.38
12/17/2021 8:00:00 PM 8.9 48.02 0.926 7.43 192 13.18
12/17/2021 8:15:00 PM 8.87 47.966 0.926 7.45 2302 12.99
12/17/2021 8:30:00 PM 8.84 47.912 0.927 7.44 1887 12.79
12/17/2021 8:45:00 PM 8.83 47.894 0.927 7.43 226.1 12.61
12/17/2021 9:00:00 PM 8.81 47.858 0.927 7.42 212.7 12.47
12/17/2021 9:15:00 PM 8.8 47.84 0.928 7.42 219.3 12.31
12/17/2021 9:30:00 PM 8.78 47.804 0.928 7.41 184.4 12.16
12/17/2021 9:45:00 PM 8.78 47.804 0.925 7.42 211.2 12.02
12/17/2021 10:00:00 PM 8.76 47.768 0.925 7.41 232.9 11.9
12/17/2021 10:15:00 PM 8.75 47.75 0.926 7.39 238.5 11.78
12/17/2021 10:30:00 PM 8.74 47.732 0.928 7.38 189.1 11.67
12/17/2021 10:45:00 PM 8.75 47.75 0.928 7.36 234.2 11.58
12/17/2021 11:00:00 PM 8.74 47.732 0.924 7.33 230.8 11.48
12/17/2021 11:15:00 PM 8.74 47.732 0.925 7.31 215.5 11.38
12/17/2021 11:30:00 PM 8.73 47.714 0.925 7.27 218.1 11.28
12/17/2021 11:45:00 PM 8.73 47.714 0.926 7.24 215.8 11.21
12/18/2021 12:00:00 AM 8.72 47.696 0.926 7.23 230.9 11.13
12/18/2021 12:15:00 AM 8.71 47.678 0.927 7.15 235.7 11.06
12/18/2021 12:30:00 AM 8.7 47.66 0.927 7.12 236.6 10.98
12/18/2021 12:45:00 AM 8.7 47.66 0.928 7.1 193.8 10.91
12/18/2021 1:00:00 AM 8.68 47.624 0.929 7.09 194.3 10.86
12/18/2021 1:15:00 AM 8.68 47.624 0.93 7.08 210 10.82
12/18/2021 1:30:00 AM 8.67 47.606 0.935 7.08 210.5 10.76
12/18/2021 1:45:00 AM 8.66 47.588 0.91 7.06 218.2 10.73
12/18/2021 2:00:00 AM 8.65 47.57 0.873 7.05 218.1 10.7
12/18/2021 2:15:00 AM 8.64 47.552 0.951 7.04 212.3 10.63
12/18/2021 2:30:00 AM 8.63 47.534 0.949 7.03 213.2 10.61
12/18/2021 2:45:00 AM 8.62 47.516 0.937 7.04 200 10.55
12/18/2021 3:00:00 AM 8.61 47.498 0.952 7.04 211.5 10.54
12/18/2021 3:15:00 AM 8.59 47.462 0.953 7.06 213.6 10.52
12/18/2021 3:30:00 AM 8.57 47.426 0.953 7.1 231.1 10.49
12/18/2021 3:45:00 AM 8.56 47.408 0.954 7.1 228.5 10.48
12/18/2021 4:00:00 AM 8.54 47.372 0.954 7.11 227.2 10.47
12/18/2021 4:15:00 AM 8.53 47.354 0.954 7.09 226.3 10.42
12/18/2021 4:30:00 AM 8.51 47.318 0.954 7.11 165.5 10.41
12/18/2021 4:45:00 AM 8.49 47.282 0.954 7.12 219.9 10.41
12/18/2021 5:00:00 AM 8.47 47.246 0.954 7.12 211.4 10.4
12/18/2021 5:15:00 AM 8.45 47.21 0.954 7.12 198.1 10.4
12/18/2021 5:30:00 AM 8.44 47.192 0.953 7.11 183.7 10.39
12/18/2021 5:45:00 AM 8.43 47.174 0.954 7.18 210.6 10.37
12/18/2021 6:00:00 AM 8.42 47.156 0.953 7.19 186.5 10.35
12/18/2021 6:15:00 AM 8.4 47.12 0.954 7.17 197.4 10.33
12/18/2021 6:30:00 AM 8.39 47.102 0.953 7.18 227.2 10.34
12/18/2021 6:45:00 AM 8.38 47.084 0.953 7.19 207.6 10.34
12/18/2021 7:00:00 AM 8.35 47.03 0.954 7.19 206.6 10.37
12/18/2021 7:15:00 AM 8.35 47.03 0.953 7.19 186.1 10.35
12/18/2021 7:30:00 AM 8.33 46.994 0.953 7.2 201.6 10.34
12/18/2021 7:45:00 AM 8.32 46.976 0.953 7.21 183.6 10.35
12/18/2021 8:00:00 AM 8.3 46.94 0.953 7.21 2385 10.35
12/18/2021 8:15:00 AM 8.3 46.94 0.953 7.21 192.7 10.4
12/18/2021 8:30:00 AM 8.29 46.922 0.952 7.21 218.9 10.42
12/18/2021 8:45:00 AM 8.28 46.904 0.952 7.2 199.6 10.52
12/18/2021 9:00:00 AM 8.29 46.922 0.952 7.19 216.9 10.64
12/18/2021 9:15:00 AM 8.28 46.904 0.952 7.18 183.9 10.72
12/18/2021 9:30:00 AM 8.28 46.904 0.952 7.17 208.3 10.77
12/18/2021 9:45:00 AM 8.29 46.922 0.952 7.16 207.8 10.86
12/18/2021 10:00:00 AM 8.3 46.94 0.951 7.15 210.7 11.01
12/18/2021 10:15:00 AM 8.3 46.94 0.95 7.15 208.9 11.21
12/18/2021 10:30:00 AM 8.31 46.958 0.897 7.16 203.9 11.33
12/18/2021 10:45:00 AM 8.32 46.976 0.928 7.17 200.5 11.39
12/18/2021 11:00:00 AM 8.33 46.994 0.918 7.16 209.2 11.49
12/18/2021 11:15:00 AM 8.35 47.03 0.914 7.09 219.1 11.7
12/18/2021 11:30:00 AM 8.37 47.066 0.908 7.05 210 11.87
12/18/2021 11:45:00 AM 8.38 47.084 0.942 7.05 223.7 12.13
12/18/2021 12:00:00 PM 8.4 47.12 0.948 7.02 195.1 12.24
12/18/2021 12:15:00 PM 8.43 47.174 0.947 7 214.6 12.45
12/18/2021 12:30:00 PM 8.47 47.246 0.946 7.01 220 12.79
12/18/2021 12:45:00 PM 8.5 47.3 0.945 7.02 229.9 12.94
12/18/2021 1:00:00 PM 8.51 47.318 0.944 7.04 216.4 13.13
12/18/2021 1:15:00 PM 8.52 47.336 0.944 7.1 218.6 13.2
12/18/2021 1:30:00 PM 8.52 47.336 0.943 7.11 214 13.25
12/18/2021 1:45:00 PM 8.54 47.372 0.942 7.11 463.8 13.32
12/18/2021 2:00:00 PM 8.55 47.39 0.941 7.1 190.8 13.46
12/18/2021 2:15:00 PM 8.57 47.426 0.941 7.13 201.6 13.58
12/18/2021 2:30:00 PM 8.59 47.462 0.941 7.12 176.3 13.69
12/18/2021 2:45:00 PM 8.6 47.48 0.939 7.12 198.4 13.8
12/18/2021 3:00:00 PM 8.61 47.498 0.939 7.16 217.6 13.82
12/18/2021 3:15:00 PM 8.61 47.498 0.94 7.17 211.8 13.77
12/18/2021 3:30:00 PM 8.61 47.498 0.939 7.16 219.2 13.73
12/18/2021 3:45:00 PM 8.62 47.516 0.938 7.17 213.8 13.74
12/18/2021 4:00:00 PM 8.62 47.516 0.938 7.18 226.1 13.71
12/18/2021 4:15:00 PM 8.62 47.516 0.938 7.19 228.8 13.63
12/18/2021 4:30:00 PM 8.61 47.498 0.823 7.2 240.5 13.52
12/18/2021 4:45:00 PM 8.61 47.498 0.928 7.19 212.1 13.4
12/18/2021 5:00:00 PM 8.61 47.498 0.936 7.21 222.5 13.28
12/18/2021 5:15:00 PM 8.6 47.48 0.936 7.22 239.1 13.19
12/18/2021 5:30:00 PM 8.6 47.48 0.898 7.24 232 13.06
12/18/2021 5:45:00 PM 8.6 47.48 0.919 7.24 201.5 12.94
12/18/2021 6:00:00 PM 8.6 47.48 0.937 7.24 224.3 12.83
12/18/2021 6:15:00 PM 8.59 47.462 0.937 7.26 220.8 12.67
12/18/2021 6:30:00 PM 8.59 47.462 0.937 7.26 216 12.58
12/18/2021 6:45:00 PM 8.58 47.444 0.906 7.26 230.6 12.45
12/18/2021 7:00:00 PM 8.59 47.462 0.882 7.25 215.7 12.32
12/18/2021 7:15:00 PM 8.59 47.462 0.937 7.24 211.6 12.22
12/18/2021 7:30:00 PM 8.59 47.462 0.937 7.26 224.6 12.09
12/18/2021 7:45:00 PM 8.59 47.462 0.937 7.24 222.6 11.98
12/18/2021 8:00:00 PM 8.59 47.462 0.938 7.24 204.8 11.85
12/18/2021 8:15:00 PM 8.59 47.462 0.938 7.24 773.3 11.78
12/18/2021 8:30:00 PM 8.59 47.462 0.938 7.26 221.2 11.67
12/18/2021 8:45:00 PM 8.58 47.444 0.938 7.28 230.8 11.59
12/18/2021 9:00:00 PM 8.57 47.426 0.939 7.34 220.8 11.51
12/18/2021 9:15:00 PM 8.54 47.372 0.939 7.45 225.1 11.42
12/18/2021 9:30:00 PM 8.53 47.354 0.94 7.53 259.8 11.34
12/18/2021 9:45:00 PM 8.52 47.336 0.94 7.52 217 11.28
12/18/2021 10:00:00 PM 8.52 47.336 0.941 7.49 243.5 11.21
12/18/2021 10:15:00 PM 8.52 47.336 0.942 7.46 234.9 11.12
12/18/2021 10:30:00 PM 8.52 47.336 0.942 7.45 214.2 11.06
12/18/2021 10:45:00 PM 8.53 47.354 0.942 7.43 210.3 11.01
12/18/2021 11:00:00 PM 8.53 47.354 0.942 7.41 228.5 10.95
12/18/2021 11:15:00 PM 8.53 47.354 0.943 7.4 216.3 10.89
12/18/2021 11:30:00 PM 8.53 47.354 0.942 7.38 211.2 10.85
12/18/2021 11:45:00 PM 8.53 47.354 0.942 7.37 218.2 10.8
12/19/2021 12:00:00 AM 8.53 47.354 0.942 7.35 250.3 10.75
12/19/2021 12:15:00 AM 8.52 47.336 0.942 7.32 231.9 10.75
12/19/2021 12:30:00 AM 8.53 47.354 0.942 7.25 226.5 10.67
12/19/2021 12:45:00 AM 8.52 47.336 0.943 7.23 223.2 10.66
12/19/2021 1:00:00 AM 8.52 47.336 0.943 7.22 213.7 10.62
12/19/2021 1:15:00 AM 8.52 47.336 0.944 7.2 227.3 10.61
12/19/2021 1:30:00 AM 8.52 47.336 0.944 7.19 244.2 10.59
12/19/2021 1:45:00 AM 8.51 47.318 0.945 7.18 229.1 10.54
12/19/2021 2:00:00 AM 8.51 47.318 0.945 7.18 226.5 10.53
12/19/2021 2:15:00 AM 8.5 47.3 0.945 7.17 217.4 10.5
12/19/2021 2:30:00 AM 8.49 47.282 0.945 7.16 244.3 10.49
12/19/2021 2:45:00 AM 8.49 47.282 0.946 7.14 223.6 10.45
12/19/2021 3:00:00 AM 8.48 47.264 0.946 7.11 215.9 10.45
12/19/2021 3:15:00 AM 8.49 47.282 0.946 7.11 215.1 10.44
12/19/2021 3:30:00 AM 8.48 47.264 0.946 7.1 248.7 10.41
12/19/2021 3:45:00 AM 8.47 47.246 0.946 7.17 224.4 10.42
12/19/2021 4:00:00 AM 8.46 47.228 0.946 7.2 239.6 10.41
12/19/2021 4:15:00 AM 8.44 47.192 0.947 7.19 245.8 10.4
12/19/2021 4:30:00 AM 8.43 47.174 0.947 7.2 240.6 10.37
12/19/2021 4:45:00 AM 8.41 47.138 0.947 7.22 230.5 10.39
12/19/2021 5:00:00 AM 8.39 47.102 0.947 7.23 243.7 10.38
12/19/2021 5:15:00 AM 8.37 47.066 0.947 7.27 1317 10.39
12/19/2021 5:30:00 AM 8.35 47.03 0.947 7.34 1818 10.38
12/19/2021 5:45:00 AM 8.32 46.976 0.947 7.36 890.9 10.4
12/19/2021 6:00:00 AM 8.3 46.94 0.947 7.38 219.6 10.4
12/19/2021 6:15:00 AM 8.28 46.904 0.94 7.4 249 10.38
12/19/2021 6:30:00 AM 8.25 46.85 0.94 7.42 608.5 10.4
12/19/2021 6:45:00 AM 8.23 46.814 0.928 7.42 212.7 10.41
12/19/2021 7:00:00 AM 8.2 46.76 0.943 7.42 253.5 10.42
12/19/2021 7:15:00 AM 8.17 46.706 0.941 7.44 241.9 10.43
12/19/2021 7:30:00 AM 8.12 46.616 0.944 7.45 251.5 10.44
12/19/2021 7:45:00 AM 8.08 46.544 0.942 7.47 254.7 10.46
12/19/2021 8:00:00 AM 8.05 46.49 0.945 7.47 219.4 10.48
12/19/2021 8:15:00 AM 8.01 46.418 0.946 7.48 233.8 10.56
12/19/2021 8:30:00 AM 7.98 46.364 0.944 7.49 251 10.64
12/19/2021 8:45:00 AM 7.95 46.31 0.924 7.5 248.6 10.78
12/19/2021 9:00:00 AM 7.93 46.274 0.925 7.5 265.6 10.95
12/19/2021 9:15:00 AM 7.91 46.238 0.943 7.52 226 11.11
12/19/2021 9:30:00 AM 7.9 46.22 0.945 7.57 223.1 11.33
12/19/2021 9:45:00 AM 7.89 46.202 0.946 7.55 232.3 11.58
12/19/2021 10:00:00 AM 7.86 46.148 0.946 7.56 223.9 11.83
12/19/2021 10:15:00 AM 7.88 46.184 0.946 7.57 236.8 12.05
12/19/2021 10:30:00 AM 7.85 46.13 0.945 7.59 219.9 12.24
12/19/2021 10:45:00 AM 7.82 46.076 0.945 7.6 228.8 12.34
12/19/2021 11:00:00 AM 7.8 46.04 0.945 7.58 212.6 12.49
12/19/2021 11:15:00 AM 7.85 46.13 0.944 7.57 211.5 12.73
12/19/2021 11:30:00 AM 7.9 46.22 0.943 7.58 221.8 13.1
12/19/2021 11:45:00 AM 7.93 46.274 0.943 7.58 208.9 13.5
12/19/2021 12:00:00 PM 7.96 46.328 0.942 7.61 215.5 13.84
12/19/2021 12:15:00 PM 7.96 46.328 0.941 7.63 687.1 13.98
12/19/2021 12:30:00 PM 7.94 46.292 0.941 7.65 238.4 14.18
12/19/2021 12:45:00 PM 7.92 46.256 0.941 7.7 234.5 14.31
12/19/2021 1:00:00 PM 7.92 46.256 0.94 7.71 232.8 14.53
12/19/2021 1:15:00 PM 7.92 46.256 0.939 7.73 246.5 14.73
12/19/2021 1:30:00 PM 7.91 46.238 0.939 7.75 244.6 14.96
12/19/2021 1:45:00 PM 7.9 46.22 0.938 7.78 245.8 15.14
12/19/2021 2:00:00 PM 7.89 46.202 0.937 7.81 241 15.31
12/19/2021 2:15:00 PM 7.88 46.184 0.936 7.84 248.8 15.42
12/19/2021 2:30:00 PM 7.85 46.13 0.932 7.86 245.7 15.53
12/19/2021 2:45:00 PM 7.84 46.112 0.935 7.87 229 15.61
12/19/2021 3:00:00 PM 7.79 46.022 0.934 7.88 235.5 15.59
12/19/2021 3:15:00 PM 7.74 45.932 0.934 7.89 240.7 15.55
12/19/2021 3:30:00 PM 7.67 45.806 0.933 7.91 220.3 15.5
12/19/2021 3:45:00 PM 7.62 45.716 0.933 7.92 240 15.43
12/19/2021 4:00:00 PM 7.56 45.608 0.932 7.93 246.4 15.4
12/19/2021 4:15:00 PM 7.52 45.536 0.932 7.94 242.9 15.31
12/19/2021 4:30:00 PM 7.48 45.464 0.931 7.95 251.8 15.25
12/19/2021 4:45:00 PM 7.43 45.374 0.93 7.97 228.3 15.16
12/19/2021 5:00:00 PM 7.38 45.284 0.93 7.98 232.1 15.04
12/19/2021 5:15:00 PM 7.33 45.194 0.931 7.99 2559 14.93
12/19/2021 5:30:00 PM 7.3 45.14 0.93 8 236.9 14.81
12/19/2021 5:45:00 PM 7.27 45.086 0.929 8 235.7 14.7
12/19/2021 6:00:00 PM 7.23 45.014 0.929 8.01 243.9 14.6
12/19/2021 6:15:00 PM 7.19 44.942 0.929 8.01 235.2 14.49
12/19/2021 6:30:00 PM 7.12 44.816 0.929 8.02 190.4 14.39
12/19/2021 6:45:00 PM 7.08 44.744 0.929 8.03 231.9 14.28
12/19/2021 7:00:00 PM 7.03 44.654 0.929 8.03 246.3 14.12
12/19/2021 7:15:00 PM 6.96 44.528 0.93 8.03 314 14
12/19/2021 7:30:00 PM 6.91 44.438 0.93 8.03 247 13.84
12/19/2021 7:45:00 PM 6.87 44.366 0.93 8.04 851.2 13.71
12/19/2021 8:00:00 PM 6.8 44.24 0.931 8.04 244.5 13.57
12/19/2021 8:15:00 PM 6.76 44.168 0.931 8.04 238.9 13.44
12/19/2021 8:30:00 PM 6.69 44.042 0.931 8.04 212.6 13.31
12/19/2021 8:45:00 PM 6.64 43.952 0.932 8.02 248.3 13.19
12/19/2021 9:00:00 PM 6.55 43.79 0.933 8.01 207.7 13.09
12/19/2021 9:15:00 PM 6.52 43.736 0.933 8.01 199.2 12.96
12/19/2021 9:30:00 PM 6.47 43.646 0.934 8 234.5 12.88
12/19/2021 9:45:00 PM 6.39 43.502 0.935 7.99 185 12.79
12/19/2021 10:00:00 PM 6.36 43.448 0.935 7.99 197.3 12.72
12/19/2021 10:15:00 PM 6.31 43.358 0.936 7.98 229.5 12.63
12/19/2021 10:30:00 PM 6.26 43.268 0.936 7.98 233.8 12.58
12/19/2021 10:45:00 PM 6.22 43.196 0.937 7.97 737.5 12.51
12/19/2021 11:00:00 PM 6.13 43.034 0.938 7.97 221.4 12.44
12/19/2021 11:15:00 PM 6.1 42.98 0.939 7.97 225.3 12.42
12/19/2021 11:30:00 PM 6.05 42.89 0.939 7.96 240.5 12.37
12/19/2021 11:45:00 PM 5.97 42.746 0.941 7.96 239 12.33
12/20/2021 12:00:00 AM 5.93 42.674 0.941 7.95 236 12.3
12/20/2021 12:15:00 AM 5.89 42.602 0.942 7.94 241 12.27
12/20/2021 12:30:00 AM 5.83 42.494 0.943 7.93 233.6 12.23
12/20/2021 12:45:00 AM 5.77 42.386 0.944 7.92 226.5 12.2
12/20/2021 1:00:00 AM 5.68 42.224 0.946 7.92 212.4 12.17
12/20/2021 1:15:00 AM 5.65 42.17 0.946 7.91 221.4 12.15
12/20/2021 1:30:00 AM 5.55 41.99 0.948 7.9 226.4 12.16
12/20/2021 1:45:00 AM 5.54 41.972 0.947 7.9 234.2 12.12
12/20/2021 2:00:00 AM 5.48 41.864 0.949 7.89 202.4 12.11
12/20/2021 2:15:00 AM 5.44 41.792 0.949 7.88 215.1 12.09
12/20/2021 2:30:00 AM 5.35 41.63 0.95 7.87 232.7 12.09
12/20/2021 2:45:00 AM 5.3 41.54 0.951 7.87 228.4 12.09
12/20/2021 3:00:00 AM 5.27 41.486 0.952 7.86 192 12.08
12/20/2021 3:15:00 AM 5.22 41.396 0.952 7.87 226 12.07
12/20/2021 3:30:00 AM 5.16 41.288 0.953 7.87 218.8 12.08
12/20/2021 3:45:00 AM 5.12 41.216 0.953 7.86 233 12.07
12/20/2021 4:00:00 AM 5.03 41.054 0.954 7.86 219 12.1
12/20/2021 4:15:00 AM 5 41 0.954 7.85 219 12.09
12/20/2021 4:30:00 AM 4.95 40.91 0.955 7.84 208.7 12.1
12/20/2021 4:45:00 AM 4.9 40.82 0.955 7.83 208.6 12.12
12/20/2021 5:00:00 AM 4.81 40.658 0.956 7.82 205.7 12.15
12/20/2021 5:15:00 AM 4.79 40.622 0.956 7.82 213.6 12.15
12/20/2021 5:30:00 AM 4.71 40.478 0.957 7.82 203.2 12.19
12/20/2021 5:45:00 AM 4.65 40.37 0.958 7.82 211.7 12.2
12/20/2021 6:00:00 AM 4.62 40.316 0.957 7.82 204.6 12.22
12/20/2021 6:15:00 AM 4.6 40.28 0.957 7.82 204 12.23
12/20/2021 6:30:00 AM 4.55 40.19 0.958 7.82 203.5 12.24
12/20/2021 6:45:00 AM 4.47 40.046 0.959 7.82 204.8 12.25
12/20/2021 7:00:00 AM 4.44 39.992 0.959 7.81 229.3 12.28
12/20/2021 7:15:00 AM 4.35 39.83 0.959 7.81 209.7 12.32
12/20/2021 7:30:00 AM 4.33 39.794 0.959 7.81 199 12.33
12/20/2021 7:45:00 AM 4.29 39.722 0.959 7.81 195.2 12.36
12/20/2021 8:00:00 AM 4.24 39.632 0.959 7.81 181.3 12.42
12/20/2021 8:15:00 AM 4.21 39.578 0.96 7.8 222.7 12.5
12/20/2021 8:30:00 AM 4.14 39.452 0.96 7.8 210 12.6
12/20/2021 8:45:00 AM 4.13 39.434 0.959 7.81 213.3 12.69
12/20/2021 9:00:00 AM 4.11 39.398 0.959 7.81 200.4 12.81
12/20/2021 9:15:00 AM 4.07 39.326 0.96 7.81 202.4 12.91
12/20/2021 9:30:00 AM 4.08 39.344 0.96 7.81 218.8 12.99
12/20/2021 9:45:00 AM 4.08 39.344 0.96 7.82 220.5 13.14
12/20/2021 10:00:00 AM 4.08 39.344 0.96 7.81 203.4 13.35
12/20/2021 10:15:00 AM 4.11 39.398 0.96 7.81 211.5 13.55
12/20/2021 10:30:00 AM 4.21 39.578 0.96 7.78 217.2 13.81
12/20/2021 10:45:00 AM 4.3 39.74 0.959 7.77 209.6 14.07
12/20/2021 11:00:00 AM 4.39 39.902 0.958 7.76 211.8 14.28
12/20/2021 11:15:00 AM 4.5 40.1 0.957 7.74 206.2 14.55
12/20/2021 11:30:00 AM 4.58 40.244 0.957 7.71 212.5 14.73
12/20/2021 11:45:00 AM 4.64 40.352 0.957 7.66 228 14.91
12/20/2021 12:00:00 PM 4.68 40.424 0.957 7.6 205.9 15.06
12/20/2021 12:15:00 PM 4.72 40.496 0.956 7.64 210.8 15.21
12/20/2021 12:30:00 PM 4.78 40.604 0.956 7.62 218.1 15.39
12/20/2021 12:45:00 PM 4.82 40.676 0.955 7.59 210.1 15.51
12/20/2021 1:00:00 PM 4.86 40.748 0.955 7.56 206.5 15.68
12/20/2021 1:15:00 PM 4.89 40.802 0.954 7.55 195.2 15.83
12/20/2021 1:30:00 PM 4.9 40.82 0.954 7.55 206.9 15.96
12/20/2021 1:45:00 PM 4.93 40.874 0.953 7.56 248.1 16.05
12/20/2021 2:00:00 PM 4.95 40.91 0.952 7.55 219 16.16
12/20/2021 2:15:00 PM 4.94 40.892 0.952 7.6 226.6 16.27
12/20/2021 2:30:00 PM 4.93 40.874 0.952 7.63 191.6 16.35
12/20/2021 2:45:00 PM 4.97 40.946 0.951 7.65 219.2 16.35
12/20/2021 3:00:00 PM 4.92 40.856 0.951 7.67 217.3 16.42
12/20/2021 3:15:00 PM 4.93 40.874 0.95 7.71 210.2 16.44
12/20/2021 3:30:00 PM 4.95 40.91 0.949 7.74 237.5 16.4
12/20/2021 3:45:00 PM 4.95 40.91 0.948 7.81 197.4 16.36
12/20/2021 4:00:00 PM 4.98 40.964 0.948 7.84 196.9 16.33
12/20/2021 4:15:00 PM 5.01 41.018 0.947 7.85 186.2 16.3
12/20/2021 4:30:00 PM 5.03 41.054 0.946 7.88 212.6 16.25
12/20/2021 4:45:00 PM 5.03 41.054 0.946 7.95 197.7 16.2
12/20/2021 5:00:00 PM 5.03 41.054 0.946 8.02 203.6 16.1
12/20/2021 5:15:00 PM 5.03 41.054 0.945 8.05 212.2 16.02
12/20/2021 5:30:00 PM 5.03 41.054 0.944 8.08 208.9 15.89
12/20/2021 5:45:00 PM 4.98 40.964 0.945 8.11 210.7 15.8
12/20/2021 6:00:00 PM 5.01 41.018 0.943 8.12 217.3 15.69
12/20/2021 6:15:00 PM 4.97 40.946 0.943 8.14 206.3 15.6
12/20/2021 6:30:00 PM 4.96 40.928 0.943 8.15 208.2 15.5
12/20/2021 6:45:00 PM 4.93 40.874 0.943 8.15 198.3 15.38
12/20/2021 7:00:00 PM 4.88 40.784 0.943 8.15 200.4 15.23
12/20/2021 7:15:00 PM 4.87 40.766 0.942 8.15 203.2 15.1
12/20/2021 7:30:00 PM 4.82 40.676 0.942 8.15 215.5 14.96
12/20/2021 7:45:00 PM 4.79 40.622 0.942 8.15 195.1 14.81
12/20/2021 8:00:00 PM 4.76 40.568 0.942 8.15 198.9 14.7
12/20/2021 8:15:00 PM 4.73 40.514 0.943 8.15 199.7 14.55
12/20/2021 8:30:00 PM 4.71 40.478 0.943 8.15 215.3 14.43
12/20/2021 8:45:00 PM 4.68 40.424 0.943 8.14 224.5 14.3
12/20/2021 9:00:00 PM 4.62 40.316 0.944 8.13 199.4 14.19
12/20/2021 9:15:00 PM 4.57 40.226 0.944 8.13 223.2 14.1
12/20/2021 9:30:00 PM 4.51 40.118 0.945 8.13 206.6 13.98
12/20/2021 9:45:00 PM 4.51 40.118 0.945 8.13 211.2 13.88
12/20/2021 10:00:00 PM 4.47 40.046 0.945 8.12 904.3 13.77
12/20/2021 10:15:00 PM 4.44 39.992 0.945 8.12 201.6 13.73
12/20/2021 10:30:00 PM 4.41 39.938 0.945 8.12 209.3 13.65
12/20/2021 10:45:00 PM 4.37 39.866 0.946 8.12 202 13.57
12/20/2021 11:00:00 PM 4.33 39.794 0.947 8.08 207.2 13.52
12/20/2021 11:15:00 PM 4.3 39.74 0.946 8.11 204.4 13.47
12/20/2021 11:30:00 PM 4.27 39.686 0.947 8.1 200.8 13.43
12/20/2021 11:45:00 PM 4.23 39.614 0.947 8.1 201.3 13.36
12/21/2021 12:00:00 AM 4.2 39.56 0.947 8.09 203.5 13.32
12/21/2021 12:15:00 AM 4.15 39.47 0.949 8.08 199.4 13.28
12/21/2021 12:30:00 AM 4.11 39.398 0.949 8.08 171 13.24
12/21/2021 12:45:00 AM 4.08 39.344 0.95 8.07 197 13.2
12/21/2021 1:00:00 AM 4.04 39.272 0.951 8.06 193.9 13.16
12/21/2021 1:15:00 AM 4.01 39.218 0.951 8.06 182.4 13.11
12/21/2021 1:30:00 AM 3.96 39.128 0.952 8.05 196.7 13.11
12/21/2021 1:45:00 AM 3.89 39.002 0.953 8.05 194.2 13.09
12/21/2021 2:00:00 AM 3.86 38.948 0.953 8.05 211.8 13.07
12/21/2021 2:15:00 AM 3.83 38.894 0.953 8.03 2331 13.03
12/21/2021 2:30:00 AM 3.76 38.768 0.955 8.02 204.5 13.03
12/21/2021 2:45:00 AM 3.75 38.75 0.955 8.02 199.9 13.01
12/21/2021 3:00:00 AM 3.72 38.696 0.955 8 202.1 13
12/21/2021 3:15:00 AM 3.69 38.642 0.956 7.99 201.9 12.99
12/21/2021 3:30:00 AM 3.66 38.588 0.957 7.98 201.4 12.98
12/21/2021 3:45:00 AM 3.61 38.498 0.957 7.97 196.7 12.98
12/21/2021 4:00:00 AM 3.51 38.318 0.959 7.97 188 13
12/21/2021 4:15:00 AM 3.51 38.318 0.958 7.96 200.1 12.99
12/21/2021 4:30:00 AM 3.47 38.246 0.958 7.96 201.1 12.99
12/21/2021 4:45:00 AM 3.42 38.156 0.959 7.95 197.6 12.99
12/21/2021 5:00:00 AM 3.38 38.084 0.959 7.94 191.8 13.01
12/21/2021 5:15:00 AM 3.34 38.012 0.96 7.94 185.9 13.01
12/21/2021 5:30:00 AM 3.31 37.958 0.959 7.93 192.7 13.01
12/21/2021 5:45:00 AM 3.26 37.868 0.96 7.87 194.4 13.03
12/21/2021 6:00:00 AM 3.22 37.796 0.96 7.84 195 13.04
12/21/2021 6:15:00 AM 3.19 37.742 0.96 7.85 195.3 13.05
12/21/2021 6:30:00 AM 3.13 37.634 0.962 7.86 194.7 13.07
12/21/2021 6:45:00 AM 3.11 37.598 0.961 7.87 187.8 13.08
12/21/2021 7:00:00 AM 3.03 37.454 0.962 7.88 197.4 13.12
12/21/2021 7:15:00 AM 3.02 37.436 0.961 7.88 195.7 13.12
12/21/2021 7:30:00 AM 2.97 37.346 0.961 7.89 189.5 13.15
12/21/2021 7:45:00 AM 2.93 37.274 0.962 7.89 240 13.19
12/21/2021 8:00:00 AM 2.91 37.238 0.961 7.89 186.5 13.23
12/21/2021 8:15:00 AM 2.91 37.238 0.961 7.88 267.3 13.28
12/21/2021 8:30:00 AM 2.87 37.166 0.961 7.88 188.4 13.4
12/21/2021 8:45:00 AM 2.87 37.166 0.961 7.88 190.9 13.53
12/21/2021 9:00:00 AM 2.86 37.148 0.961 7.89 2134 13.69
12/21/2021 9:15:00 AM 2.88 37.184 0.96 7.89 2522 13.87
12/21/2021 9:30:00 AM 2.9 37.22 0.959 7.89 187.3 13.99
12/21/2021 9:45:00 AM 2.91 37.238 0.959 7.9 195.3 14.18
12/21/2021 10:00:00 AM 2.92 37.256 0.959 7.89 193.8 14.32
12/21/2021 10:15:00 AM 2.97 37.346 0.957 7.89 192.9 14.51
12/21/2021 10:30:00 AM 2.99 37.382 0.957 7.89 194.4 14.68
12/21/2021 10:45:00 AM 3.03 37.454 0.957 7.88 1941 14.87
12/21/2021 11:00:00 AM 3.07 37.526 0.956 7.88 1951 15.07
12/21/2021 11:15:00 AM 3.13 37.634 0.955 7.89 2396 15.21
12/21/2021 11:30:00 AM 3.18 37.724 0.955 7.88 1507 15.42
12/21/2021 11:45:00 AM 3.26 37.868 0.954 7.86 273.6 15.59
12/21/2021 12:00:00 PM 3.33 37.994 0.953 7.84 1993 15.79
12/21/2021 12:15:00 PM 3.4 38.12 0.952 7.8 203.1 16.04
12/21/2021 12:30:00 PM 3.46 38.228 0.952 7.75 182.8 16.22
12/21/2021 12:45:00 PM 3.51 38.318 0.951 7.7 1994 16.37
12/21/2021 1:00:00 PM 3.57 38.426 0.951 7.65 198.6 16.52
12/21/2021 1:15:00 PM 3.61 38.498 0.95 7.64 194.7 16.64
12/21/2021 1:30:00 PM 3.66 38.588 0.949 7.63 197.2 16.75
12/21/2021 1:45:00 PM 3.72 38.696 0.948 7.58 200.8 16.9
12/21/2021 2:00:00 PM 3.78 38.804 0.948 7.54 187.2 17.03
12/21/2021 2:15:00 PM 3.82 38.876 0.947 7.55 195.7 17.18
12/21/2021 2:30:00 PM 3.87 38.966 0.946 7.53 190 17.28
12/21/2021 2:45:00 PM 3.89 39.002 0.946 7.5 2104 17.38
12/21/2021 3:00:00 PM 3.93 39.074 0.945 7.51 2077 17.37
12/21/2021 3:15:00 PM 3.97 39.146 0.945 7.54 312.1 17.43
12/21/2021 3:30:00 PM 4 39.2 0.944 7.54 184.4 17.47
12/21/2021 3:45:00 PM 4.03 39.254 0.943 7.57 181.3 17.45
12/21/2021 4:00:00 PM 4.04 39.272 0.943 7.6 149.7 17.43
12/21/2021 4:15:00 PM 4.05 39.29 0.943 7.63 143.6 17.35
12/21/2021 4:30:00 PM 4.07 39.326 0.943 7.78 2126 17.26
12/21/2021 4:45:00 PM 4.07 39.326 0.942 8.03 149.4 17.16
12/21/2021 5:00:00 PM 4.06 39.308 0.942 8.03 171.7 17.04
12/21/2021 5:15:00 PM 4.06 39.308 0.942 8.12 160.1 16.91
12/21/2021 5:30:00 PM 4.06 39.308 0.941 8.06 182.4 16.77
12/21/2021 5:45:00 PM 4.09 39.362 0.941 8.02 123.7 16.64
12/21/2021 6:00:00 PM 4.12 39.416 0.94 8.01 125.6 16.49
12/21/2021 6:15:00 PM 4.14 39.452 0.94 7.98 1133 16.36
12/21/2021 6:30:00 PM 4.15 39.47 0.939 7.97 122.3 16.22
12/21/2021 6:45:00 PM 4.16 39.488 0.939 7.97 128 16.06
12/21/2021 7:00:00 PM 4.18 39.524 0.939 7.96 125.6 15.91
12/21/2021 7:15:00 PM 4.19 39.542 0.938 7.97 119.1 15.73
12/21/2021 7:30:00 PM 4.2 39.56 0.938 7.97 131.1 15.57
12/21/2021 7:45:00 PM 4.23 39.614 0.937 7.98 145.1 15.42
12/21/2021 8:00:00 PM 4.23 39.614 0.937 7.96 135.4 15.28
12/21/2021 8:15:00 PM 4.25 39.65 0.937 7.96 137.8 15.12
12/21/2021 8:30:00 PM 4.27 39.686 0.937 7.96 143.6 14.97
12/21/2021 8:45:00 PM 4.28 39.704 0.936 7.95 143.6 14.84
12/21/2021 9:00:00 PM 4.3 39.74 0.935 7.93 140.8 14.69
12/21/2021 9:15:00 PM 4.32 39.776 0.935 7.92 135.8 14.54
12/21/2021 9:30:00 PM 4.33 39.794 0.934 7.92 132.2 14.42
12/21/2021 9:45:00 PM 4.36 39.848 0.934 7.93 136.1 14.29
12/21/2021 10:00:00 PM 4.37 39.866 0.934 7.92 142.9 14.16
12/21/2021 10:15:00 PM 4.39 39.902 0.934 7.91 129.8 14.05
12/21/2021 10:30:00 PM 4.41 39.938 0.933 7.89 130.9 13.95
12/21/2021 10:45:00 PM 4.43 39.974 0.933 7.89 134.5 13.83
12/21/2021 11:00:00 PM 4.44 39.992 0.933 7.88 129.1 13.73
12/21/2021 11:15:00 PM 4.46 40.028 0.933 7.87 136.8 13.63
12/21/2021 11:30:00 PM 4.47 40.046 0.933 7.86 133.6 13.54
12/21/2021 11:45:00 PM 4.49 40.082 0.933 7.85 136.9 13.44
12/22/2021 12:00:00 AM 4.5 40.1 0.933 7.84 138.6 13.36
12/22/2021 12:15:00 AM 4.51 40.118 0.933 7.84 135 13.29
12/22/2021 12:30:00 AM 4.52 40.136 0.934 7.84 137 13.22
12/22/2021 12:45:00 AM 4.53 40.154 0.934 7.83 136 13.13
12/22/2021 1:00:00 AM 4.53 40.154 0.934 7.82 135.9 13.07
12/22/2021 1:15:00 AM 4.54 40.172 0.934 7.81 143.6 13.01
12/22/2021 1:30:00 AM 4.55 40.19 0.934 7.8 136.7 12.93
12/22/2021 1:45:00 AM 4.55 40.19 0.935 7.79 149.4 12.89
12/22/2021 2:00:00 AM 4.55 40.19 0.936 7.78 138.9 12.85
12/22/2021 2:15:00 AM 4.55 40.19 0.935 7.78 143.3 12.78
12/22/2021 2:30:00 AM 4.56 40.208 0.935 7.76 2197 12.74
12/22/2021 2:45:00 AM 4.56 40.208 0.935 7.74 142.4 12.71
12/22/2021 3:00:00 AM 4.56 40.208 0.936 7.73 142.7 12.66
12/22/2021 3:15:00 AM 4.56 40.208 0.936 7.71 135.7 12.62
12/22/2021 3:30:00 AM 4.56 40.208 0.937 7.7 131.8 12.58
12/22/2021 3:45:00 AM 4.56 40.208 0.937 7.69 147.6 12.55
12/22/2021 4:00:00 AM 4.56 40.208 0.937 7.7 149.6 12.52
12/22/2021 4:15:00 AM 4.55 40.19 0.938 7.7 139.3 12.49
12/22/2021 4:30:00 AM 4.52 40.136 0.938 7.74 151.4 12.47
12/22/2021 4:45:00 AM 4.5 40.1 0.926 7.8 156.8 12.46
12/22/2021 5:00:00 AM 4.48 40.064 0.939 7.77 156.3 12.43
12/22/2021 5:15:00 AM 4.5 40.1 0.938 7.72 151.5 12.41
12/22/2021 5:30:00 AM 4.48 40.064 0.919 7.7 133.9 12.4
12/22/2021 5:45:00 AM 4.47 40.046 0.939 7.69 162.3 12.4
12/22/2021 6:00:00 AM 4.46 40.028 0.939 7.7 152.1 12.38
12/22/2021 6:15:00 AM 4.43 39.974 0.939 7.73 128.6 12.37
12/22/2021 6:30:00 AM 4.39 39.902 0.939 7.73 128.3 12.4
12/22/2021 6:45:00 AM 4.39 39.902 0.939 7.72 111.5 12.39
12/22/2021 7:00:00 AM 4.38 39.884 0.939 7.73 140.5 12.37
12/22/2021 7:15:00 AM 4.35 39.83 0.939 7.76 139.2 12.37
12/22/2021 7:30:00 AM 4.32 39.776 0.939 7.77 132.9 12.4
12/22/2021 7:45:00 AM 4.3 39.74 0.938 7.78 132.1 12.4
12/22/2021 8:00:00 AM 4.28 39.704 0.938 7.78 133.1 12.42
12/22/2021 8:15:00 AM 4.25 39.65 0.938 7.78 150.2 12.49
12/22/2021 8:30:00 AM 4.23 39.614 0.937 7.78 136.9 12.57
12/22/2021 8:45:00 AM 4.22 39.596 0.937 7.78 133.3 12.64
12/22/2021 9:00:00 AM 4.2 39.56 0.936 7.78 140.5 12.75
12/22/2021 9:15:00 AM 4.19 39.542 0.936 7.77 129.2 12.89
12/22/2021 9:30:00 AM 4.19 39.542 0.936 7.76 141.2 13.02
12/22/2021 9:45:00 AM 4.2 39.56 0.935 7.74 131.3 13.15
12/22/2021 10:00:00 AM 4.22 39.596 0.935 7.72 139.5 13.35
12/22/2021 10:15:00 AM 4.26 39.668 0.934 7.66 132.3 13.51
12/22/2021 10:30:00 AM 4.35 39.83 0.933 7.47 127.3 13.72
12/22/2021 10:45:00 AM 4.44 39.992 0.932 7.38 130.4 13.96
12/22/2021 11:00:00 AM 4.56 40.208 0.931 7.33 137.2 14.21
12/22/2021 11:15:00 AM 4.66 40.388 0.929 7.29 142.3 14.43
12/22/2021 11:30:00 AM 4.68 40.424 0.93 7.34 139.7 14.66
12/22/2021 11:45:00 AM 4.71 40.478 0.929 7.28 139.7 14.77
12/22/2021 12:00:00 PM 4.72 40.496 0.929 7.3 137.1 14.91
12/22/2021 12:15:00 PM 4.71 40.478 0.928 7.28 139.9 15.07
12/22/2021 12:30:00 PM 4.77 40.586 0.927 7.24 139.7 15.2
12/22/2021 12:45:00 PM 4.83 40.694 0.926 7.25 140.2 15.42
12/22/2021 1:00:00 PM 4.88 40.784 0.926 7.21 140.8 15.56
12/22/2021 1:15:00 PM 4.93 40.874 0.925 7.21 2122 15.75
12/22/2021 1:30:00 PM 4.96 40.928 0.924 7.23 130.3 15.91
12/22/2021 1:45:00 PM 4.99 40.982 0.924 7.21 150.7 16.03
12/22/2021 2:00:00 PM 5.02 41.036 0.923 7.24 142.7 16.13
12/22/2021 2:15:00 PM 5.03 41.054 0.922 7.26 149.4 16.22
12/22/2021 2:30:00 PM 5.03 41.054 0.922 7.28 172.1 16.3
12/22/2021 2:45:00 PM 5.02 41.036 0.921 7.32 150.7 16.31
12/22/2021 3:00:00 PM 4.98 40.964 0.921 7.39 165.4 16.33
12/22/2021 3:15:00 PM 4.97 40.946 0.921 7.39 140.7 16.33
12/22/2021 3:30:00 PM 4.96 40.928 0.92 7.42 145.3 16.3
12/22/2021 3:45:00 PM 4.93 40.874 0.92 7.5 148.4 16.33
12/22/2021 4:00:00 PM 4.94 40.892 0.918 7.54 139 16.31
12/22/2021 4:15:00 PM 4.94 40.892 0.918 7.61 145.3 16.26
12/22/2021 4:30:00 PM 4.92 40.856 0.918 7.66 151.2 16.23
12/22/2021 4:45:00 PM 4.91 40.838 0.917 7.71 144.5 16.15
12/22/2021 5:00:00 PM 4.9 40.82 0.916 7.86 165.7 16.03
12/22/2021 5:15:00 PM 4.87 40.766 0.916 7.93 144.3 15.97
12/22/2021 5:30:00 PM 4.86 40.748 0.915 8 143.7 15.86
12/22/2021 5:45:00 PM 4.84 40.712 0.915 8.03 138.8 15.76
12/22/2021 6:00:00 PM 4.82 40.676 0.914 8.06 142.7 15.67
12/22/2021 6:15:00 PM 4.8 40.64 0.913 8.08 136.2 15.56
12/22/2021 6:30:00 PM 4.77 40.586 0.913 8.1 127.8 15.44
12/22/2021 6:45:00 PM 4.73 40.514 0.912 8.12 134.2 15.34
12/22/2021 7:00:00 PM 4.68 40.424 0.909 8.12 140.6 15.2
12/22/2021 7:15:00 PM 4.64 40.352 0.911 8.13 135.8 15.07
12/22/2021 7:30:00 PM 4.58 40.244 0.91 8.14 137 14.94
12/22/2021 7:45:00 PM 4.54 40.172 0.91 8.13 156.3 14.81
12/22/2021 8:00:00 PM 4.49 40.082 0.91 8.14 149.1 14.66
12/22/2021 8:15:00 PM 4.45 40.01 0.909 8.14 152.8 14.54
12/22/2021 8:30:00 PM 4.41 39.938 0.908 8.14 174.6 14.43
12/22/2021 8:45:00 PM 4.37 39.866 0.908 8.13 143.5 14.31
12/22/2021 9:00:00 PM 4.34 39.812 0.9 8.13 150 14.2
12/22/2021 9:15:00 PM 4.28 39.704 0.908 8.13 145.4 14.09
12/22/2021 9:30:00 PM 4.27 39.686 0.907 8.13 146.5 13.99
12/22/2021 9:45:00 PM 4.21 39.578 0.907 8.12 141.9 13.9
12/22/2021 10:00:00 PM 4.19 39.542 0.906 8.12 143.2 13.82
12/22/2021 10:15:00 PM 4.14 39.452 0.905 8.12 158.4 13.76
12/22/2021 10:30:00 PM 4.11 39.398 0.905 8.11 178.8 13.69
12/22/2021 10:45:00 PM 4.09 39.362 0.899 8.1 141 13.6
12/22/2021 11:00:00 PM 4.07 39.326 0.904 8.11 138.4 13.54
12/22/2021 11:15:00 PM 4.04 39.272 0.904 8.11 150 13.47
12/22/2021 11:30:00 PM 4 39.2 0.904 8.09 165.7 13.43
12/22/2021 11:45:00 PM 3.96 39.128 0.898 8.08 149.6 13.38
12/23/2021 12:00:00 AM 3.91 39.038 0.905 7.89 150.7 13.34
12/23/2021 12:15:00 AM 3.88 38.984 0.905 7.97 143.2 13.29
12/23/2021 12:30:00 AM 3.83 38.894 0.906 8.02 413.3 13.26
12/23/2021 12:45:00 AM 3.79 38.822 0.906 8.03 147.8 13.22
12/23/2021 1:00:00 AM 3.75 38.75 0.906 8.04 154.4 13.2
12/23/2021 1:15:00 AM 3.7 38.66 0.907 8.04 144 13.17
12/23/2021 1:30:00 AM 3.64 38.552 0.908 8.04 159 13.16
12/23/2021 1:45:00 AM 3.63 38.534 0.908 8.03 147.1 13.13
12/23/2021 2:00:00 AM 3.57 38.426 0.909 8.02 149.5 13.11
12/23/2021 2:15:00 AM 3.53 38.354 0.91 8.02 145.5 13.09
12/23/2021 2:30:00 AM 3.49 38.282 0.911 8.01 150.9 13.07
12/23/2021 2:45:00 AM 3.44 38.192 0.911 8 134.2 13.09
12/23/2021 3:00:00 AM 3.39 38.102 0.911 8 163.9 13.09
12/23/2021 3:15:00 AM 3.34 38.012 0.912 7.99 156.5 13.08
12/23/2021 3:30:00 AM 3.31 37.958 0.912 7.98 156.4 13.09
12/23/2021 3:45:00 AM 3.27 37.886 0.913 7.97 143.2 13.1
12/23/2021 4:00:00 AM 3.21 37.778 0.914 7.96 161.9 13.07
12/23/2021 4:15:00 AM 3.18 37.724 0.915 7.95 154.6 13.09
12/23/2021 4:30:00 AM 3.12 37.616 0.916 7.95 150 13.11
12/23/2021 4:45:00 AM 3.09 37.562 0.916 7.94 156.5 13.13
12/23/2021 5:00:00 AM 3.05 37.49 0.916 7.94 158.4 13.13
12/23/2021 5:15:00 AM 3.01 37.418 0.918 7.93 146 13.16
12/23/2021 5:30:00 AM 2.98 37.364 0.918 7.93 135.1 13.16
12/23/2021 5:45:00 AM 2.93 37.274 0.919 7.92 143.7 13.16
12/23/2021 6:00:00 AM 2.91 37.238 0.919 7.91 141.6 13.18
12/23/2021 6:15:00 AM 2.87 37.166 0.92 7.91 153.6 13.2
12/23/2021 6:30:00 AM 2.81 37.058 0.92 7.91 143 13.24
12/23/2021 6:45:00 AM 2.78 37.004 0.921 7.91 142.2 13.24
12/23/2021 7:00:00 AM 2.74 36.932 0.921 7.9 144.9 13.26
12/23/2021 7:15:00 AM 2.72 36.896 0.922 7.91 145.4 13.28
12/23/2021 7:30:00 AM 2.69 36.842 0.922 7.9 129 13.29
12/23/2021 7:45:00 AM 2.64 36.752 0.923 7.91 143.2 13.33
12/23/2021 8:00:00 AM 2.63 36.734 0.923 7.91 137.5 13.35
12/23/2021 8:15:00 AM 2.6 36.68 0.923 7.91 148 13.43
12/23/2021 8:30:00 AM 2.59 36.662 0.923 7.91 146.1 13.52
12/23/2021 8:45:00 AM 2.57 36.626 0.923 7.9 142.6 13.61
12/23/2021 9:00:00 AM 2.55 36.59 0.923 7.89 2402 13.71
12/23/2021 9:15:00 AM 2.56 36.608 0.923 7.89 146 13.79
12/23/2021 9:30:00 AM 2.54 36.572 0.923 7.89 146.3 13.92
12/23/2021 9:45:00 AM 2.57 36.626 0.922 7.89 146.9 14.03
12/23/2021 10:00:00 AM 2.57 36.626 0.923 7.88 150.3 14.19
12/23/2021 10:15:00 AM 2.63 36.734 0.922 7.87 160.6 14.37
12/23/2021 10:30:00 AM 2.71 36.878 0.922 7.8 153.8 14.59
12/23/2021 10:45:00 AM 2.81 37.058 0.92 7.74 151.8 14.75
12/23/2021 11:00:00 AM 2.92 37.256 0.92 7.7 135.8 14.89
12/23/2021 11:15:00 AM 3.02 37.436 0.919 7.62 139.2 15.09
12/23/2021 11:30:00 AM 3.11 37.598 0.918 7.52 139.4 15.28
12/23/2021 11:45:00 AM 3.16 37.688 0.918 7.5 145.9 15.44
12/23/2021 12:00:00 PM 3.24 37.832 0.917 7.5 137.6 15.56
12/23/2021 12:15:00 PM 3.3 37.94 0.917 7.5 137 15.73
12/23/2021 12:30:00 PM 3.32 37.976 0.917 7.55 127.3 15.9
12/23/2021 12:45:00 PM 3.35 38.03 0.916 7.45 130.2 16.06
12/23/2021 1:00:00 PM 3.41 38.138 0.915 7.42 130.9 16.22
12/23/2021 1:15:00 PM 3.48 38.264 0.914 7.45 131.6 16.39
12/23/2021 1:30:00 PM 3.54 38.372 0.914 7.48 148.4 16.53
12/23/2021 1:45:00 PM 3.57 38.426 0.914 7.49 145.8 16.73
12/23/2021 2:00:00 PM 3.61 38.498 0.913 7.55 134.7 16.78
12/23/2021 2:15:00 PM 3.63 38.534 0.912 7.6 2244 16.84
12/23/2021 2:30:00 PM 3.64 38.552 0.912 7.63 137 16.9
12/23/2021 2:45:00 PM 3.65 38.57 0.912 7.61 149.4 16.96
12/23/2021 3:00:00 PM 3.68 38.624 0.911 7.63 133.3 17.05
12/23/2021 3:15:00 PM 3.69 38.642 0.911 7.67 141.8 17.15
12/23/2021 3:30:00 PM 3.72 38.696 0.91 7.69 148.7 17.16
12/23/2021 3:45:00 PM 3.73 38.714 0.91 7.7 131.7 17.19
12/23/2021 4:00:00 PM 3.74 38.732 0.91 7.71 126.5 17.14
12/23/2021 4:15:00 PM 3.76 38.768 0.91 7.78 138.7 17.1
12/23/2021 4:30:00 PM 3.78 38.804 0.91 7.88 153.3 17.07
12/23/2021 4:45:00 PM 3.78 38.804 0.91 8 133.2 17.02
12/23/2021 5:00:00 PM 3.78 38.804 0.91 8.08 127.6 16.93
12/23/2021 5:15:00 PM 3.77 38.786 0.91 8.13 133.5 16.84
12/23/2021 5:30:00 PM 3.77 38.786 0.91 8.16 133.7 16.7
12/23/2021 5:45:00 PM 3.75 38.75 0.91 8.19 133.3 16.6
12/23/2021 6:00:00 PM 3.74 38.732 0.911 8.21 143 16.51
12/23/2021 6:15:00 PM 3.72 38.696 0.911 8.21 142.3 16.4
12/23/2021 6:30:00 PM 3.7 38.66 0.911 8.22 157.1 16.29
12/23/2021 6:45:00 PM 3.68 38.624 0.911 8.23 156.5 16.18
12/23/2021 7:00:00 PM 3.68 38.624 0.911 8.23 152.1 16.02
12/23/2021 7:15:00 PM 3.66 38.588 0.912 8.24 154.7 15.91
12/23/2021 7:30:00 PM 3.65 38.57 0.913 8.24 144.6 15.76
12/23/2021 7:45:00 PM 3.63 38.534 0.914 8.24 148.7 15.64
12/23/2021 8:00:00 PM 3.62 38.516 0.914 8.24 158.5 15.5
12/23/2021 8:15:00 PM 3.61 38.498 0.915 8.23 145.4 15.34
12/23/2021 8:30:00 PM 3.61 38.498 0.916 8.22 162 15.22
12/23/2021 8:45:00 PM 3.59 38.462 0.916 8.22 155.5 15.1
12/23/2021 9:00:00 PM 3.57 38.426 0.917 8.21 148.8 14.99
12/23/2021 9:15:00 PM 3.55 38.39 0.919 8.2 152 14.87
12/23/2021 9:30:00 PM 3.54 38.372 0.92 8.19 154 14.76
12/23/2021 9:45:00 PM 3.54 38.372 0.92 8.18 147.6 14.65
12/23/2021 10:00:00 PM 3.55 38.39 0.921 8.17 139.4 14.53
12/23/2021 10:15:00 PM 3.54 38.372 0.922 8.15 143.9 14.43
12/23/2021 10:30:00 PM 3.55 38.39 0.923 8.14 1474 14.34
12/23/2021 10:45:00 PM 3.55 38.39 0.924 8.12 147.8 14.23
12/23/2021 11:00:00 PM 3.54 38.372 0.925 8.11 2586 14.13
12/23/2021 11:15:00 PM 3.55 38.39 0.925 8.11 146.9 14.08
12/23/2021 11:30:00 PM 3.54 38.372 0.927 8.09 150.8 13.99
12/23/2021 11:45:00 PM 3.55 38.39 0.927 8.09 2696 13.91
12/24/2021 12:00:00 AM 3.56 38.408 0.929 8.09 217.1 13.86
12/24/2021 12:15:00 AM 3.57 38.426 0.93 8.06 129.5 13.79
12/24/2021 12:30:00 AM 3.57 38.426 0.931 8.04 138.1 13.72
12/24/2021 12:45:00 AM 3.56 38.408 0.932 8.03 135.7 13.66
12/24/2021 1:00:00 AM 3.58 38.444 0.933 8.01 196.3 13.62
12/24/2021 1:15:00 AM 3.58 38.444 0.934 7.98 157 13.56
12/24/2021 1:30:00 AM 3.57 38.426 0.935 7.97 149.1 13.53
12/24/2021 1:45:00 AM 3.57 38.426 0.936 7.96 147.6 13.47
12/24/2021 2:00:00 AM 3.58 38.444 0.937 7.94 163 13.43
12/24/2021 2:15:00 AM 3.58 38.444 0.938 7.92 143.8 13.42
12/24/2021 2:30:00 AM 3.57 38.426 0.939 7.92 161.2 13.34
12/24/2021 2:45:00 AM 3.57 38.426 0.94 7.94 154.5 13.32
12/24/2021 3:00:00 AM 3.56 38.408 0.942 7.93 158.4 13.28
12/24/2021 3:15:00 AM 3.55 38.39 0.943 7.92 147.9 13.26
12/24/2021 3:30:00 AM 3.55 38.39 0.944 7.91 169 13.24
12/24/2021 3:45:00 AM 3.55 38.39 0.945 7.88 140.7 13.21
12/24/2021 4:00:00 AM 3.54 38.372 0.947 7.86 139 13.19
12/24/2021 4:15:00 AM 3.53 38.354 0.948 7.85 142.3 13.17
12/24/2021 4:30:00 AM 3.51 38.318 0.949 7.85 126.5 13.15
12/24/2021 4:45:00 AM 3.5 38.3 0.95 7.84 122.4 13.14
12/24/2021 5:00:00 AM 3.5 38.3 0.951 7.84 133.7 13.13
12/24/2021 5:15:00 AM 3.52 38.336 0.951 7.83 139.5 13.11
12/24/2021 5:30:00 AM 3.5 38.3 0.952 7.81 152.3 13.08
12/24/2021 5:45:00 AM 3.5 38.3 0.953 7.79 148.2 13.08
12/24/2021 6:00:00 AM 3.47 38.246 0.954 7.78 143.4 13.1
12/24/2021 6:15:00 AM 3.48 38.264 0.955 7.77 151.5 13.08
12/24/2021 6:30:00 AM 3.47 38.246 0.955 7.79 133.7 13.1
12/24/2021 6:45:00 AM 3.45 38.21 0.954 7.88 138.2 13.09
12/24/2021 7:00:00 AM 3.41 38.138 0.955 7.91 139.6 13.09
12/24/2021 7:15:00 AM 3.37 38.066 0.956 7.92 138.9 13.09
12/24/2021 7:30:00 AM 3.33 37.994 0.956 7.94 323.3 13.11
12/24/2021 7:45:00 AM 3.31 37.958 0.956 7.95 135.3 13.11
12/24/2021 8:00:00 AM 3.29 37.922 0.956 7.98 127.8 13.15
12/24/2021 8:15:00 AM 3.27 37.886 0.956 7.97 129.5 13.21
12/24/2021 8:30:00 AM 3.26 37.868 0.956 7.98 131.4 13.25
12/24/2021 8:45:00 AM 3.25 37.85 0.956 8 129.9 13.36
12/24/2021 9:00:00 AM 3.25 37.85 0.956 7.99 127.2 13.46
12/24/2021 9:15:00 AM 3.24 37.832 0.955 7.99 127.3 13.55
12/24/2021 9:30:00 AM 3.25 37.85 0.955 7.99 131 13.67
12/24/2021 9:45:00 AM 3.26 37.868 0.954 7.98 131.7 13.78
12/24/2021 10:00:00 AM 3.29 37.922 0.954 7.99 128.2 13.93
12/24/2021 10:15:00 AM 3.34 38.012 0.953 7.98 130.8 14.1
12/24/2021 10:30:00 AM 3.42 38.156 0.952 7.91 129.6 14.29
12/24/2021 10:45:00 AM 3.51 38.318 0.952 7.7 1383 14.46
12/24/2021 11:00:00 AM 3.67 38.606 0.949 7.62 143.3 14.7
12/24/2021 11:15:00 AM 3.76 38.768 0.949 7.61 132 14.88
12/24/2021 11:30:00 AM 3.82 38.876 0.949 7.57 1713 15.01
12/24/2021 11:45:00 AM 3.94 39.092 0.947 7.59 150.8 15.2
12/24/2021 12:00:00 PM 3.97 39.146 0.948 7.56 138.3 15.32
12/24/2021 12:15:00 PM 4.04 39.272 0.947 7.59 145 15.5
12/24/2021 12:30:00 PM 4.08 39.344 0.947 7.56 137.3 15.61
12/24/2021 12:45:00 PM 4.15 39.47 0.946 7.54 151.4 15.76
12/24/2021 1:00:00 PM 4.23 39.614 0.945 7.53 147.4 15.9
12/24/2021 1:15:00 PM 4.25 39.65 0.945 7.57 147.1 16
12/24/2021 1:30:00 PM 4.29 39.722 0.944 7.57 143.2 16.12
12/24/2021 1:45:00 PM 4.32 39.776 0.944 7.55 140.9 16.22
12/24/2021 2:00:00 PM 4.36 39.848 0.943 7.53 140.8 16.31
12/24/2021 2:15:00 PM 4.4 39.92 0.943 7.54 242.6 16.45
12/24/2021 2:30:00 PM 4.44 39.992 0.941 7.56 211.4 16.5
12/24/2021 2:45:00 PM 4.48 40.064 0.941 7.56 157.9 16.59
12/24/2021 3:00:00 PM 4.53 40.154 0.94 7.54 141.6 16.65
12/24/2021 3:15:00 PM 4.57 40.226 0.939 7.5 133.5 16.7
12/24/2021 3:30:00 PM 4.6 40.28 0.939 7.46 142.4 16.72
12/24/2021 3:45:00 PM 4.64 40.352 0.939 7.46 133.1 16.71
12/24/2021 4:00:00 PM 4.67 40.406 0.937 7.44 145.6 16.68
12/24/2021 4:15:00 PM 4.7 40.46 0.937 7.42 143.9 16.66
12/24/2021 4:30:00 PM 4.73 40.514 0.936 7.43 146 16.6
12/24/2021 4:45:00 PM 4.75 40.55 0.936 7.46 146.5 16.56
12/24/2021 5:00:00 PM 4.77 40.586 0.935 7.46 176.6 16.45
12/24/2021 5:15:00 PM 4.79 40.622 0.935 7.48 146.8 16.31
12/24/2021 5:30:00 PM 4.81 40.658 0.934 7.47 146 16.22
12/24/2021 5:45:00 PM 4.83 40.694 0.934 7.44 143.2 16.12
12/24/2021 6:00:00 PM 4.82 40.676 0.934 7.45 147.7 16.01
12/24/2021 6:15:00 PM 4.84 40.712 0.934 7.45 142.6 15.89
12/24/2021 6:30:00 PM 4.84 40.712 0.933 7.46 142.3 15.77
12/24/2021 6:45:00 PM 4.84 40.712 0.933 7.48 143.6 15.62
12/24/2021 7:00:00 PM 4.85 40.73 0.933 7.48 147.3 15.48
12/24/2021 7:15:00 PM 4.85 40.73 0.933 7.46 153.5 15.33
12/24/2021 7:30:00 PM 4.84 40.712 0.933 7.47 151.9 15.19
12/24/2021 7:45:00 PM 4.83 40.694 0.933 7.52 151.2 15.04
12/24/2021 8:00:00 PM 4.83 40.694 0.933 7.52 158.9 14.9
12/24/2021 8:15:00 PM 4.81 40.658 0.934 7.57 156.8 14.75
12/24/2021 8:30:00 PM 4.81 40.658 0.934 7.63 149 14.62
12/24/2021 8:45:00 PM 4.8 40.64 0.934 7.7 141.5 14.48
12/24/2021 9:00:00 PM 4.79 40.622 0.934 7.76 153.9 14.34
12/24/2021 9:15:00 PM 4.78 40.604 0.934 7.77 149.4 14.22
12/24/2021 9:30:00 PM 4.8 40.64 0.934 7.73 148.3 14.09
12/24/2021 9:45:00 PM 4.81 40.658 0.935 7.63 149.1 13.95
12/24/2021 10:00:00 PM 4.82 40.676 0.935 7.55 157.7 13.84
12/24/2021 10:15:00 PM 4.84 40.712 0.935 7.54 151.6 13.74
12/24/2021 10:30:00 PM 4.85 40.73 0.935 7.52 156.4 13.61
12/24/2021 10:45:00 PM 4.85 40.73 0.936 7.51 154.7 13.51
12/24/2021 11:00:00 PM 4.85 40.73 0.936 7.46 147.2 13.43
12/24/2021 11:15:00 PM 4.86 40.748 0.937 7.43 160.1 13.34
12/24/2021 11:30:00 PM 4.87 40.766 0.937 7.39 153.1 13.25
12/24/2021 11:45:00 PM 4.89 40.802 0.938 7.34 150.4 13.17
12/25/2021 12:00:00 AM 4.9 40.82 0.938 7.28 152.8 13.09
12/25/2021 12:15:00 AM 4.92 40.856 0.939 7.32 155.8 13.01
12/25/2021 12:30:00 AM 4.91 40.838 0.94 7.3 155.1 12.97
12/25/2021 12:45:00 AM 4.92 40.856 0.94 7.29 163.4 12.89
12/25/2021 1:00:00 AM 4.92 40.856 0.941 7.29 175.7 12.84
12/25/2021 1:15:00 AM 4.92 40.856 0.942 7.28 171.9 12.77
12/25/2021 1:30:00 AM 4.92 40.856 0.942 7.28 150 12.72
12/25/2021 1:45:00 AM 4.93 40.874 0.943 7.26 155.9 12.67
12/25/2021 2:00:00 AM 4.93 40.874 0.944 7.23 160.6 12.62
12/25/2021 2:15:00 AM 4.94 40.892 0.944 7.21 144.4 12.56
12/25/2021 2:30:00 AM 4.94 40.892 0.945 7.13 164 12.53
12/25/2021 2:45:00 AM 4.96 40.928 0.945 7.16 158.9 12.49
12/25/2021 3:00:00 AM 4.96 40.928 0.946 7.14 152.3 12.46
12/25/2021 3:15:00 AM 4.97 40.946 0.947 7.11 162.6 12.42
12/25/2021 3:30:00 AM 4.96 40.928 0.947 7.03 158.3 12.4
12/25/2021 3:45:00 AM 4.97 40.946 0.948 7.01 147.8 12.36
12/25/2021 4:00:00 AM 4.98 40.964 0.948 7 156.3 12.33
12/25/2021 4:15:00 AM 4.98 40.964 0.949 6.97 149.9 12.32
12/25/2021 4:30:00 AM 4.99 40.982 0.949 6.94 151.9 12.31
12/25/2021 4:45:00 AM 4.99 40.982 0.949 6.94 161.6 12.26
12/25/2021 5:00:00 AM 5 41 0.949 6.88 1546 12.22
12/25/2021 5:15:00 AM 4.99 40.982 0.95 6.88 157.3 12.23
12/25/2021 5:30:00 AM 5 41 0.95 6.89 167.2 12.2
12/25/2021 5:45:00 AM 5 41 0.95 6.87 1435 12.18
12/25/2021 6:00:00 AM 5.01 41.018 0.951 6.86 154.3 12.17
12/25/2021 6:15:00 AM 5.01 41.018 0.951 6.82 156.6 12.15
12/25/2021 6:30:00 AM 5.02 41.036 0.951 6.8 154 12.13
12/25/2021 6:45:00 AM 5.02 41.036 0.951 6.81 166.5 12.12
12/25/2021 7:00:00 AM 5.03 41.054 0.951 6.75 164.3 12.11
12/25/2021 7:15:00 AM 5.04 41.072 0.951 6.78 821.5 12.09
12/25/2021 7:30:00 AM 5.04 41.072 0.951 6.77 591.7 12.1
12/25/2021 7:45:00 AM 5.04 41.072 0.951 6.76 162.8 12.09
12/25/2021 8:00:00 AM 5.06 41.108 0.951 6.73 157.5 12.08
12/25/2021 8:15:00 AM 5.05 41.09 0.951 6.73 159.1 12.11
12/25/2021 8:30:00 AM 5.05 41.09 0.951 6.73 154.7 12.12
12/25/2021 8:45:00 AM 5.07 41.126 0.95 6.7 1780 12.14
12/25/2021 9:00:00 AM 5.08 41.144 0.95 6.7 157.7 12.18
12/25/2021 9:15:00 AM 5.09 41.162 0.95 6.68 153.6 12.22
12/25/2021 9:30:00 AM 5.1 41.18 0.949 6.66 158.5 12.25
12/25/2021 9:45:00 AM 5.12 41.216 0.949 6.62 149.1 12.3
12/25/2021 10:00:00 AM 5.14 41.252 0.949 6.62 153 12.34
12/25/2021 10:15:00 AM 5.17 41.306 0.949 6.61 146.3 12.47
12/25/2021 10:30:00 AM 5.22 41.396 0.948 6.61 154.7 12.64
12/25/2021 10:45:00 AM 5.27 41.486 0.947 6.61 154.9 12.78
12/25/2021 11:00:00 AM 5.29 41.522 0.947 6.61 158.5 12.9
12/25/2021 11:15:00 AM 5.31 41.558 0.947 6.62 157 12.9
12/25/2021 11:30:00 AM 5.33 41.594 0.947 6.62 159.3 12.92
12/25/2021 11:45:00 AM 5.37 41.666 0.946 6.65 328.7 13.01
12/25/2021 12:00:00 PM 5.41 41.738 0.946 6.62 170.9 13.12
12/25/2021 12:15:00 PM 5.45 41.81 0.945 6.63 162.4 13.27
12/25/2021 12:30:00 PM 5.5 41.9 0.945 6.63 168.3 13.4
12/25/2021 12:45:00 PM 5.54 41.972 0.944 6.64 147.5 13.53
12/25/2021 1:00:00 PM 5.59 42.062 0.943 6.65 149.4 13.63
12/25/2021 1:15:00 PM 5.64 42.152 0.943 6.65 156.6 13.73
12/25/2021 1:30:00 PM 5.71 42.278 0.942 6.71 152.2 13.85
12/25/2021 1:45:00 PM 5.81 42.458 0.941 6.75 156.3 14.04
12/25/2021 2:00:00 PM 5.89 42.602 0.941 6.78 160.2 14.23
12/25/2021 2:15:00 PM 5.93 42.674 0.94 6.82 161.7 14.4
12/25/2021 2:30:00 PM 5.97 42.746 0.94 6.85 152.3 14.47
12/25/2021 2:45:00 PM 6 42.8 0.94 6.85 789 14.49
12/25/2021 3:00:00 PM 6.04 42.872 0.939 6.89 162.8 14.46
12/25/2021 3:15:00 PM 6.08 42.944 0.938 6.87 160.3 14.52
12/25/2021 3:30:00 PM 6.11 42.998 0.938 6.88 168.5 14.49
12/25/2021 3:45:00 PM 6.17 43.106 0.937 6.9 161.4 14.49
12/25/2021 4:00:00 PM 6.18 43.124 0.938 6.9 158.8 14.54
12/25/2021 4:15:00 PM 6.22 43.196 0.937 6.9 167.3 14.51
12/25/2021 4:30:00 PM 6.25 43.25 0.937 6.89 166 14.5
12/25/2021 4:45:00 PM 6.31 43.358 0.936 6.89 173.9 14.43
12/25/2021 5:00:00 PM 6.33 43.394 0.935 6.89 170.8 14.34
12/25/2021 5:15:00 PM 6.35 43.43 0.935 6.92 166 14.22
12/25/2021 5:30:00 PM 6.38 43.484 0.934 6.91 172.5 14.12
12/25/2021 5:45:00 PM 6.43 43.574 0.933 6.93 171 14.04
12/25/2021 6:00:00 PM 6.43 43.574 0.933 6.94 169.1 13.95
12/25/2021 6:15:00 PM 6.48 43.664 0.931 6.94 185.2 13.87
12/25/2021 6:30:00 PM 6.52 43.736 0.928 6.24 169.8 13.73
12/25/2021 6:45:00 PM 6.54 43.772 0.927 6.43 175.8 13.62
12/25/2021 7:00:00 PM 6.54 43.772 0.926 6.57 184.5 13.5
12/25/2021 7:15:00 PM 6.56 43.808 0.926 6.61 320.5 13.4
12/25/2021 7:30:00 PM 6.58 43.844 0.927 6.63 192.4 13.28
12/25/2021 7:45:00 PM 6.6 43.88 0.926 6.66 174.7 13.17
12/25/2021 8:00:00 PM 6.62 43.916 0.926 6.5 182.8 13.04
12/25/2021 8:15:00 PM 6.64 43.952 0.925 6.53 177.9 12.94
12/25/2021 8:30:00 PM 6.68 44.024 0.924 6.57 179.3 12.84
12/25/2021 8:45:00 PM 6.68 44.024 0.924 6.62 170.9 12.73
12/25/2021 9:00:00 PM 6.69 44.042 0.924 6.59 189.5 12.62
12/25/2021 9:15:00 PM 6.7 44.06 0.924 6.59 172.7 12.53
12/25/2021 9:30:00 PM 6.71 44.078 0.924 6.61 177.3 12.46
12/25/2021 9:45:00 PM 6.72 44.096 0.924 6.62 175.4 12.36
12/25/2021 10:00:00 PM 6.73 44.114 0.924 6.49 177.5 12.27
12/25/2021 10:15:00 PM 6.74 44.132 0.924 6.51 173.9 12.19
12/25/2021 10:30:00 PM 6.75 44.15 0.924 6.43 176.1 12.12
12/25/2021 10:45:00 PM 6.75 44.15 0.925 6.34 176.4 12.03
12/25/2021 11:00:00 PM 6.78 44.204 0.924 6.31 226.9 12.02
12/25/2021 11:15:00 PM 6.8 44.24 0.924 6.39 192.1 11.94
12/25/2021 11:30:00 PM 6.82 44.276 0.922 6.5 189.4 11.87
12/25/2021 11:45:00 PM 6.85 44.33 0.92 6.44 190.6 11.77
12/26/2021 12:00:00 AM 6.89 44.402 0.918 6.45 177.2 11.7
12/26/2021 12:15:00 AM 6.9 44.42 0.917 6.51 172.3 11.65
12/26/2021 12:30:00 AM 6.9 44.42 0.917 6.4 178.2 11.59
12/26/2021 12:45:00 AM 6.88 44.384 0.918 6.41 180.5 11.58
12/26/2021 1:00:00 AM 6.87 44.366 0.919 6.54 192.8 11.54
12/26/2021 1:15:00 AM 6.85 44.33 0.92 6.58 184.3 11.5
12/26/2021 1:30:00 AM 6.83 44.294 0.921 5.54 193.7 11.49
12/26/2021 1:45:00 AM 6.82 44.276 0.921 5.77 170.2 11.45
12/26/2021 2:00:00 AM 6.8 44.24 0.92 5.86 179.4 11.45
12/26/2021 2:15:00 AM 6.78 44.204 0.92 5.85 182.9 11.43
12/26/2021 2:30:00 AM 6.76 44.168 0.918 6.07 175.7 11.42
12/26/2021 2:45:00 AM 6.73 44.114 0.917 6.12 182.3 11.4
12/26/2021 3:00:00 AM 6.71 44.078 0.916 6.14 191.4 11.36
12/26/2021 3:15:00 AM 6.69 44.042 0.913 6.27 175.9 11.37
12/26/2021 3:30:00 AM 6.66 43.988 0.911 6.22 184.8 11.37
12/26/2021 3:45:00 AM 6.64 43.952 0.909 6.28 186.1 11.36
12/26/2021 4:00:00 AM 6.62 43.916 0.905 6.33 171.2 11.34
12/26/2021 4:15:00 AM 6.6 43.88 0.901 6.44 180.7 11.32
12/26/2021 4:30:00 AM 6.58 43.844 0.898 6.52 193.8 11.33
12/26/2021 4:45:00 AM 6.56 43.808 0.892 6.5 185.4 11.32
12/26/2021 5:00:00 AM 6.54 43.772 0.889 6.53 172.3 11.33
12/26/2021 5:15:00 AM 6.52 43.736 0.886 6.53 180.9 11.31
12/26/2021 5:30:00 AM 6.5 43.7 0.883 6.58 173.5 11.3
12/26/2021 5:45:00 AM 6.47 43.646 0.881 6.65 166.6 11.33
12/26/2021 6:00:00 AM 6.44 43.592 0.88 6.73 179.7 11.31
12/26/2021 6:15:00 AM 6.4 43.52 0.88 6.87 172.1 11.36
12/26/2021 6:30:00 AM 6.39 43.502 0.881 6.96 166.3 11.34
12/26/2021 6:45:00 AM 6.35 43.43 0.883 7.05 176.5 11.37
12/26/2021 7:00:00 AM 6.3 43.34 0.885 7.14 168.4 11.41
12/26/2021 7:15:00 AM 6.3 43.34 0.886 7.19 175.7 11.42
12/26/2021 7:30:00 AM 6.27 43.286 0.889 7.24 164.6 11.43
12/26/2021 7:45:00 AM 6.24 43.232 0.891 7.3 175.6 11.48
12/26/2021 8:00:00 AM 6.22 43.196 0.893 7.32 180.4 11.51
12/26/2021 8:15:00 AM 6.2 43.16 0.893 7.35 175.1 11.57
12/26/2021 8:30:00 AM 6.18 43.124 0.892 7.38 170.8 11.62
12/26/2021 8:45:00 AM 6.17 43.106 0.888 7.39 168.1 11.67
12/26/2021 9:00:00 AM 6.16 43.088 0.884 7.39 175.8 11.77
12/26/2021 9:15:00 AM 6.17 43.106 0.878 7.38 177.5 11.82
12/26/2021 9:30:00 AM 6.2 43.16 0.869 7.35 181.5 11.9
12/26/2021 9:45:00 AM 6.23 43.214 0.862 7.32 182.9 12
12/26/2021 10:00:00 AM 6.27 43.286 0.857 7.28 176.9 12.11
12/26/2021 10:15:00 AM 6.35 43.43 0.848 7.22 195.3 12.27
12/26/2021 10:30:00 AM 6.45 43.61 0.842 7.18 191.7 12.47
12/26/2021 10:45:00 AM 6.55 43.79 0.838 7.1 2451 12.65
12/26/2021 11:00:00 AM 6.68 44.024 0.833 7.09 167.6 12.88
12/26/2021 11:15:00 AM 6.78 44.204 0.83 7.05 187.7 12.98
12/26/2021 11:30:00 AM 6.89 44.402 0.827 7.02 180.8 13.18
12/26/2021 11:45:00 AM 6.96 44.528 0.826 7.01 182.8 13.3
12/26/2021 12:00:00 PM 7.04 44.672 0.824 7.01 187.1 13.46
12/26/2021 12:15:00 PM 7.09 44.762 0.824 7.03 174.4 13.59
12/26/2021 12:30:00 PM 7.15 44.87 0.824 7 184.4 13.74
12/26/2021 12:45:00 PM 7.2 44.96 0.824 6.98 186.2 13.89
12/26/2021 1:00:00 PM 7.26 45.068 0.825 7 178.5 14
12/26/2021 1:15:00 PM 7.31 45.158 0.826 6.99 179 14.12
12/26/2021 1:30:00 PM 7.34 45.212 0.827 6.99 170.9 14.19
12/26/2021 1:45:00 PM 7.39 45.302 0.828 6.97 182.1 14.25
12/26/2021 2:00:00 PM 7.41 45.338 0.829 6.99 166.6 14.31
12/26/2021 2:15:00 PM 7.45 45.41 0.83 6.99 191.6 14.4
12/26/2021 2:30:00 PM 7.48 45.464 0.832 6.97 172.9 14.43
12/26/2021 2:45:00 PM 7.5 45.5 0.834 6.94 183.7 14.47
12/26/2021 3:00:00 PM 7.51 45.518 0.835 6.93 182.3 14.48
12/26/2021 3:15:00 PM 7.52 45.536 0.837 6.95 1363 14.44
12/26/2021 3:30:00 PM 7.53 45.554 0.839 6.96 184.7 14.44
12/26/2021 3:45:00 PM 7.54 45.572 0.84 7.02 192 14.42
12/26/2021 4:00:00 PM 7.56 45.608 0.841 7.02 180.9 14.42
12/26/2021 4:15:00 PM 7.58 45.644 0.842 6.99 175.2 14.36
12/26/2021 4:30:00 PM 7.6 45.68 0.843 7.02 172 14.31
12/26/2021 4:45:00 PM 7.61 45.698 0.844 7.01 169.1 14.23
12/26/2021 5:00:00 PM 7.61 45.698 0.846 7.09 659.7 14.19
12/26/2021 5:15:00 PM 7.6 45.68 0.847 7.18 159 14.08
12/26/2021 5:30:00 PM 7.6 45.68 0.848 7.29 185 13.98
12/26/2021 5:45:00 PM 7.58 45.644 0.85 7.43 177.2 13.84
12/26/2021 6:00:00 PM 7.57 45.626 0.851 7.56 2800 13.77
12/26/2021 6:15:00 PM 7.54 45.572 0.852 7.62 2854 13.61
12/26/2021 6:30:00 PM 7.51 45.518 0.853 7.68 2737 13.54
12/26/2021 6:45:00 PM 7.48 45.464 0.854 7.71 2374 13.4
12/26/2021 7:00:00 PM 7.45 45.41 0.855 7.73 2535 13.26
12/26/2021 7:15:00 PM 7.42 45.356 0.855 7.74 2353 13.12
12/26/2021 7:30:00 PM 7.38 45.284 0.856 7.77 2204 12.97
12/26/2021 7:45:00 PM 7.35 45.23 0.856 7.77 2415 12.87
12/26/2021 8:00:00 PM 7.31 45.158 0.855 7.77 2310 12.75
12/26/2021 8:15:00 PM 7.27 45.086 0.854 7.77 1852 12.62
12/26/2021 8:30:00 PM 7.24 45.032 0.853 7.77 2231 12.51
12/26/2021 8:45:00 PM 7.21 44.978 0.852 7.78 1933 12.39
12/26/2021 9:00:00 PM 7.17 44.906 0.851 7.78 405 12.29
12/26/2021 9:15:00 PM 7.14 44.852 0.848 7.78 175.1 12.18
12/26/2021 9:30:00 PM 7.1 44.78 0.846 7.78 165.1 12.08
12/26/2021 9:45:00 PM 7.06 44.708 0.844 7.79 177.1 12
12/26/2021 10:00:00 PM 7.03 44.654 0.841 7.79 286.4 11.95
12/26/2021 10:15:00 PM 7 44.6 0.838 7.78 181.1 11.86
12/26/2021 10:30:00 PM 6.95 44.51 0.835 7.78 2393 11.81
12/26/2021 10:45:00 PM 6.92 44.456 0.833 7.77 190.6 11.75
12/26/2021 11:00:00 PM 6.87 44.366 0.83 7.77 188.5 11.69
12/26/2021 11:15:00 PM 6.83 44.294 0.829 7.77 922.9 11.65
12/26/2021 11:30:00 PM 6.78 44.204 0.828 7.76 180.7 11.62
12/26/2021 11:45:00 PM 6.73 44.114 0.827 7.75 194.7 11.57
12/27/2021 12:00:00 AM 6.69 44.042 0.826 7.75 179 11.52
12/27/2021 12:15:00 AM 6.64 43.952 0.826 7.74 181.7 11.49
12/27/2021 12:30:00 AM 6.6 43.88 0.826 7.73 194.8 11.45
12/27/2021 12:45:00 AM 6.54 43.772 0.827 7.72 187.1 11.43
12/27/2021 1:00:00 AM 6.49 43.682 0.828 7.72 2896 11.41
12/27/2021 1:15:00 AM 6.43 43.574 0.829 7.71 193.4 11.4
12/27/2021 1:30:00 AM 6.38 43.484 0.831 7.71 1975 11.4
12/27/2021 1:45:00 AM 6.34 43.412 0.833 7.7 193.4 11.36
12/27/2021 2:00:00 AM 6.28 43.304 0.835 7.69 213.4 11.35
12/27/2021 2:15:00 AM 6.23 43.214 0.837 7.69 184.9 11.38
12/27/2021 2:30:00 AM 6.19 43.142 0.839 7.68 193.2 11.33
12/27/2021 2:45:00 AM 6.12 43.016 0.842 7.68 213.2 11.35
12/27/2021 3:00:00 AM 6.08 42.944 0.844 7.68 181.6 11.36
12/27/2021 3:15:00 AM 6.03 42.854 0.847 7.67 205.2 11.37
12/27/2021 3:30:00 AM 6.01 42.818 0.849 7.67 197.2 11.37
12/27/2021 3:45:00 AM 5.95 42.71 0.853 7.66 178.8 11.37
12/27/2021 4:00:00 AM 5.92 42.656 0.856 7.66 190.8 11.39
12/27/2021 4:15:00 AM 5.88 42.584 0.859 7.65 196.6 11.41
12/27/2021 4:30:00 AM 5.85 42.53 0.862 7.66 192.7 11.41
12/27/2021 4:45:00 AM 5.8 42.44 0.864 7.65 175.3 11.43
12/27/2021 5:00:00 AM 5.78 42.404 0.867 7.65 172.7 11.46
12/27/2021 5:15:00 AM 5.75 42.35 0.869 7.65 177.6 11.47
12/27/2021 5:30:00 AM 5.71 42.278 0.871 7.64 179.7 11.48
12/27/2021 5:45:00 AM 5.68 42.224 0.874 7.65 178.9 11.48
12/27/2021 6:00:00 AM 5.66 42.188 0.877 7.64 183.7 11.49
12/27/2021 6:15:00 AM 5.65 42.17 0.879 7.63 183.3 11.5
12/27/2021 6:30:00 AM 5.62 42.116 0.881 7.63 187.3 11.54
12/27/2021 6:45:00 AM 5.6 42.08 0.883 7.64 186.4 11.55
12/27/2021 7:00:00 AM 5.56 42.008 0.885 7.64 180.3 11.55
12/27/2021 7:15:00 AM 5.55 41.99 0.887 7.65 183.4 11.57
12/27/2021 7:30:00 AM 5.52 41.936 0.888 7.64 179.1 11.59
12/27/2021 7:45:00 AM 5.52 41.936 0.89 7.64 184.4 11.62
12/27/2021 8:00:00 AM 5.5 41.9 0.891 7.64 164.1 11.61
12/27/2021 8:15:00 AM 5.49 41.882 0.893 7.63 160.6 11.65
12/27/2021 8:30:00 AM 5.48 41.864 0.894 7.63 162.5 11.72
12/27/2021 8:45:00 AM 5.48 41.864 0.895 7.63 170.5 11.75
12/27/2021 9:00:00 AM 5.47 41.846 0.896 7.63 162.3 11.8
12/27/2021 9:15:00 AM 5.46 41.828 0.897 7.62 169.3 11.87
12/27/2021 9:30:00 AM 5.47 41.846 0.898 7.6 155.3 11.95
12/27/2021 9:45:00 AM 5.48 41.864 0.899 7.6 154.3 12.08
12/27/2021 10:00:00 AM 5.5 41.9 0.899 7.6 161.5 12.28
12/27/2021 10:15:00 AM 5.51 41.918 0.9 7.59 160.2 12.41
12/27/2021 10:30:00 AM 5.52 41.936 0.901 7.59 166.8 12.49
12/27/2021 10:45:00 AM 5.52 41.936 0.901 7.6 434.2 12.46
12/27/2021 11:00:00 AM 5.52 41.936 0.902 7.59 158.1 12.49
12/27/2021 11:15:00 AM 5.52 41.936 0.903 7.6 154.4 12.43
12/27/2021 11:30:00 AM 5.42 41.756 0.904 7.63 152.1 12.55
12/27/2021 11:45:00 AM 5.35 41.63 0.903 7.65 164.2 12.69
12/27/2021 12:00:00 PM 5.27 41.486 0.902 7.66 157.6 12.85
12/27/2021 12:15:00 PM 5.18 41.324 0.902 7.68 156.7 12.93
12/27/2021 12:30:00 PM 5.13 41.234 0.899 7.67 150.2 13.04
12/27/2021 12:45:00 PM 5.16 41.288 0.898 7.67 159.3 13.22
12/27/2021 1:00:00 PM 5.19 41.342 0.898 7.67 162.7 13.35
12/27/2021 1:15:00 PM 5.23 41.414 0.898 7.67 169.4 13.47
12/27/2021 1:30:00 PM 5.25 41.45 0.897 7.67 161.2 13.54
12/27/2021 1:45:00 PM 5.27 41.486 0.896 7.67 149.9 13.67
12/27/2021 2:00:00 PM 5.27 41.486 0.895 7.67 152.8 13.76
12/27/2021 2:15:00 PM 5.29 41.522 0.894 7.67 155.5 13.87
12/27/2021 2:30:00 PM 5.31 41.558 0.893 7.68 1486 13.95
12/27/2021 2:45:00 PM 5.33 41.594 0.891 7.7 530 14.05
12/27/2021 3:00:00 PM 5.34 41.612 0.89 7.72 192.4 14.12
12/27/2021 3:15:00 PM 5.36 41.648 0.889 7.72 155.7 14.16
12/27/2021 3:30:00 PM 5.37 41.666 0.888 7.71 185.6 14.16
12/27/2021 3:45:00 PM 5.38 41.684 0.887 7.72 164.8 14.12
12/27/2021 4:00:00 PM 5.39 41.702 0.885 7.72 160.9 14.12
12/27/2021 4:15:00 PM 5.4 41.72 0.884 7.73 164.6 14.04
12/27/2021 4:30:00 PM 5.41 41.738 0.882 7.72 161.4 14.01
12/27/2021 4:45:00 PM 5.41 41.738 0.879 7.73 176.6 13.99
12/27/2021 5:00:00 PM 5.42 41.756 0.877 7.74 166 13.91
12/27/2021 5:15:00 PM 5.43 41.774 0.875 7.74 164.7 13.84
12/27/2021 5:30:00 PM 5.43 41.774 0.872 7.75 163.8 13.78
12/27/2021 5:45:00 PM 5.43 41.774 0.87 7.75 166.9 13.72
12/27/2021 6:00:00 PM 5.45 41.81 0.865 7.74 169.6 13.63
12/27/2021 6:15:00 PM 5.44 41.792 0.863 7.75 167 13.57
12/27/2021 6:30:00 PM 5.45 41.81 0.86 7.74 167.4 13.5
12/27/2021 6:45:00 PM 5.46 41.828 0.857 7.74 172.9 13.43
12/27/2021 7:00:00 PM 5.46 41.828 0.856 7.74 168.2 13.33
12/27/2021 7:15:00 PM 5.46 41.828 0.853 7.74 693.7 13.25
12/27/2021 7:30:00 PM 5.46 41.828 0.851 7.73 2239 13.17
12/27/2021 7:45:00 PM 5.47 41.846 0.849 7.73 2291 13.08
12/27/2021 8:00:00 PM 5.47 41.846 0.846 7.73 2198 13.01
12/27/2021 8:15:00 PM 5.46 41.828 0.844 7.73 2114 12.92
12/27/2021 8:30:00 PM 5.45 41.81 0.84 7.73 1023 12.86
12/27/2021 8:45:00 PM 5.45 41.81 0.834 7.72 2006 12.81
12/27/2021 9:00:00 PM 5.46 41.828 0.834 7.72 2162 12.74
12/27/2021 9:15:00 PM 5.47 41.846 0.834 7.71 2391 12.67
12/27/2021 9:30:00 PM 5.48 41.864 0.834 7.71 1927 12.61
12/27/2021 9:45:00 PM 5.48 41.864 0.834 7.7 2208 12.53
12/27/2021 10:00:00 PM 5.49 41.882 0.834 7.69 2627 12.48
12/27/2021 10:15:00 PM 5.5 41.9 0.834 7.69 2265 12.41
12/27/2021 10:30:00 PM 5.5 41.9 0.834 7.68 2339 12.4
12/27/2021 10:45:00 PM 5.49 41.882 0.835 7.68 546.7 12.36
12/27/2021 11:00:00 PM 5.51 41.918 0.835 7.67 2165 12.32
12/27/2021 11:15:00 PM 5.51 41.918 0.834 7.67 1852 12.26
12/27/2021 11:30:00 PM 5.52 41.936 0.834 7.67 1326 12.2
12/27/2021 11:45:00 PM 5.53 41.954 0.834 7.65 1288 12.16
12/28/2021 12:00:00 AM 5.54 41.972 0.728 7.64 1065 12.12
12/28/2021 12:15:00 AM 5.55 41.99 0.756 7.64 1162 12.08
12/28/2021 12:30:00 AM 5.55 41.99 0.836 7.63 1114 12.04
12/28/2021 12:45:00 AM 5.56 42.008 0.82 7.62 1352 12
12/28/2021 1:00:00 AM 5.56 42.008 0.826 7.62 1473 11.97
12/28/2021 1:15:00 AM 5.56 42.008 0.836 7.61 843 11.93
12/28/2021 1:30:00 AM 5.57 42.026 0.837 7.61 411.9 11.92
12/28/2021 1:45:00 AM 5.58 42.044 0.837 7.59 311.4 11.88
12/28/2021 2:00:00 AM 5.59 42.062 0.84 7.58 202.3 11.86
12/28/2021 2:15:00 AM 5.59 42.062 0.842 7.59 2029 11.83
12/28/2021 2:30:00 AM 5.6 42.08 0.844 7.6 185.9 11.82
12/28/2021 2:45:00 AM 5.6 42.08 0.846 7.6 1278 11.8
12/28/2021 3:00:00 AM 5.6 42.08 0.848 7.59 169.8 11.78
12/28/2021 3:15:00 AM 5.61 42.098 0.85 7.59 194.8 11.76
12/28/2021 3:30:00 AM 5.61 42.098 0.851 7.59 911.8 11.72
12/28/2021 3:45:00 AM 5.6 42.08 0.852 7.58 168.4 11.74
12/28/2021 4:00:00 AM 5.61 42.098 0.852 7.57 1840 11.72
12/28/2021 4:15:00 AM 5.6 42.08 0.852 7.57 1796 11.69
12/28/2021 4:30:00 AM 5.58 42.044 0.853 7.59 2143 11.7
12/28/2021 4:45:00 AM 5.55 41.99 0.854 7.61 2151 11.71
12/28/2021 5:00:00 AM 5.52 41.936 0.854 7.62 604.3 11.7
12/28/2021 5:15:00 AM 5.51 41.918 0.854 7.62 718.9 11.7
12/28/2021 5:30:00 AM 5.47 41.846 0.854 7.62 792.4 11.73
12/28/2021 5:45:00 AM 5.44 41.792 0.854 7.63 887.6 11.74
12/28/2021 6:00:00 AM 5.43 41.774 0.854 7.63 871.9 11.73
12/28/2021 6:15:00 AM 5.4 41.72 0.854 7.64 940.8 11.75
12/28/2021 6:30:00 AM 5.39 41.702 0.851 7.63 1195 11.76
12/28/2021 6:45:00 AM 5.38 41.684 0.853 7.63 1549 11.78
12/28/2021 7:00:00 AM 5.36 41.648 0.853 7.63 1413 11.78
12/28/2021 7:15:00 AM 5.35 41.63 0.853 7.63 1429 11.79
12/28/2021 7:30:00 AM 5.33 41.594 0.853 7.62 1552 11.8
12/28/2021 7:45:00 AM 5.32 41.576 0.852 7.62 1471 11.83
12/28/2021 8:00:00 AM 5.31 41.558 0.852 7.62 1204 11.87
12/28/2021 8:15:00 AM 5.31 41.558 0.852 7.62 1525 11.9
12/28/2021 8:30:00 AM 5.3 41.54 0.852 7.61 1601 11.97
12/28/2021 8:45:00 AM 5.3 41.54 0.852 7.61 1142 12.04
12/28/2021 9:00:00 AM 5.3 41.54 0.852 7.61 856.8 12.16
12/28/2021 9:15:00 AM 5.29 41.522 0.852 7.61 1717 12.22
12/28/2021 9:30:00 AM 5.28 41.504 0.851 7.6 1726 12.31
12/28/2021 9:45:00 AM 5.28 41.504 0.851 7.59 1749 12.42
12/28/2021 10:00:00 AM 5.29 41.522 0.851 7.58 1443 12.53
12/28/2021 10:15:00 AM 5.31 41.558 0.85 7.58 1471 12.63
12/28/2021 10:30:00 AM 5.31 41.558 0.85 7.57 1872 12.75
12/28/2021 10:45:00 AM 5.34 41.612 0.849 7.56 1857 12.83
12/28/2021 11:00:00 AM 5.34 41.612 0.849 7.55 1667 12.97
12/28/2021 11:15:00 AM 5.37 41.666 0.848 7.54 1656 13.07
12/28/2021 11:30:00 AM 5.38 41.684 0.848 7.51 2010 13.16
12/28/2021 11:45:00 AM 5.39 41.702 0.848 7.52 1748 13.21
12/28/2021 12:00:00 PM 5.4 41.72 0.847 7.53 810.7 13.27
12/28/2021 12:15:00 PM 5.41 41.738 0.847 7.51 564.8 13.33
12/28/2021 12:30:00 PM 5.42 41.756 0.846 7.5 423.7 13.45
12/28/2021 12:45:00 PM 5.44 41.792 0.845 7.48 759.4 13.48
12/28/2021 1:00:00 PM 5.45 41.81 0.845 7.46 162 13.55
12/28/2021 1:15:00 PM 5.46 41.828 0.845 7.45 155.5 13.58
12/28/2021 1:30:00 PM 5.48 41.864 0.844 7.44 591.5 13.64
12/28/2021 1:45:00 PM 5.5 41.9 0.843 7.41 144.6 13.7
12/28/2021 2:00:00 PM 5.52 41.936 0.844 7.4 198.2 13.77
12/28/2021 2:15:00 PM 5.55 41.99 0.843 7.39 583.1 13.87
12/28/2021 2:30:00 PM 5.57 42.026 0.842 7.38 150.1 13.92
12/28/2021 2:45:00 PM 5.58 42.044 0.841 7.39 136.7 13.95
12/28/2021 3:00:00 PM 5.59 42.062 0.84 7.37 135.2 13.89
12/28/2021 3:15:00 PM 5.6 42.08 0.84 7.38 154.1 13.85
12/28/2021 3:30:00 PM 5.62 42.116 0.839 7.39 138.7 13.81
12/28/2021 3:45:00 PM 5.63 42.134 0.837 7.36 143.2 13.78
12/28/2021 4:00:00 PM 5.65 42.17 0.836 7.34 153.4 13.79
12/28/2021 4:15:00 PM 5.66 42.188 0.835 7.36 151.1 13.77
12/28/2021 4:30:00 PM 5.67 42.206 0.834 7.36 1513 13.69
12/28/2021 4:45:00 PM 5.68 42.224 0.833 7.38 133.1 13.63
12/28/2021 5:00:00 PM 5.69 42.242 0.832 7.39 1171 13.57
12/28/2021 5:15:00 PM 5.69 42.242 0.794 7.4 118.3 13.53
12/28/2021 5:30:00 PM 5.69 42.242 0.829 7.4 1309 13.44
12/28/2021 5:45:00 PM 5.7 42.26 0.815 7.42 1303 13.38
12/28/2021 6:00:00 PM 5.71 42.278 0.796 7.41 2083 13.3
12/28/2021 6:15:00 PM 5.72 42.296 0.821 7.4 118.5 13.22
12/28/2021 6:30:00 PM 5.74 42.332 0.825 7.41 116.9 13.19
12/28/2021 6:45:00 PM 5.75 42.35 0.823 7.41 118.7 13.1
12/28/2021 7:00:00 PM 5.76 42.368 0.822 7.4 123.5 13.04
12/28/2021 7:15:00 PM 5.77 42.386 0.821 7.4 117 12.96
12/28/2021 7:30:00 PM 5.78 42.404 0.82 7.41 1704 12.88
12/28/2021 7:45:00 PM 5.79 42.422 0.818 7.4 129.4 12.81
12/28/2021 8:00:00 PM 5.8 42.44 0.817 7.41 1401 12.74
12/28/2021 8:15:00 PM 5.8 42.44 0.816 7.4 118.4 12.68
12/28/2021 8:30:00 PM 5.81 42.458 0.815 7.4 114.9 12.61
12/28/2021 8:45:00 PM 5.82 42.476 0.814 7.39 113.3 12.53
12/28/2021 9:00:00 PM 5.83 42.494 0.814 7.39 105.6 12.5
12/28/2021 9:15:00 PM 5.84 42.512 0.813 7.38 537.8 12.43
12/28/2021 9:30:00 PM 5.86 42.548 0.813 7.38 1096 12.37
12/28/2021 9:45:00 PM 5.87 42.566 0.811 7.39 2270 12.33
12/28/2021 10:00:00 PM 5.88 42.584 0.769 7.38 2735 12.28
12/28/2021 10:15:00 PM 5.89 42.602 0.779 7.37 2600 12.2
12/28/2021 10:30:00 PM 5.89 42.602 0.685 7.37 2676 12.18
12/28/2021 10:45:00 PM 5.9 42.62 0.805 7.37 2167 12.13
12/28/2021 11:00:00 PM 5.91 42.638 0.811 7.37 2114 12.09
12/28/2021 11:15:00 PM 5.91 42.638 0.806 7.37 1737 12.05
12/28/2021 11:30:00 PM 5.92 42.656 0.811 7.37 1469 12.03
12/28/2021 11:45:00 PM 5.92 42.656 0.811 7.37 1753 11.99
12/29/2021 12:00:00 AM 5.93 42.674 0.81 7.36 1983 11.96
12/29/2021 12:15:00 AM 5.94 42.692 0.811 7.35 2168 11.93
12/29/2021 12:30:00 AM 5.94 42.692 0.811 7.35 1046 11.89
12/29/2021 12:45:00 AM 5.95 42.71 0.811 7.35 2659 11.87
12/29/2021 1:00:00 AM 5.95 42.71 0.811 7.34 1379 11.84
12/29/2021 1:15:00 AM 5.95 42.71 0.811 7.34 1012 11.82
12/29/2021 1:30:00 AM 5.95 42.71 0.811 7.34 865.4 11.78
12/29/2021 1:45:00 AM 5.96 42.728 0.812 7.35 800.9 11.75
12/29/2021 2:00:00 AM 5.96 42.728 0.812 7.36 1077 11.73
12/29/2021 2:15:00 AM 5.96 42.728 0.812 7.35 909 11.74
12/29/2021 2:30:00 AM 5.96 42.728 0.812 7.35 947.5 11.7
12/29/2021 2:45:00 AM 5.96 42.728 0.812 7.34 898.1 11.71
12/29/2021 3:00:00 AM 5.97 42.746 0.813 7.33 1007 11.68
12/29/2021 3:15:00 AM 5.97 42.746 0.813 7.32 1888 11.67
12/29/2021 3:30:00 AM 5.97 42.746 0.814 7.32 781.7 11.65
12/29/2021 3:45:00 AM 5.97 42.746 0.814 7.31 390.4 11.64
12/29/2021 4:00:00 AM 5.97 42.746 0.814 7.31 319.3 11.61
12/29/2021 4:15:00 AM 5.96 42.728 0.815 7.3 441.1 11.62
12/29/2021 4:30:00 AM 5.97 42.746 0.815 7.3 428.1 11.61
12/29/2021 4:45:00 AM 5.98 42.764 0.815 7.31 421.7 11.6
12/29/2021 5:00:00 AM 5.98 42.764 0.815 7.31 495.1 11.63
12/29/2021 5:15:00 AM 5.98 42.764 0.815 7.31 1868 11.61
12/29/2021 5:30:00 AM 5.98 42.764 0.816 7.31 642.1 11.62
12/29/2021 5:45:00 AM 5.98 42.764 0.816 7.3 665.6 11.6
12/29/2021 6:00:00 AM 5.98 42.764 0.816 7.29 567.3 11.6
12/29/2021 6:15:00 AM 5.98 42.764 0.816 7.28 1814 11.61
12/29/2021 6:30:00 AM 5.98 42.764 0.816 7.29 117.3 11.58
12/29/2021 6:45:00 AM 5.98 42.764 0.816 7.29 116.5 11.58
12/29/2021 7:00:00 AM 5.98 42.764 0.817 7.3 133.8 11.57
12/29/2021 7:15:00 AM 5.98 42.764 0.817 7.29 113.2 11.59
12/29/2021 7:30:00 AM 5.98 42.764 0.816 7.3 116.5 11.59
12/29/2021 7:45:00 AM 5.98 42.764 0.817 7.3 124.8 11.59
12/29/2021 8:00:00 AM 5.98 42.764 0.817 7.29 117.4 11.6
12/29/2021 8:15:00 AM 5.99 42.782 0.816 7.29 117.3 11.63
12/29/2021 8:30:00 AM 6.01 42.818 0.816 7.27 119.2 11.66
12/29/2021 8:45:00 AM 6.02 42.836 0.816 7.26 119.6 11.73
12/29/2021 9:00:00 AM 6.05 42.89 0.815 7.24 110.7 11.82
12/29/2021 9:15:00 AM 6.07 42.926 0.815 7.21 653 11.92
12/29/2021 9:30:00 AM 6.08 42.944 0.815 7.2 117 12.01
12/29/2021 9:45:00 AM 6.1 42.98 0.815 7.19 131.8 12.03
12/29/2021 10:00:00 AM 6.12 43.016 0.814 7.17 115 12.08
12/29/2021 10:15:00 AM 6.14 43.052 0.814 7.16 119.5 12.19
12/29/2021 10:30:00 AM 6.18 43.124 0.813 7.13 112 12.33
12/29/2021 10:45:00 AM 6.21 43.178 0.813 7.1 125 12.49
12/29/2021 11:00:00 AM 6.25 43.25 0.812 7.1 119.6 12.59
12/29/2021 11:15:00 AM 6.31 43.358 0.812 7.07 2166 12.77
12/29/2021 11:30:00 AM 6.38 43.484 0.811 7.06 119.4 13.01
12/29/2021 11:45:00 AM 6.44 43.592 0.81 7.06 138.8 13.23
12/29/2021 12:00:00 PM 6.47 43.646 0.81 7.07 121.2 13.3
12/29/2021 12:15:00 PM 6.52 43.736 0.809 7.07 116 13.37
12/29/2021 12:30:00 PM 6.61 43.898 0.808 7.07 112.7 13.55
12/29/2021 12:45:00 PM 6.72 44.096 0.807 7.06 120.2 13.77
12/29/2021 1:00:00 PM 6.81 44.258 0.806 7.07 114.1 13.96
12/29/2021 1:15:00 PM 6.87 44.366 0.806 7.09 116.1 14.12
12/29/2021 1:30:00 PM 6.89 44.402 0.806 7.1 124 14.2
12/29/2021 1:45:00 PM 6.93 44.474 0.805 7.11 116.1 14.31
12/29/2021 2:00:00 PM 6.96 44.528 0.804 7.12 115.3 14.4
12/29/2021 2:15:00 PM 6.98 44.564 0.804 7.12 118.6 14.45
12/29/2021 2:30:00 PM 7 44.6 0.803 7.13 114.4 14.49
12/29/2021 2:45:00 PM 7.02 44.636 0.803 7.11 126.9 14.53
12/29/2021 3:00:00 PM 7.02 44.636 0.802 7.11 108.5 14.57
12/29/2021 3:15:00 PM 7.04 44.672 0.802 7.11 119.6 14.57
12/29/2021 3:30:00 PM 7.06 44.708 0.801 7.12 122.1 14.62
12/29/2021 3:45:00 PM 7.09 44.762 0.8 7.12 115.2 14.69
12/29/2021 4:00:00 PM 7.12 44.816 0.799 7.13 124.2 14.69
12/29/2021 4:15:00 PM 7.14 44.852 0.798 7.14 157.7 14.66
12/29/2021 4:30:00 PM 7.14 44.852 0.798 7.14 189.3 14.57
12/29/2021 4:45:00 PM 7.15 44.87 0.797 7.14 112.1 14.47
12/29/2021 5:00:00 PM 7.15 44.87 0.797 7.18 109.9 14.34
12/29/2021 5:15:00 PM 7.15 44.87 0.796 7.2 117 14.27
12/29/2021 5:30:00 PM 7.15 44.87 0.796 7.21 110.6 14.18
12/29/2021 5:45:00 PM 7.16 44.888 0.795 7.22 113.8 14.05
12/29/2021 6:00:00 PM 7.16 44.888 0.795 4.27 107.5 13.99
12/29/2021 6:15:00 PM 7.15 44.87 0.794 3.91 107.8 13.88
12/29/2021 6:30:00 PM 7.14 44.852 0.794 4.08 114.4 13.78
12/29/2021 6:45:00 PM 7.13 44.834 0.794 3.34 112.5 13.66
12/29/2021 7:00:00 PM 7.12 44.816 0.793 4.27 119.2 13.54
12/29/2021 7:15:00 PM 7.11 44.798 0.793 4.38 114.4 13.39
12/29/2021 7:30:00 PM 7.09 44.762 0.793 4.39 111.1 13.31
12/29/2021 7:45:00 PM 7.08 44.744 0.793 4.45 115.7 13.19
12/29/2021 8:00:00 PM 7.07 44.726 0.793 4.64 111.3 13.07
12/29/2021 8:15:00 PM 7.07 44.726 0.793 4.77 114.4 13
12/29/2021 8:30:00 PM 7.06 44.708 0.793 4.23 113.9 12.88
12/29/2021 8:45:00 PM 7.06 44.708 0.793 4.2 121.7 12.78
12/29/2021 9:00:00 PM 7.05 44.69 0.793 4.36 119.2 12.67
12/29/2021 9:15:00 PM 7.05 44.69 0.793 4.4 672 12.58
12/29/2021 9:30:00 PM 7.05 44.69 0.793 4.44 121.2 12.48
12/29/2021 9:45:00 PM 7.04 44.672 0.794 4.51 119.7 12.41
12/29/2021 10:00:00 PM 7.04 44.672 0.794 4.56 115.4 12.32
12/29/2021 10:15:00 PM 7.04 44.672 0.795 4.7 123.4 12.26
12/29/2021 10:30:00 PM 7.03 44.654 0.796 4.78 116.4 12.17
12/29/2021 10:45:00 PM 7.03 44.654 0.797 4.8 116.8 12.11
12/29/2021 11:00:00 PM 7.03 44.654 0.797 4.65 111.2 12.06
12/29/2021 11:15:00 PM 7.03 44.654 0.798 4.8 108.8 12.02
12/29/2021 11:30:00 PM 7.03 44.654 0.799 4.81 120.5 11.93
12/29/2021 11:45:00 PM 7.03 44.654 0.801 4.72 119.5 11.9
12/30/2021 12:00:00 AM 7.03 44.654 0.801 4.73 121.1 11.84
12/30/2021 12:15:00 AM 7.03 44.654 0.802 4.72 483.7 11.78
12/30/2021 12:30:00 AM 7.03 44.654 0.802 4.81 113.7 11.73
12/30/2021 12:45:00 AM 7.02 44.636 0.803 4.89 112.7 11.72
12/30/2021 1:00:00 AM 7.02 44.636 0.804 4.95 108.6 11.68
12/30/2021 1:15:00 AM 7.02 44.636 0.805 4.94 117.7 11.65
12/30/2021 1:30:00 AM 7.01 44.618 0.806 4.92 112.8 11.6
12/30/2021 1:45:00 AM 7.01 44.618 0.806 4.94 110.8 11.6
12/30/2021 2:00:00 AM 7 44.6 0.806 4.98 122.6 11.55
12/30/2021 2:15:00 AM 7 44.6 0.807 5.03 116.7 11.51
12/30/2021 2:30:00 AM 7 44.6 0.762 5.11 904.2 11.49
12/30/2021 2:45:00 AM 6.99 44.582 0.809 5.18 306 11.45
12/30/2021 3:00:00 AM 6.99 44.582 0.81 5.22 122.4 11.43
12/30/2021 3:15:00 AM 6.98 44.564 0.811 5.25 119.5 11.39
12/30/2021 3:30:00 AM 6.98 44.564 0.813 5.26 123 11.39
12/30/2021 3:45:00 AM 6.97 44.546 0.814 5.3 122.9 11.36
12/30/2021 4:00:00 AM 6.97 44.546 0.815 5.35 119.2 11.34
12/30/2021 4:15:00 AM 6.97 44.546 0.817 5.36 117.8 11.3
12/30/2021 4:30:00 AM 6.97 44.546 0.818 5.38 117.7 11.31
12/30/2021 4:45:00 AM 6.97 44.546 0.819 5.19 120.6 11.3
12/30/2021 5:00:00 AM 6.97 44.546 0.821 5.32 140.8 11.28
12/30/2021 5:15:00 AM 6.97 44.546 0.823 5.38 119.2 11.27
12/30/2021 5:30:00 AM 6.97 44.546 0.824 5.4 779.5 11.25
12/30/2021 5:45:00 AM 6.98 44.564 0.825 5.4 549.3 11.26
12/30/2021 6:00:00 AM 6.98 44.564 0.826 5.44 617.7 11.25
12/30/2021 6:15:00 AM 6.99 44.582 0.827 5.47 112.7 11.22
12/30/2021 6:30:00 AM 6.98 44.564 0.829 5.46 893.3 11.23
12/30/2021 6:45:00 AM 6.99 44.582 0.829 5.47 116 11.23
12/30/2021 7:00:00 AM 7 44.6 0.83 5.52 115.6 11.24
12/30/2021 7:15:00 AM 7 44.6 0.831 5.54 126.4 11.25
12/30/2021 7:30:00 AM 7.01 44.618 0.831 5.58 131.1 11.25
12/30/2021 7:45:00 AM 7.02 44.636 0.833 5.63 139.1 11.24
12/30/2021 8:00:00 AM 7.03 44.654 0.833 5.65 656.9 11.24
12/30/2021 8:15:00 AM 7.05 44.69 0.833 5.61 122.5 11.26
12/30/2021 8:30:00 AM 7.07 44.726 0.833 5.62 127.6 11.33
12/30/2021 8:45:00 AM 7.1 44.78 0.833 5.5 133.4 11.4
12/30/2021 9:00:00 AM 7.12 44.816 0.833 5.57 127.7 11.51
12/30/2021 9:15:00 AM 7.16 44.888 0.833 5.63 129.2 11.6
12/30/2021 9:30:00 AM 7.2 44.96 0.833 5.65 120.1 11.7
12/30/2021 9:45:00 AM 7.23 45.014 0.833 5.7 123 11.8
12/30/2021 10:00:00 AM 7.27 45.086 0.833 5.73 122.1 11.94
12/30/2021 10:15:00 AM 7.31 45.158 0.834 5.75 117.2 12.04
12/30/2021 10:30:00 AM 7.34 45.212 0.834 5.76 113.3 12.13
12/30/2021 10:45:00 AM 7.38 45.284 0.835 5.77 123.1 12.25
12/30/2021 11:00:00 AM 7.43 45.374 0.835 5.7 118.6 12.41
12/30/2021 11:15:00 AM 7.47 45.446 0.836 5.75 129.6 12.52
12/30/2021 11:30:00 AM 7.51 45.518 0.837 5.7 120.2 12.66
12/30/2021 11:45:00 AM 7.54 45.572 0.838 5.71 113.3 12.74
12/30/2021 12:00:00 PM 7.6 45.68 0.839 5.72 121.5 12.83
12/30/2021 12:15:00 PM 7.65 45.77 0.84 5.69 121.1 13
12/30/2021 12:30:00 PM 7.73 45.914 0.84 5.76 121.3 13.2
12/30/2021 12:45:00 PM 7.79 46.022 0.842 5.82 119.4 13.3
12/30/2021 1:00:00 PM 7.85 46.13 0.843 5.84 123.6 13.48
12/30/2021 1:15:00 PM 7.88 46.184 0.844 5.88 123.6 13.53
12/30/2021 1:30:00 PM 7.93 46.274 0.846 5.89 123.8 13.59
12/30/2021 1:45:00 PM 7.98 46.364 0.847 5.92 125.3 13.65
12/30/2021 2:00:00 PM 8 46.4 0.848 5.94 121.1 13.69
12/30/2021 2:15:00 PM 8.04 46.472 0.849 5.91 123.3 13.74
12/30/2021 2:30:00 PM 8.08 46.544 0.85 5.92 123.8 13.75
12/30/2021 2:45:00 PM 8.11 46.598 0.852 5.98 126.6 13.75
12/30/2021 3:00:00 PM 8.13 46.634 0.853 5.94 119.8 13.74
12/30/2021 3:15:00 PM 8.15 46.67 0.854 5.89 124.6 13.67
12/30/2021 3:30:00 PM 8.16 46.688 0.854 5.88 133.2 13.6
12/30/2021 3:45:00 PM 8.2 46.76 0.855 5.86 128.5 13.59
12/30/2021 4:00:00 PM 8.21 46.778 0.855 5.9 127.6 13.56
12/30/2021 4:15:00 PM 8.23 46.814 0.856 5.97 126.5 13.53
12/30/2021 4:30:00 PM 8.24 46.832 0.856 6 502.8 13.43
12/30/2021 4:45:00 PM 8.26 46.868 0.856 6.01 136.1 13.27
12/30/2021 5:00:00 PM 8.27 46.886 0.857 6 137.3 13.19
12/30/2021 5:15:00 PM 8.27 46.886 0.858 5.96 141.7 13.09
12/30/2021 5:30:00 PM 8.28 46.904 0.858 5.99 126.9 12.95
12/30/2021 5:45:00 PM 8.29 46.922 0.859 6.03 131.3 12.89
12/30/2021 6:00:00 PM 8.31 46.958 0.86 6.05 3045 12.76
12/30/2021 6:15:00 PM 8.32 46.976 0.861 5.98 134.4 12.67
12/30/2021 6:30:00 PM 8.33 46.994 0.862 5.99 328.2 12.58
12/30/2021 6:45:00 PM 8.34 47.012 0.863 6.01 955.9 12.45
12/30/2021 7:00:00 PM 8.35 47.03 0.863 6.03 1100 12.35
12/30/2021 7:15:00 PM 8.36 47.048 0.865 5.94 1422 12.26
12/30/2021 7:30:00 PM 8.37 47.066 0.866 5.91 1215 12.13
12/30/2021 7:45:00 PM 8.38 47.084 0.867 5.85 1668 12.07
12/30/2021 8:00:00 PM 8.39 47.102 0.868 5.87 151.8 11.94
12/30/2021 8:15:00 PM 8.41 47.138 0.869 5.91 131.7 11.87
12/30/2021 8:30:00 PM 8.41 47.138 0.87 5.89 131.1 11.77
12/30/2021 8:45:00 PM 8.42 47.156 0.87 5.89 587.5 11.7
12/30/2021 9:00:00 PM 8.43 47.174 0.871 5.88 922.6 11.61
12/30/2021 9:15:00 PM 8.44 47.192 0.872 5.9 886.9 11.53
12/30/2021 9:30:00 PM 8.45 47.21 0.872 5.86 806.4 11.46
12/30/2021 9:45:00 PM 8.46 47.228 0.873 5.84 2193 11.4
12/30/2021 10:00:00 PM 8.47 47.246 0.873 5.81 784 11.34
12/30/2021 10:15:00 PM 8.48 47.264 0.874 5.81 2345 11.26
12/30/2021 10:30:00 PM 8.48 47.264 0.875 5.57 1831 11.21
12/30/2021 10:45:00 PM 8.5 47.3 0.876 5.42 1593 11.18
12/30/2021 11:00:00 PM 8.5 47.3 0.877 5.6 2734 11.08
12/30/2021 11:15:00 PM 8.5 47.3 0.878 5.69 145.9 11.01
12/30/2021 11:30:00 PM 8.51 47.318 0.879 5.67 142.7 10.99
12/30/2021 11:45:00 PM 8.51 47.318 0.88 5.64 143.5 10.95
12/31/2021 12:00:00 AM 8.51 47.318 0.881 5.67 146.8 10.93
12/31/2021 12:15:00 AM 8.51 47.318 0.883 5.65 804.5 10.84
12/31/2021 12:30:00 AM 8.52 47.336 0.884 5.65 144.6 10.8
12/31/2021 12:45:00 AM 8.52 47.336 0.885 5.68 638.2 10.77
12/31/2021 1:00:00 AM 8.52 47.336 0.887 5.7 140.4 10.76
12/31/2021 1:15:00 AM 8.52 47.336 0.888 5.68 1541 10.72
12/31/2021 1:30:00 AM 8.5 47.3 0.889 5.67 637.4 10.71
12/31/2021 1:45:00 AM 8.48 47.264 0.891 4.3 698.1 10.68
12/31/2021 2:00:00 AM 8.45 47.21 0.892 5.14 791.6 10.66
12/31/2021 2:15:00 AM 8.42 47.156 0.893 5.35 913.8 10.65
12/31/2021 2:30:00 AM 8.38 47.084 0.895 5.22 1051 10.66
12/31/2021 2:45:00 AM 8.35 47.03 0.896 4.48 185.3 10.65
12/31/2021 3:00:00 AM 8.32 46.976 0.897 4.53 146.4 10.61
12/31/2021 3:15:00 AM 8.31 46.958 0.897 4.59 164.5 10.67
12/31/2021 3:30:00 AM 8.29 46.922 0.898 4.69 1924 10.62
12/31/2021 3:45:00 AM 8.29 46.922 0.899 4.82 142.7 10.64
12/31/2021 4:00:00 AM 8.28 46.904 0.899 4.93 4103 10.58
12/31/2021 4:15:00 AM 8.27 46.886 0.9 5.05 149.5 10.6
12/31/2021 4:30:00 AM 8.26 46.868 0.901 5.18 147.7 10.6
12/31/2021 4:45:00 AM 8.26 46.868 0.901 5.27 685 10.57
12/31/2021 5:00:00 AM 8.25 46.85 0.902 5.36 803.4 10.62
12/31/2021 5:15:00 AM 8.25 46.85 0.903 5.43 152.4 10.58
12/31/2021 5:30:00 AM 8.24 46.832 0.904 5.48 155.1 10.61
12/31/2021 5:45:00 AM 8.24 46.832 0.904 5.53 149.7 10.62
12/31/2021 6:00:00 AM 8.23 46.814 0.904 5.57 140.9 10.63
12/31/2021 6:15:00 AM 8.23 46.814 0.872 5.61 160.1 10.61
12/31/2021 6:30:00 AM 8.23 46.814 0.902 5.64 156.7 10.62
12/31/2021 6:45:00 AM 8.22 46.796 0.847 5.67 151.9 10.61
12/31/2021 7:00:00 AM 8.22 46.796 0.907 5.7 142.8 10.64
12/31/2021 7:15:00 AM 8.22 46.796 0.907 5.72 147 10.58
12/31/2021 7:30:00 AM 8.22 46.796 0.907 5.75 149.1 10.63
12/31/2021 7:45:00 AM 8.22 46.796 0.907 5.77 1912 10.63
12/31/2021 8:00:00 AM 8.22 46.796 0.907 5.8 151 10.59
12/31/2021 8:15:00 AM 8.23 46.814 0.907 5.81 148.9 10.65
12/31/2021 8:30:00 AM 8.24 46.832 0.907 5.82 145.5 10.67
12/31/2021 8:45:00 AM 8.25 46.85 0.907 5.84 148.3 10.75
12/31/2021 9:00:00 AM 8.27 46.886 0.907 5.86 147.5 10.79
12/31/2021 9:15:00 AM 8.28 46.904 0.907 5.86 163 10.88
12/31/2021 9:30:00 AM 8.3 46.94 0.907 5.87 152.7 10.93
12/31/2021 9:45:00 AM 8.32 46.976 0.906 5.88 156.4 11.02
12/31/2021 10:00:00 AM 8.33 46.994 0.906 5.89 152.8 11.02
12/31/2021 10:15:00 AM 8.35 47.03 0.906 5.9 141.7 11.13
12/31/2021 10:30:00 AM 8.36 47.048 0.905 5.92 146.1 11.18
12/31/2021 10:45:00 AM 8.38 47.084 0.905 5.93 158.6 11.25
12/31/2021 11:00:00 AM 8.41 47.138 0.905 5.95 159.5 11.26
12/31/2021 11:15:00 AM 8.44 47.192 0.904 5.97 155.4 11.36
12/31/2021 11:30:00 AM 8.47 47.246 0.904 5.97 155.4 11.45
12/31/2021 11:45:00 AM 8.49 47.282 0.903 5.99 154.4 11.54
12/31/2021 12:00:00 PM 8.53 47.354 0.902 5.99 438.5 11.62
12/31/2021 12:15:00 PM 8.56 47.408 0.903 6 1024 11.75
12/31/2021 12:30:00 PM 8.59 47.462 0.902 6.03 315.4 11.87
12/31/2021 12:45:00 PM 8.64 47.552 0.901 6.03 223.6 11.97
12/31/2021 1:00:00 PM 8.67 47.606 0.901 6.07 236.3 12.06
12/31/2021 1:15:00 PM 8.7 47.66 0.9 6.09 185.5 12.12
12/31/2021 1:30:00 PM 8.74 47.732 0.9 6.1 180.8 12.18
12/31/2021 1:45:00 PM 8.76 47.768 0.9 6.11 155.2 12.26
12/31/2021 2:00:00 PM 8.79 47.822 0.899 6.13 1610 12.3
12/31/2021 2:15:00 PM 8.82 47.876 0.899 6.15 173.9 12.38
12/31/2021 2:30:00 PM 8.85 47.93 0.899 6.16 157.9 12.42
12/31/2021 2:45:00 PM 8.88 47.984 0.899 6.15 159.2 12.41
12/31/2021 3:00:00 PM 8.91 48.038 0.899 6.17 157.6 12.45
12/31/2021 3:15:00 PM 8.94 48.092 0.899 6.18 156.1 12.45
12/31/2021 3:30:00 PM 8.96 48.128 0.899 6.19 158.4 12.46
12/31/2021 3:45:00 PM 9 48.2 0.898 6.19 160 12.52
12/31/2021 4:00:00 PM 9.03 48.254 0.899 6.2 157.7 12.55
12/31/2021 4:15:00 PM 9.05 48.29 0.899 6.22 564.3 12.62
12/31/2021 4:30:00 PM 9.06 48.308 0.899 6.23 155.4 12.51
12/31/2021 4:45:00 PM 9.08 48.344 0.899 6.24 3108 12.44
12/31/2021 5:00:00 PM 9.09 48.362 0.9 6.25 164.7 12.33
12/31/2021 5:15:00 PM 9.09 48.362 0.901 6.24 145.8 12.19
12/31/2021 5:30:00 PM 9.11 48.398 0.901 6.25 147.1 12.14
12/31/2021 5:45:00 PM 9.12 48.416 0.901 6.25 1707 12.07
12/31/2021 6:00:00 PM 9.13 48.434 0.901 6.23 157.7 12.01
12/31/2021 6:15:00 PM 9.14 48.452 0.902 6.21 162.8 11.91
12/31/2021 6:30:00 PM 9.15 48.47 0.902 6.2 1032 11.86
12/31/2021 6:45:00 PM 9.16 48.488 0.903 6.21 163.4 11.79
12/31/2021 7:00:00 PM 9.17 48.506 0.903 6.21 166.7 11.69
12/31/2021 7:15:00 PM 9.18 48.524 0.903 6.21 167.3 11.59
12/31/2021 7:30:00 PM 9.19 48.542 0.905 6.22 189.2 11.52
12/31/2021 7:45:00 PM 9.2 48.56 0.905 6.22 2825 11.43
12/31/2021 8:00:00 PM 9.21 48.578 0.906 6.22 182.6 11.41
12/31/2021 8:15:00 PM 9.22 48.596 0.906 6.23 165.3 11.3
12/31/2021 8:30:00 PM 9.23 48.614 0.907 6.2 167.1 11.24
12/31/2021 8:45:00 PM 9.24 48.632 0.907 6.2 170.4 11.18
12/31/2021 9:00:00 PM 9.25 48.65 0.908 6.22 172.9 11.09
12/31/2021 9:15:00 PM 9.27 48.686 0.909 6.19 174.9 11.07
12/31/2021 9:30:00 PM 9.27 48.686 0.91 6.23 177.3 10.96
12/31/2021 9:45:00 PM 9.28 48.704 0.91 6.21 164.3 10.93
12/31/2021 10:00:00 PM 9.28 48.704 0.911 6.21 167.8 10.87
12/31/2021 10:15:00 PM 9.3 48.74 0.912 6.21 179.8 10.83
12/31/2021 10:30:00 PM 9.31 48.758 0.912 6.22 1603 10.81
12/31/2021 10:45:00 PM 9.32 48.776 0.913 6.21 188.8 10.72
12/31/2021 11:00:00 PM 9.32 48.776 0.914 6.2 771.2 10.66
12/31/2021 11:15:00 PM 9.33 48.794 0.914 6.2 807.6 10.61
12/31/2021 11:30:00 PM 9.33 48.794 0.915 6.19 798.8 10.61
12/31/2021 11:45:00 PM 9.34 48.812 0.916 6.19 1706 10.55
1/1/2022 12:00:00 AM 9.35 48.83 0.917 6.19 167.4 10.55
1/1/2022 12:15:00 AM 9.35 48.83 0.917 6.2 1191 10.53
1/1/2022 12:30:00 AM 9.35 48.83 0.918 6.2 715.8 10.46
1/1/2022 12:45:00 AM 9.35 48.83 0.918 6.2 1963 10.44
1/1/2022 1:00:00 AM 9.36 48.848 0.919 6.21 204.9 10.43
1/1/2022 1:15:00 AM 9.36 48.848 0.919 6.19 174.4 10.41
1/1/2022 1:30:00 AM 9.36 48.848 0.919 6.2 177.9 10.38
1/1/2022 1:45:00 AM 9.36 48.848 0.92 6.18 469.2 10.31
1/1/2022 2:00:00 AM 9.36 48.848 0.92 6.18 174 10.32
1/1/2022 2:15:00 AM 9.37 48.866 0.921 6.18 163.6 10.29
1/1/2022 2:30:00 AM 9.37 48.866 0.921 6.18 173.1 10.28
1/1/2022 2:45:00 AM 9.37 48.866 0.922 6.19 170.5 10.24
1/1/2022 3:00:00 AM 9.37 48.866 0.921 6.18 169.1 10.26
1/1/2022 3:15:00 AM 9.36 48.848 0.922 6.18 180.8 10.23
1/1/2022 3:30:00 AM 9.36 48.848 0.922 6.17 177.7 10.25
1/1/2022 3:45:00 AM 9.37 48.866 0.922 6.17 3590 10.21
1/1/2022 4:00:00 AM 9.36 48.848 0.922 6.18 174.4 10.18
1/1/2022 4:15:00 AM 9.36 48.848 0.922 6.16 175.2 10.23
1/1/2022 4:30:00 AM 9.36 48.848 0.922 6.17 177.3 10.17
1/1/2022 4:45:00 AM 9.36 48.848 0.922 6.18 172.3 10.2
1/1/2022 5:00:00 AM 9.36 48.848 0.921 6.16 171 10.2
1/1/2022 5:15:00 AM 9.36 48.848 0.921 6.16 176.3 10.16
1/1/2022 5:30:00 AM 9.36 48.848 0.921 6.15 165.7 10.13
1/1/2022 5:45:00 AM 9.36 48.848 0.921 6.16 158.2 10.11
1/1/2022 6:00:00 AM 9.36 48.848 0.921 6.16 166.7 10.17
1/1/2022 6:15:00 AM 9.36 48.848 0.921 6.16 173.1 10.15
1/1/2022 6:30:00 AM 9.36 48.848 0.921 6.16 147.4 10.13
1/1/2022 6:45:00 AM 9.37 48.866 0.92 6.14 169.4 10.15
1/1/2022 7:00:00 AM 9.37 48.866 0.92 6.16 170.7 10.14
1/1/2022 7:15:00 AM 9.38 48.884 0.92 6.17 166.4 10.15
1/1/2022 7:30:00 AM 9.38 48.884 0.92 6.15 170.8 10.12
1/1/2022 7:45:00 AM 9.38 48.884 0.919 6.15 168.3 10.11
1/1/2022 8:00:00 AM 9.38 48.884 0.919 6.15 172.7 10.14
1/1/2022 8:15:00 AM 9.38 48.884 0.918 6.14 172.6 10.16
1/1/2022 8:30:00 AM 9.39 48.902 0.918 6.16 175.6 10.15
1/1/2022 8:45:00 AM 9.39 48.902 0.917 6.16 178.2 10.21
1/1/2022 9:00:00 AM 9.41 48.938 0.916 6.16 159.7 10.24
1/1/2022 9:15:00 AM 9.42 48.956 0.915 6.17 175.6 10.27
1/1/2022 9:30:00 AM 9.43 48.974 0.915 6.2 164.9 10.34
1/1/2022 9:45:00 AM 9.46 49.028 0.914 6.2 184.4 10.42
1/1/2022 10:00:00 AM 9.46 49.028 0.914 6.2 178 10.43
1/1/2022 10:15:00 AM 9.48 49.064 0.913 6.2 167.5 10.53
1/1/2022 10:30:00 AM 9.5 49.1 0.913 6.21 178.5 10.62
1/1/2022 10:45:00 AM 9.53 49.154 0.912 6.19 177.2 10.72
1/1/2022 11:00:00 AM 9.56 49.208 0.911 6.2 170.6 10.9
1/1/2022 11:15:00 AM 9.58 49.244 0.911 6.2 155.3 10.97
1/1/2022 11:30:00 AM 9.59 49.262 0.911 6.23 179.7 10.98
1/1/2022 11:45:00 AM 9.62 49.316 0.91 6.25 178.7 11.02
1/1/2022 12:00:00 PM 9.64 49.352 0.91 6.26 169.9 11.12
1/1/2022 12:15:00 PM 9.65 49.37 0.909 6.26 183.2 11.13
1/1/2022 12:30:00 PM 9.69 49.442 0.908 6.27 178.4 11.21
1/1/2022 12:45:00 PM 9.73 49.514 0.907 6.28 176.2 11.29
1/1/2022 1:00:00 PM 9.76 49.568 0.906 6.3 177.2 11.39
1/1/2022 1:15:00 PM 9.78 49.604 0.905 6.31 171.4 11.47
1/1/2022 1:30:00 PM 9.79 49.622 0.905 6.32 180.7 11.44
1/1/2022 1:45:00 PM 9.81 49.658 0.905 6.32 181 11.45
1/1/2022 2:00:00 PM 9.85 49.73 0.905 6.33 170.1 11.53
1/1/2022 2:15:00 PM 9.88 49.784 0.904 6.36 182.4 11.58
1/1/2022 2:30:00 PM 9.89 49.802 0.904 6.35 175.6 11.6
1/1/2022 2:45:00 PM 9.92 49.856 0.903 6.36 177.6 11.59
1/1/2022 3:00:00 PM 9.92 49.856 0.904 6.38 177.7 11.56
1/1/2022 3:15:00 PM 9.94 49.892 0.903 6.35 179.6 11.54
1/1/2022 3:30:00 PM 9.95 49.91 0.903 6.4 182.1 11.52
1/1/2022 3:45:00 PM 9.98 49.964 0.902 6.4 184.2 11.54
1/1/2022 4:00:00 PM 10.01 50.018 0.901 6.41 179.9 11.51
1/1/2022 4:15:00 PM 10.02 50.036 0.901 6.4 179.9 11.43
1/1/2022 4:30:00 PM 10.01 50.018 0.901 6.41 176.7 11.33
1/1/2022 4:45:00 PM 10.03 50.054 0.9 6.39 173.5 11.27
1/1/2022 5:00:00 PM 10.04 50.072 0.9 6.4 178.1 11.23
1/1/2022 5:15:00 PM 10.06 50.108 0.899 6.4 182.4 11.2
1/1/2022 5:30:00 PM 10.07 50.126 0.898 6.41 180.5 11.1
1/1/2022 5:45:00 PM 10.08 50.144 0.898 6.42 189.9 11.05
1/1/2022 6:00:00 PM 10.1 50.18 0.897 6.41 186.7 10.99
1/1/2022 6:15:00 PM 10.11 50.198 0.791 6.42 189.4 10.95
1/1/2022 6:30:00 PM 10.13 50.234 0.894 6.42 192.7 10.88
1/1/2022 6:45:00 PM 10.14 50.252 0.713 6.42 188.1 10.82
1/1/2022 7:00:00 PM 10.15 50.27 0.893 6.42 187.3 10.73
1/1/2022 7:15:00 PM 10.17 50.306 0.892 6.43 194.4 10.69
1/1/2022 7:30:00 PM 10.17 50.306 0.892 6.43 203.8 10.59
1/1/2022 7:45:00 PM 10.2 50.36 0.892 6.43 200.5 10.59
1/1/2022 8:00:00 PM 10.21 50.378 0.891 6.43 203.8 10.52
1/1/2022 8:15:00 PM 10.24 50.432 0.888 6.43 202.7 10.46
1/1/2022 8:30:00 PM 10.27 50.486 0.868 6.43 272 10.47
1/1/2022 8:45:00 PM 10.17 50.306 0.696 6.46 533.3 10.7
1/1/2022 9:00:00 PM 9.92 49.856 0.5 6.47 537.7 10.85
1/1/2022 9:15:00 PM 9.96 49.928 0.382 6.44 630.5 10.8
1/1/2022 9:30:00 PM 9.98 49.964 0.34 6.32 673.3 10.57
1/1/2022 9:45:00 PM 10.02 50.036 0.436 6.17 545.7 10.44
1/1/2022 10:00:00 PM 10.16 50.288 0.647 6.17 446.7 10.42
1/1/2022 10:15:00 PM 10.21 50.378 0.701 6.22 550.7 10.48
1/1/2022 10:30:00 PM 10.28 50.504 0.774 6.27 569.9 10.43
1/1/2022 10:45:00 PM 10.3 50.54 0.782 6.28 592.9 10.39
1/1/2022 11:00:00 PM 10.45 50.81 0.799 6.3 770.5 10.32
1/1/2022 11:15:00 PM 10.56 51.008 0.725 6.32 927.4 10.21
1/1/2022 11:30:00 PM 10.63 51.134 0.626 6.33 1406 10.06
1/1/2022 11:45:00 PM 10.62 51.116 0.555 6.32 1179 10.07
1/2/2022 12:00:00 AM 10.58 51.044 0.532 6.3 1090 10.19
1/2/2022 12:15:00 AM 10.53 50.954 0.545 6.29 832.5 10.26
1/2/2022 12:30:00 AM 10.49 50.882 0.566 6.29 917.3 10.29
1/2/2022 12:45:00 AM 10.46 50.828 0.583 6.28 681.7 10.28
1/2/2022 1:00:00 AM 10.45 50.81 0.589 6.27 1155 10.26
1/2/2022 1:15:00 AM 10.44 50.792 0.585 6.26 941.7 10.25
1/2/2022 1:30:00 AM 10.44 50.792 0.584 6.26 839.3 10.24
1/2/2022 1:45:00 AM 10.44 50.792 0.589 6.26 1384 10.23
1/2/2022 2:00:00 AM 10.44 50.792 0.594 6.23 748.5 10.21
1/2/2022 2:15:00 AM 10.44 50.792 0.533 6.24 955 10.22
1/2/2022 2:30:00 AM 10.45 50.81 0.516 6.24 1090 10.23
1/2/2022 2:45:00 AM 10.46 50.828 0.586 6.25 782 10.22
1/2/2022 3:00:00 AM 10.47 50.846 0.583 6.25 1128 10.22
1/2/2022 3:15:00 AM 10.47 50.846 0.585 6.25 965.8 10.19
1/2/2022 3:30:00 AM 10.47 50.846 0.592 6.24 775.8 10.21
1/2/2022 3:45:00 AM 10.47 50.846 0.603 6.25 1243 10.22
1/2/2022 4:00:00 AM 10.47 50.846 0.616 6.25 721 10.18
1/2/2022 4:15:00 AM 10.47 50.846 0.63 6.25 818 10.2
1/2/2022 4:30:00 AM 10.47 50.846 0.646 6.27 879.9 10.23
1/2/2022 4:45:00 AM 10.47 50.846 0.656 6.29 1268 10.27
1/2/2022 5:00:00 AM 10.48 50.864 0.655 6.32 1047 10.28
1/2/2022 5:15:00 AM 10.5 50.9 0.642 6.32 814.2 10.28
1/2/2022 5:30:00 AM 10.53 50.954 0.625 6.32 754.3 10.26
1/2/2022 5:45:00 AM 10.55 50.99 0.618 6.32 645 10.24
1/2/2022 6:00:00 AM 10.58 51.044 0.618 6.34 834.2 10.25
1/2/2022 6:15:00 AM 10.59 51.062 0.598 6.34 597.8 10.26
1/2/2022 6:30:00 AM 10.61 51.098 0.621 6.29 914.7 10.27
1/2/2022 6:45:00 AM 10.62 51.116 0.582 6.27 829 10.27
1/2/2022 7:00:00 AM 10.62 51.116 0.652 6.24 873.5 10.29
1/2/2022 7:15:00 AM 10.62 51.116 0.661 6.26 978.7 10.27
1/2/2022 7:30:00 AM 10.62 51.116 0.641 6.26 948.6 10.3
1/2/2022 7:45:00 AM 10.62 51.116 0.684 6.3 798.1 10.32
1/2/2022 8:00:00 AM 10.62 51.116 0.661 6.3 640 10.34
1/2/2022 8:15:00 AM 10.63 51.134 0.698 6.31 966.2 10.34
1/2/2022 8:30:00 AM 10.64 51.152 0.675 6.31 1304 10.35
1/2/2022 8:45:00 AM 10.64 51.152 0.69 6.32 809 10.35
1/2/2022 9:00:00 AM 10.65 51.17 0.682 6.3 1308 10.36
1/2/2022 9:15:00 AM 10.66 51.188 0.662 6.31 1206 10.37
1/2/2022 9:30:00 AM 10.67 51.206 0.656 6.31 976.3 10.37
1/2/2022 9:45:00 AM 10.68 51.224 0.687 6.33 976.3 10.39
1/2/2022 10:00:00 AM 10.7 51.26 0.697 6.31 992.6 10.39
1/2/2022 10:15:00 AM 10.71 51.278 0.709 6.34 1058 10.43
1/2/2022 10:30:00 AM 10.73 51.314 0.72 6.32 904.6 10.46
1/2/2022 10:45:00 AM 10.75 51.35 0.732 6.35 814.8 10.48
1/2/2022 11:00:00 AM 10.77 51.386 0.741 6.34 1339 10.49
1/2/2022 11:15:00 AM 10.8 51.44 0.754 6.36 816.2 10.53
1/2/2022 11:30:00 AM 10.83 51.494 0.76 6.35 785.2 10.54
1/2/2022 11:45:00 AM 10.86 51.548 0.764 6.34 815.7 10.56
1/2/2022 12:00:00 PM 10.89 51.602 0.763 6.33 731.4 10.56
1/2/2022 12:15:00 PM 10.93 51.674 0.761 6.35 796.9 10.57
1/2/2022 12:30:00 PM 10.97 51.746 0.729 6.36 810.5 10.57
1/2/2022 12:45:00 PM 11.01 51.818 0.7 6.36 824.8 10.58
1/2/2022 1:00:00 PM 11.05 51.89 0.705 6.37 902.7 10.56
1/2/2022 1:15:00 PM 11.09 51.962 0.729 6.38 939.7 10.53
1/2/2022 1:30:00 PM 11.13 52.034 0.69 6.37 914.7 10.5
1/2/2022 1:45:00 PM 11.18 52.124 0.68 6.38 851.7 10.47
1/2/2022 2:00:00 PM 11.21 52.178 0.64 6.37 862.7 10.42
1/2/2022 2:15:00 PM 11.24 52.232 0.605 6.36 888.7 10.37
1/2/2022 2:30:00 PM 11.28 52.304 0.62 6.37 885.7 10.31
1/2/2022 2:45:00 PM 11.3 52.34 0.604 6.35 902.6 10.29
1/2/2022 3:00:00 PM 11.32 52.376 0.576 6.37 826.1 10.24
1/2/2022 3:15:00 PM 11.33 52.394 0.566 6.37 896.5 10.19
1/2/2022 3:30:00 PM 11.35 52.43 0.571 6.36 923 10.15
1/2/2022 3:45:00 PM 11.35 52.43 0.557 6.36 1470 10.11
1/2/2022 4:00:00 PM 11.36 52.448 0.572 6.35 980.4 10.08
1/2/2022 4:15:00 PM 11.36 52.448 0.568 6.35 988.2 10.05
1/2/2022 4:30:00 PM 11.35 52.43 0.491 6.33 910.3 10.01
1/2/2022 4:45:00 PM 11.35 52.43 0.535 6.32 990.2 10
1/2/2022 5:00:00 PM 11.34 52.412 0.563 6.32 953.2 9.97
1/2/2022 5:15:00 PM 11.33 52.394 0.501 6.29 1510 9.97
1/2/2022 5:30:00 PM 11.31 52.358 0.575 6.31 952.8 9.98
1/2/2022 5:45:00 PM 11.29 52.322 0.567 6.3 925.1 9.96
1/2/2022 6:00:00 PM 11.27 52.286 0.544 6.3 907.5 9.96
1/2/2022 6:15:00 PM 11.24 52.232 0.552 6.31 872.9 9.96
1/2/2022 6:30:00 PM 11.21 52.178 0.59 6.31 890.8 9.94
1/2/2022 6:45:00 PM 11.16 52.088 0.567 6.29 838.5 9.93
1/2/2022 7:00:00 PM 11.12 52.016 0.56 6.27 862.8 9.93
1/2/2022 7:15:00 PM 11.08 51.944 0.526 6.27 882.8 9.86
1/2/2022 7:30:00 PM 11.02 51.836 0.598 6.28 870.8 9.96
1/2/2022 7:45:00 PM 10.98 51.764 0.628 6.28 1310 9.9
1/2/2022 8:00:00 PM 10.92 51.656 0.565 6.27 835.3 9.9
1/2/2022 8:15:00 PM 10.87 51.566 0.631 6.28 869.9 9.91
1/2/2022 8:30:00 PM 10.81 51.458 0.639 6.27 845.8 9.85
1/2/2022 8:45:00 PM 10.77 51.386 0.603 6.28 860.6 9.87
1/2/2022 9:00:00 PM 10.71 51.278 0.617 6.29 1367 9.8
1/2/2022 9:15:00 PM 10.67 51.206 0.606 6.28 755.3 9.81
1/2/2022 9:30:00 PM 10.62 51.116 0.587 6.27 792.2 9.73
1/2/2022 9:45:00 PM 10.56 51.008 0.589 6.27 766.2 9.77
1/2/2022 10:00:00 PM 10.5 50.9 0.592 6.26 838.1 9.77
1/2/2022 10:15:00 PM 10.45 50.81 0.546 6.23 925.4 9.81
1/2/2022 10:30:00 PM 10.38 50.684 0.546 6.24 1294 9.77
1/2/2022 10:45:00 PM 10.32 50.576 0.552 6.25 740.7 9.8
1/2/2022 11:00:00 PM 10.26 50.468 0.653 6.25 630.9 9.77
1/2/2022 11:15:00 PM 10.2 50.36 0.535 6.26 371.4 9.83
1/2/2022 11:30:00 PM 10.14 50.252 0.592 6.27 365.9 9.82
1/2/2022 11:45:00 PM 10.07 50.126 0.509 6.3 315.6 9.83
1/3/2022 12:00:00 AM 10 50 0.573 6.31 620.9 9.83
1/3/2022 12:15:00 AM 9.94 49.892 0.529 6.32 253 9.8
1/3/2022 12:30:00 AM 9.88 49.784 0.603 6.33 154.7 9.86
1/3/2022 12:45:00 AM 9.82 49.676 0.647 6.35 126.5 9.88
1/3/2022 1:00:00 AM 9.75 49.55 0.512 6.38 172.6 9.89
1/3/2022 1:15:00 AM 9.71 49.478 0.551 6.41 139.5 9.89
1/3/2022 1:30:00 AM 9.66 49.388 0.568 6.44 120.8 9.91
1/3/2022 1:45:00 AM 9.58 49.244 0.577 6.47 117.8 9.99
1/3/2022 2:00:00 AM 9.54 49.172 0.609 6.5 126.2 9.91
1/3/2022 2:15:00 AM 9.49 49.082 0.568 6.53 88.79 9.95
1/3/2022 2:30:00 AM 9.44 48.992 0.555 6.55 85.61 9.98
1/3/2022 2:45:00 AM 9.38 48.884 0.559 6.58 79.37 9.95
1/3/2022 3:00:00 AM 9.35 48.83 0.574 6.62 123.1 9.97
1/3/2022 3:15:00 AM 9.27 48.686 0.564 6.64 91.35 10.06
1/3/2022 3:30:00 AM 9.22 48.596 0.516 6.65 74.05 10.08
1/3/2022 3:45:00 AM 9.19 48.542 0.552 6.67 65.33 10.09
1/3/2022 4:00:00 AM 9.13 48.434 0.564 6.68 61.15 10.15
1/3/2022 4:15:00 AM 9.09 48.362 0.545 6.7 66.6 10.06
1/3/2022 4:30:00 AM 9.04 48.272 0.555 6.7 80.63 10.11
1/3/2022 4:45:00 AM 9 48.2 0.569 6.71 62.69 10.12
1/3/2022 5:00:00 AM 8.96 48.128 0.583 6.72 61.83 10.11
1/3/2022 5:15:00 AM 8.91 48.038 0.49 6.74 79.67 10.21
1/3/2022 5:30:00 AM 8.87 47.966 0.475 6.74 61.17 10.22
1/3/2022 5:45:00 AM 8.82 47.876 0.496 6.74 58.63 10.25
1/3/2022 6:00:00 AM 8.79 47.822 0.521 6.76 57.71 10.26
1/3/2022 6:15:00 AM 8.74 47.732 0.506 6.78 74.58 10.25
1/3/2022 6:30:00 AM 8.7 47.66 0.558 6.79 54.71 10.29
1/3/2022 6:45:00 AM 8.66 47.588 0.602 6.8 51.25 10.3
1/3/2022 7:00:00 AM 8.6 47.48 0.597 6.8 58.7 10.36
1/3/2022 7:15:00 AM 8.58 47.444 0.529 6.81 52.07 10.37
1/3/2022 7:30:00 AM 8.54 47.372 0.593 6.81 55.07 10.32
1/3/2022 7:45:00 AM 8.47 47.246 0.597 6.82 53.88 10.36
1/3/2022 8:00:00 AM 8.43 47.174 0.595 6.82 47.75 10.37
1/3/2022 8:15:00 AM 8.38 47.084 0.589 6.82 52.43 10.38
1/3/2022 8:30:00 AM 8.33 46.994 0.577 6.83 51.53 10.44
1/3/2022 8:45:00 AM 8.3 46.94 0.585 6.84 65.13 10.43
1/3/2022 9:00:00 AM 8.23 46.814 0.584 6.85 45.64 10.5
1/3/2022 9:15:00 AM 8.21 46.778 0.584 6.86 48.42 10.49
1/3/2022 9:30:00 AM 8.15 46.67 0.579 6.87 50.06 10.52
1/3/2022 9:45:00 AM 8.1 46.58 0.572 6.87 59.05 10.57
1/3/2022 10:00:00 AM 8.03 46.454 0.569 6.88 53.93 10.67
1/3/2022 10:15:00 AM 8 46.4 0.561 6.88 46.77 10.68
1/3/2022 10:30:00 AM 7.95 46.31 0.552 6.91 48.82 10.73
1/3/2022 10:45:00 AM 7.92 46.256 0.551 6.91 55.83 10.78
1/3/2022 11:00:00 AM 7.87 46.166 0.547 6.92 47.03 10.84
1/3/2022 11:15:00 AM 7.82 46.076 0.546 6.92 51.4 10.86
1/3/2022 11:30:00 AM 7.79 46.022 0.544 6.93 47.64 10.94
1/3/2022 11:45:00 AM 7.74 45.932 0.544 6.93 57.77 10.94
1/3/2022 12:00:00 PM 7.7 45.86 0.546 6.93 54.59 11.01
1/3/2022 12:15:00 PM 7.67 45.806 0.544 6.94 62.43 11.07
1/3/2022 12:30:00 PM 7.65 45.77 0.567 6.95 47.51 11.11
1/3/2022 12:45:00 PM 7.61 45.698 0.559 6.95 50.8 11.21
1/3/2022 1:00:00 PM 7.59 45.662 0.554 6.96 49.85 11.21
1/3/2022 1:15:00 PM 7.57 45.626 0.561 6.96 49.14 11.25
1/3/2022 1:30:00 PM 7.52 45.536 0.56 6.98 41.11 11.34
1/3/2022 1:45:00 PM 7.49 45.482 0.559 6.98 44.92 11.39
1/3/2022 2:00:00 PM 7.45 45.41 0.555 6.99 43.84 11.36
1/3/2022 2:15:00 PM 7.41 45.338 0.553 7 75.33 11.44
1/3/2022 2:30:00 PM 7.41 45.338 0.549 7 48.83 11.54
1/3/2022 2:45:00 PM 7.39 45.302 0.549 7.01 41.26 11.66
1/3/2022 3:00:00 PM 7.38 45.284 0.55 7.02 40.46 11.7
1/3/2022 3:15:00 PM 7.34 45.212 0.55 7.02 41.25 11.75
1/3/2022 3:30:00 PM 7.29 45.122 0.549 7.03 42.71 11.73
1/3/2022 3:45:00 PM 7.23 45.014 0.548 7.03 37.74 11.74
1/3/2022 4:00:00 PM 7.17 44.906 0.548 7.05 39.72 11.73
1/3/2022 4:15:00 PM 7.12 44.816 0.554 7.06 39.78 11.73
1/3/2022 4:30:00 PM 7.08 44.744 0.551 7.06 34.44 11.74
1/3/2022 4:45:00 PM 7.02 44.636 0.551 7.06 41.33 11.76
1/3/2022 5:00:00 PM 6.96 44.528 0.551 7.07 37.33 11.71
1/3/2022 5:15:00 PM 6.91 44.438 0.553 7.08 41.53 11.74
1/3/2022 5:30:00 PM 6.84 44.312 0.546 7.08 43.81 11.75
1/3/2022 5:45:00 PM 6.81 44.258 0.557 7.06 65.37 11.69
1/3/2022 6:00:00 PM 6.74 44.132 0.556 7.08 43.59 11.73
1/3/2022 6:15:00 PM 6.68 44.024 0.556 7.09 37.85 11.75
1/3/2022 6:30:00 PM 6.61 43.898 0.556 7.09 37.99 11.77
1/3/2022 6:45:00 PM 6.56 43.808 0.556 7.1 38.37 11.75
1/3/2022 7:00:00 PM 6.49 43.682 0.555 7.1 36.93 11.75
1/3/2022 7:15:00 PM 6.42 43.556 0.555 7.1 36.03 11.74
1/3/2022 7:30:00 PM 6.34 43.412 0.555 7.11 39.97 11.77
1/3/2022 7:45:00 PM 6.27 43.286 0.555 7.11 51.29 11.79
1/3/2022 8:00:00 PM 6.21 43.178 0.555 7.09 38.49 11.78
1/3/2022 8:15:00 PM 6.14 43.052 0.555 7.1 37.45 11.81
1/3/2022 8:30:00 PM 6.07 42.926 0.555 7.12 36.94 11.81
1/3/2022 8:45:00 PM 6.02 42.836 0.555 7.12 35.32 11.8
1/3/2022 9:00:00 PM 5.95 42.71 0.555 7.12 37.41 11.81
1/3/2022 9:15:00 PM 5.89 42.602 0.555 7.13 35.75 11.84
1/3/2022 9:30:00 PM 5.83 42.494 0.556 7.13 38.06 11.85
1/3/2022 9:45:00 PM 5.78 42.404 0.556 7.13 39.25 11.86
1/3/2022 10:00:00 PM 5.73 42.314 0.556 7.14 44.72 11.87
1/3/2022 10:15:00 PM 5.68 42.224 0.557 7.15 35.71 11.87
1/3/2022 10:30:00 PM 5.61 42.098 0.558 7.15 34.23 11.9
1/3/2022 10:45:00 PM 5.55 41.99 0.558 7.14 32.66 11.93
1/3/2022 11:00:00 PM 5.49 41.882 0.559 7.15 32.39 11.96
1/3/2022 11:15:00 PM 5.43 41.774 0.56 7.15 36.21 11.97
1/3/2022 11:30:00 PM 5.37 41.666 0.561 7.15 43.24 11.99
1/3/2022 11:45:00 PM 5.31 41.558 0.562 7.17 34.58 11.98
1/4/2022 12:00:00 AM 5.25 41.45 0.563 7.18 37.98 12.04
1/4/2022 12:15:00 AM 5.19 41.342 0.564 7.19 38.74 12.05
1/4/2022 12:30:00 AM 5.13 41.234 0.565 7.19 39.17 12.07
1/4/2022 12:45:00 AM 5.08 41.144 0.566 7.19 36.67 12.08
1/4/2022 1:00:00 AM 5.02 41.036 0.567 7.19 35.75 12.1
1/4/2022 1:15:00 AM 4.96 40.928 0.503 7.21 33.26 12.14
1/4/2022 1:30:00 AM 4.91 40.838 0.56 7.23 43.03 12.17
1/4/2022 1:45:00 AM 4.86 40.748 0.571 7.22 35 12.18
1/4/2022 2:00:00 AM 4.81 40.658 0.565 7.2 33.2 12.19
1/4/2022 2:15:00 AM 4.75 40.55 0.574 7.21 35.14 12.22
1/4/2022 2:30:00 AM 4.7 40.46 0.575 7.2 40.98 12.28
1/4/2022 2:45:00 AM 4.65 40.37 0.577 7.2 34.76 12.3
1/4/2022 3:00:00 AM 4.6 40.28 0.578 7.2 32.14 12.33
1/4/2022 3:15:00 AM 4.55 40.19 0.579 7.2 34.84 12.35
1/4/2022 3:30:00 AM 4.49 40.082 0.58 7.2 32.4 12.38
1/4/2022 3:45:00 AM 4.45 40.01 0.581 7.21 31.12 12.4
1/4/2022 4:00:00 AM 4.4 39.92 0.583 7.22 32.92 12.43
1/4/2022 4:15:00 AM 4.35 39.83 0.584 7.22 29.24 12.46
1/4/2022 4:30:00 AM 4.3 39.74 0.586 7.22 28.87 12.46
1/4/2022 4:45:00 AM 4.25 39.65 0.587 7.23 29.19 12.53
1/4/2022 5:00:00 AM 4.22 39.596 0.588 7.23 29.38 12.57
1/4/2022 5:15:00 AM 4.17 39.506 0.589 7.23 33.23 12.59
1/4/2022 5:30:00 AM 4.13 39.434 0.591 7.25 28.9 12.6
1/4/2022 5:45:00 AM 4.09 39.362 0.592 7.25 28.05 12.64
1/4/2022 6:00:00 AM 4.04 39.272 0.594 7.25 28.95 12.65
1/4/2022 6:15:00 AM 4.01 39.218 0.595 7.26 25.35 12.68
1/4/2022 6:30:00 AM 3.96 39.128 0.59 7.26 33.02 12.73
1/4/2022 6:45:00 AM 3.92 39.056 0.598 7.26 29.97 12.73
1/4/2022 7:00:00 AM 3.88 38.984 0.599 7.26 29.34 12.78
1/4/2022 7:15:00 AM 3.84 38.912 0.601 7.27 28.8 12.8
1/4/2022 7:30:00 AM 3.79 38.822 0.603 7.27 27.44 12.83
1/4/2022 7:45:00 AM 3.75 38.75 0.604 7.27 27.78 12.87
1/4/2022 8:00:00 AM 3.72 38.696 0.606 7.28 30.66 12.91
1/4/2022 8:15:00 AM 3.69 38.642 0.607 7.29 29.9 12.96